<?xml version="1.0" encoding="UTF-8" standalone="no" ?>
<gpx xmlns="http://www.topografix.com/GPX/1/1" xmlns:xsi="http://www.w3.org/2001/XMLSchema-instance" xsi:schemaLocation="http://www.topografix.com/GPX/1/1 http://www.topografix.com/GPX/1/1/gpx.xsd" version="1.1" creator="VisuGPX - https://www.visugpx.com">
  <metadata>
    <name>L\'Orvaltaise</name>
    <desc><![CDATA[rando très bien organisée et trés agréable]]></desc>
  </metadata>
  <trk>
    <name><![CDATA[2015-11-11-01]]></name>
    <trkseg>
      <trkpt lat="47.27293" lon="-1.6245">
        <ele>84.1</ele>
        <time>2015-11-11T07:45:01Z</time>
      </trkpt>
      <trkpt lat="47.27313" lon="-1.62473">
        <ele>40</ele>
        <time>2015-11-11T07:45:29Z</time>
      </trkpt>
      <trkpt lat="47.27315" lon="-1.62484">
        <ele>40</ele>
        <time>2015-11-11T07:45:35Z</time>
      </trkpt>
      <trkpt lat="47.27316" lon="-1.62495">
        <ele>40.1</ele>
        <time>2015-11-11T07:45:41Z</time>
      </trkpt>
      <trkpt lat="47.27323" lon="-1.62512">
        <ele>39.5</ele>
        <time>2015-11-11T07:45:49Z</time>
      </trkpt>
      <trkpt lat="47.27318" lon="-1.62505">
        <ele>40.6</ele>
        <time>2015-11-11T07:46:32Z</time>
      </trkpt>
      <trkpt lat="47.2731" lon="-1.62509">
        <ele>42</ele>
        <time>2015-11-11T07:46:39Z</time>
      </trkpt>
      <trkpt lat="47.27302" lon="-1.62512">
        <ele>42.1</ele>
        <time>2015-11-11T07:46:47Z</time>
      </trkpt>
      <trkpt lat="47.27295" lon="-1.62517">
        <ele>43.5</ele>
        <time>2015-11-11T07:46:55Z</time>
      </trkpt>
      <trkpt lat="47.27288" lon="-1.6252">
        <ele>43.5</ele>
        <time>2015-11-11T07:47:01Z</time>
      </trkpt>
      <trkpt lat="47.27281" lon="-1.62525">
        <ele>43.6</ele>
        <time>2015-11-11T07:47:08Z</time>
      </trkpt>
      <trkpt lat="47.27274" lon="-1.62529">
        <ele>45</ele>
        <time>2015-11-11T07:47:14Z</time>
      </trkpt>
      <trkpt lat="47.27266" lon="-1.62529">
        <ele>44.6</ele>
        <time>2015-11-11T07:47:20Z</time>
      </trkpt>
      <trkpt lat="47.27258" lon="-1.62531">
        <ele>45</ele>
        <time>2015-11-11T07:47:28Z</time>
      </trkpt>
      <trkpt lat="47.2725" lon="-1.62532">
        <ele>46.5</ele>
        <time>2015-11-11T07:47:36Z</time>
      </trkpt>
      <trkpt lat="47.27242" lon="-1.62532">
        <ele>46</ele>
        <time>2015-11-11T07:47:43Z</time>
      </trkpt>
      <trkpt lat="47.27235" lon="-1.62529">
        <ele>46.2</ele>
        <time>2015-11-11T07:47:51Z</time>
      </trkpt>
      <trkpt lat="47.27228" lon="-1.62525">
        <ele>47.3</ele>
        <time>2015-11-11T07:47:57Z</time>
      </trkpt>
      <trkpt lat="47.27221" lon="-1.6252">
        <ele>47.4</ele>
        <time>2015-11-11T07:48:03Z</time>
      </trkpt>
      <trkpt lat="47.27215" lon="-1.62512">
        <ele>47.4</ele>
        <time>2015-11-11T07:48:10Z</time>
      </trkpt>
      <trkpt lat="47.27208" lon="-1.62506">
        <ele>47.8</ele>
        <time>2015-11-11T07:48:16Z</time>
      </trkpt>
      <trkpt lat="47.27202" lon="-1.62497">
        <ele>47.9</ele>
        <time>2015-11-11T07:48:23Z</time>
      </trkpt>
      <trkpt lat="47.27199" lon="-1.62488">
        <ele>46.4</ele>
        <time>2015-11-11T07:48:30Z</time>
      </trkpt>
      <trkpt lat="47.27194" lon="-1.62479">
        <ele>47</ele>
        <time>2015-11-11T07:48:36Z</time>
      </trkpt>
      <trkpt lat="47.2719" lon="-1.6247">
        <ele>47.3</ele>
        <time>2015-11-11T07:48:42Z</time>
      </trkpt>
      <trkpt lat="47.27186" lon="-1.62461">
        <ele>47.3</ele>
        <time>2015-11-11T07:48:48Z</time>
      </trkpt>
      <trkpt lat="47.2718" lon="-1.62454">
        <ele>47</ele>
        <time>2015-11-11T07:48:55Z</time>
      </trkpt>
      <trkpt lat="47.27171" lon="-1.62454">
        <ele>46.5</ele>
        <time>2015-11-11T07:49:03Z</time>
      </trkpt>
      <trkpt lat="47.27164" lon="-1.62449">
        <ele>46.2</ele>
        <time>2015-11-11T07:49:10Z</time>
      </trkpt>
      <trkpt lat="47.27158" lon="-1.62442">
        <ele>45.9</ele>
        <time>2015-11-11T07:49:17Z</time>
      </trkpt>
      <trkpt lat="47.27151" lon="-1.62436">
        <ele>45.7</ele>
        <time>2015-11-11T07:49:24Z</time>
      </trkpt>
      <trkpt lat="47.27145" lon="-1.62428">
        <ele>44.8</ele>
        <time>2015-11-11T07:49:31Z</time>
      </trkpt>
      <trkpt lat="47.27138" lon="-1.62423">
        <ele>45.3</ele>
        <time>2015-11-11T07:49:37Z</time>
      </trkpt>
      <trkpt lat="47.27131" lon="-1.62418">
        <ele>45.1</ele>
        <time>2015-11-11T07:49:44Z</time>
      </trkpt>
      <trkpt lat="47.27125" lon="-1.6241">
        <ele>44.1</ele>
        <time>2015-11-11T07:49:51Z</time>
      </trkpt>
      <trkpt lat="47.27117" lon="-1.62389">
        <ele>44.2</ele>
        <time>2015-11-11T07:50:05Z</time>
      </trkpt>
      <trkpt lat="47.27114" lon="-1.6238">
        <ele>43.2</ele>
        <time>2015-11-11T07:50:15Z</time>
      </trkpt>
      <trkpt lat="47.27114" lon="-1.62369">
        <ele>43.7</ele>
        <time>2015-11-11T07:50:37Z</time>
      </trkpt>
      <trkpt lat="47.2711" lon="-1.62378">
        <ele>44.5</ele>
        <time>2015-11-11T07:50:50Z</time>
      </trkpt>
      <trkpt lat="47.27106" lon="-1.62387">
        <ele>44.6</ele>
        <time>2015-11-11T07:51:01Z</time>
      </trkpt>
      <trkpt lat="47.27092" lon="-1.62398">
        <ele>45.7</ele>
        <time>2015-11-11T07:51:14Z</time>
      </trkpt>
      <trkpt lat="47.27086" lon="-1.62403">
        <ele>45.9</ele>
        <time>2015-11-11T07:51:20Z</time>
      </trkpt>
      <trkpt lat="47.27079" lon="-1.62409">
        <ele>46.6</ele>
        <time>2015-11-11T07:51:27Z</time>
      </trkpt>
      <trkpt lat="47.27073" lon="-1.62416">
        <ele>47.2</ele>
        <time>2015-11-11T07:51:33Z</time>
      </trkpt>
      <trkpt lat="47.27067" lon="-1.62423">
        <ele>47.7</ele>
        <time>2015-11-11T07:51:39Z</time>
      </trkpt>
      <trkpt lat="47.27061" lon="-1.62431">
        <ele>47.4</ele>
        <time>2015-11-11T07:51:45Z</time>
      </trkpt>
      <trkpt lat="47.27055" lon="-1.62438">
        <ele>47.6</ele>
        <time>2015-11-11T07:51:51Z</time>
      </trkpt>
      <trkpt lat="47.2705" lon="-1.62446">
        <ele>48.3</ele>
        <time>2015-11-11T07:51:58Z</time>
      </trkpt>
      <trkpt lat="47.27044" lon="-1.62454">
        <ele>48.2</ele>
        <time>2015-11-11T07:52:05Z</time>
      </trkpt>
      <trkpt lat="47.2703" lon="-1.62465">
        <ele>47.2</ele>
        <time>2015-11-11T07:52:21Z</time>
      </trkpt>
      <trkpt lat="47.27023" lon="-1.62469">
        <ele>47.1</ele>
        <time>2015-11-11T07:52:29Z</time>
      </trkpt>
      <trkpt lat="47.27015" lon="-1.62474">
        <ele>46.4</ele>
        <time>2015-11-11T07:52:36Z</time>
      </trkpt>
      <trkpt lat="47.27008" lon="-1.62479">
        <ele>45.4</ele>
        <time>2015-11-11T07:52:43Z</time>
      </trkpt>
      <trkpt lat="47.27001" lon="-1.62484">
        <ele>45.6</ele>
        <time>2015-11-11T07:52:51Z</time>
      </trkpt>
      <trkpt lat="47.26994" lon="-1.62488">
        <ele>44.9</ele>
        <time>2015-11-11T07:52:58Z</time>
      </trkpt>
      <trkpt lat="47.26988" lon="-1.62495">
        <ele>43.4</ele>
        <time>2015-11-11T07:53:09Z</time>
      </trkpt>
      <trkpt lat="47.26978" lon="-1.62511">
        <ele>42.1</ele>
        <time>2015-11-11T07:53:25Z</time>
      </trkpt>
      <trkpt lat="47.26972" lon="-1.62518">
        <ele>41.5</ele>
        <time>2015-11-11T07:53:34Z</time>
      </trkpt>
      <trkpt lat="47.26964" lon="-1.62515">
        <ele>40.7</ele>
        <time>2015-11-11T07:53:47Z</time>
      </trkpt>
      <trkpt lat="47.26961" lon="-1.62506">
        <ele>39.3</ele>
        <time>2015-11-11T07:53:59Z</time>
      </trkpt>
      <trkpt lat="47.26961" lon="-1.62495">
        <ele>38.6</ele>
        <time>2015-11-11T07:54:08Z</time>
      </trkpt>
      <trkpt lat="47.26955" lon="-1.62485">
        <ele>36.7</ele>
        <time>2015-11-11T07:54:16Z</time>
      </trkpt>
      <trkpt lat="47.26944" lon="-1.6247">
        <ele>35.8</ele>
        <time>2015-11-11T07:54:29Z</time>
      </trkpt>
      <trkpt lat="47.26938" lon="-1.62461">
        <ele>34.9</ele>
        <time>2015-11-11T07:54:35Z</time>
      </trkpt>
      <trkpt lat="47.26933" lon="-1.62453">
        <ele>34.1</ele>
        <time>2015-11-11T07:54:41Z</time>
      </trkpt>
      <trkpt lat="47.26926" lon="-1.62445">
        <ele>33.3</ele>
        <time>2015-11-11T07:54:48Z</time>
      </trkpt>
      <trkpt lat="47.2692" lon="-1.6244">
        <ele>32</ele>
        <time>2015-11-11T07:54:54Z</time>
      </trkpt>
      <trkpt lat="47.26912" lon="-1.62438">
        <ele>31.8</ele>
        <time>2015-11-11T07:55:00Z</time>
      </trkpt>
      <trkpt lat="47.26904" lon="-1.62435">
        <ele>31.6</ele>
        <time>2015-11-11T07:55:07Z</time>
      </trkpt>
      <trkpt lat="47.26896" lon="-1.62434">
        <ele>30.4</ele>
        <time>2015-11-11T07:55:13Z</time>
      </trkpt>
      <trkpt lat="47.26888" lon="-1.62433">
        <ele>30</ele>
        <time>2015-11-11T07:55:20Z</time>
      </trkpt>
      <trkpt lat="47.26874" lon="-1.62424">
        <ele>28.8</ele>
        <time>2015-11-11T07:55:38Z</time>
      </trkpt>
      <trkpt lat="47.26867" lon="-1.6242">
        <ele>28.2</ele>
        <time>2015-11-11T07:55:44Z</time>
      </trkpt>
      <trkpt lat="47.2686" lon="-1.62414">
        <ele>27.3</ele>
        <time>2015-11-11T07:55:51Z</time>
      </trkpt>
      <trkpt lat="47.26853" lon="-1.62411">
        <ele>26.5</ele>
        <time>2015-11-11T07:55:57Z</time>
      </trkpt>
      <trkpt lat="47.26845" lon="-1.62406">
        <ele>26.3</ele>
        <time>2015-11-11T07:56:04Z</time>
      </trkpt>
      <trkpt lat="47.26838" lon="-1.62402">
        <ele>25</ele>
        <time>2015-11-11T07:56:10Z</time>
      </trkpt>
      <trkpt lat="47.26831" lon="-1.62397">
        <ele>24.3</ele>
        <time>2015-11-11T07:56:16Z</time>
      </trkpt>
      <trkpt lat="47.26824" lon="-1.62392">
        <ele>24.1</ele>
        <time>2015-11-11T07:56:22Z</time>
      </trkpt>
      <trkpt lat="47.2681" lon="-1.62384">
        <ele>21.6</ele>
        <time>2015-11-11T07:56:34Z</time>
      </trkpt>
      <trkpt lat="47.26803" lon="-1.6238">
        <ele>19.8</ele>
        <time>2015-11-11T07:56:42Z</time>
      </trkpt>
      <trkpt lat="47.26796" lon="-1.62385">
        <ele>18.2</ele>
        <time>2015-11-11T07:56:51Z</time>
      </trkpt>
      <trkpt lat="47.26793" lon="-1.62395">
        <ele>17.7</ele>
        <time>2015-11-11T07:56:59Z</time>
      </trkpt>
      <trkpt lat="47.26792" lon="-1.62407">
        <ele>17.8</ele>
        <time>2015-11-11T07:57:07Z</time>
      </trkpt>
      <trkpt lat="47.26791" lon="-1.62418">
        <ele>17.5</ele>
        <time>2015-11-11T07:57:14Z</time>
      </trkpt>
      <trkpt lat="47.26789" lon="-1.62429">
        <ele>17.8</ele>
        <time>2015-11-11T07:57:21Z</time>
      </trkpt>
      <trkpt lat="47.26787" lon="-1.6244">
        <ele>17.4</ele>
        <time>2015-11-11T07:57:28Z</time>
      </trkpt>
      <trkpt lat="47.2678" lon="-1.6246">
        <ele>17.1</ele>
        <time>2015-11-11T07:57:45Z</time>
      </trkpt>
      <trkpt lat="47.26777" lon="-1.6247">
        <ele>17.7</ele>
        <time>2015-11-11T07:57:52Z</time>
      </trkpt>
      <trkpt lat="47.26776" lon="-1.62482">
        <ele>16.9</ele>
        <time>2015-11-11T07:57:59Z</time>
      </trkpt>
      <trkpt lat="47.26775" lon="-1.62492">
        <ele>16.6</ele>
        <time>2015-11-11T07:58:04Z</time>
      </trkpt>
      <trkpt lat="47.26775" lon="-1.62503">
        <ele>15.5</ele>
        <time>2015-11-11T07:58:10Z</time>
      </trkpt>
      <trkpt lat="47.26773" lon="-1.62514">
        <ele>15.3</ele>
        <time>2015-11-11T07:58:17Z</time>
      </trkpt>
      <trkpt lat="47.26772" lon="-1.62526">
        <ele>16.1</ele>
        <time>2015-11-11T07:58:25Z</time>
      </trkpt>
      <trkpt lat="47.26771" lon="-1.62538">
        <ele>16</ele>
        <time>2015-11-11T07:58:33Z</time>
      </trkpt>
      <trkpt lat="47.26768" lon="-1.62562">
        <ele>15.9</ele>
        <time>2015-11-11T07:58:47Z</time>
      </trkpt>
      <trkpt lat="47.26768" lon="-1.62573">
        <ele>16.6</ele>
        <time>2015-11-11T07:58:52Z</time>
      </trkpt>
      <trkpt lat="47.26768" lon="-1.62585">
        <ele>16</ele>
        <time>2015-11-11T07:58:59Z</time>
      </trkpt>
      <trkpt lat="47.26767" lon="-1.62597">
        <ele>16.5</ele>
        <time>2015-11-11T07:59:07Z</time>
      </trkpt>
      <trkpt lat="47.26768" lon="-1.62608">
        <ele>16.7</ele>
        <time>2015-11-11T07:59:14Z</time>
      </trkpt>
      <trkpt lat="47.26767" lon="-1.62619">
        <ele>15.8</ele>
        <time>2015-11-11T07:59:20Z</time>
      </trkpt>
      <trkpt lat="47.26767" lon="-1.6263">
        <ele>16.4</ele>
        <time>2015-11-11T07:59:27Z</time>
      </trkpt>
      <trkpt lat="47.26767" lon="-1.62641">
        <ele>16.5</ele>
        <time>2015-11-11T07:59:33Z</time>
      </trkpt>
      <trkpt lat="47.26767" lon="-1.62653">
        <ele>16.2</ele>
        <time>2015-11-11T07:59:40Z</time>
      </trkpt>
      <trkpt lat="47.26768" lon="-1.62675">
        <ele>16.1</ele>
        <time>2015-11-11T07:59:55Z</time>
      </trkpt>
      <trkpt lat="47.26768" lon="-1.62687">
        <ele>16</ele>
        <time>2015-11-11T08:00:01Z</time>
      </trkpt>
      <trkpt lat="47.26769" lon="-1.62699">
        <ele>15.9</ele>
        <time>2015-11-11T08:00:07Z</time>
      </trkpt>
      <trkpt lat="47.26769" lon="-1.6271">
        <ele>16.1</ele>
        <time>2015-11-11T08:00:13Z</time>
      </trkpt>
      <trkpt lat="47.26769" lon="-1.62721">
        <ele>15.9</ele>
        <time>2015-11-11T08:00:19Z</time>
      </trkpt>
      <trkpt lat="47.26769" lon="-1.62732">
        <ele>16.2</ele>
        <time>2015-11-11T08:00:26Z</time>
      </trkpt>
      <trkpt lat="47.26771" lon="-1.62743">
        <ele>15.9</ele>
        <time>2015-11-11T08:00:32Z</time>
      </trkpt>
      <trkpt lat="47.26773" lon="-1.62754">
        <ele>15.5</ele>
        <time>2015-11-11T08:00:38Z</time>
      </trkpt>
      <trkpt lat="47.26774" lon="-1.62766">
        <ele>16</ele>
        <time>2015-11-11T08:00:44Z</time>
      </trkpt>
      <trkpt lat="47.26777" lon="-1.62788">
        <ele>16.6</ele>
        <time>2015-11-11T08:00:56Z</time>
      </trkpt>
      <trkpt lat="47.26778" lon="-1.628">
        <ele>17</ele>
        <time>2015-11-11T08:01:02Z</time>
      </trkpt>
      <trkpt lat="47.26779" lon="-1.62812">
        <ele>16.6</ele>
        <time>2015-11-11T08:01:08Z</time>
      </trkpt>
      <trkpt lat="47.2678" lon="-1.62824">
        <ele>17</ele>
        <time>2015-11-11T08:01:14Z</time>
      </trkpt>
      <trkpt lat="47.26782" lon="-1.62836">
        <ele>16.3</ele>
        <time>2015-11-11T08:01:20Z</time>
      </trkpt>
      <trkpt lat="47.26783" lon="-1.62848">
        <ele>16.9</ele>
        <time>2015-11-11T08:01:26Z</time>
      </trkpt>
      <trkpt lat="47.26784" lon="-1.62861">
        <ele>16.9</ele>
        <time>2015-11-11T08:01:32Z</time>
      </trkpt>
      <trkpt lat="47.26786" lon="-1.62871">
        <ele>17.3</ele>
        <time>2015-11-11T08:01:38Z</time>
      </trkpt>
      <trkpt lat="47.26785" lon="-1.62883">
        <ele>17.1</ele>
        <time>2015-11-11T08:01:46Z</time>
      </trkpt>
      <trkpt lat="47.26782" lon="-1.62905">
        <ele>17</ele>
        <time>2015-11-11T08:02:02Z</time>
      </trkpt>
      <trkpt lat="47.26781" lon="-1.62916">
        <ele>17.1</ele>
        <time>2015-11-11T08:02:09Z</time>
      </trkpt>
      <trkpt lat="47.26781" lon="-1.62927">
        <ele>16.9</ele>
        <time>2015-11-11T08:02:15Z</time>
      </trkpt>
      <trkpt lat="47.2678" lon="-1.62938">
        <ele>17.4</ele>
        <time>2015-11-11T08:02:22Z</time>
      </trkpt>
      <trkpt lat="47.26778" lon="-1.62949">
        <ele>17.4</ele>
        <time>2015-11-11T08:02:29Z</time>
      </trkpt>
      <trkpt lat="47.26776" lon="-1.62961">
        <ele>17.6</ele>
        <time>2015-11-11T08:02:36Z</time>
      </trkpt>
      <trkpt lat="47.26775" lon="-1.62973">
        <ele>17.6</ele>
        <time>2015-11-11T08:02:43Z</time>
      </trkpt>
      <trkpt lat="47.26778" lon="-1.62983">
        <ele>17.9</ele>
        <time>2015-11-11T08:02:49Z</time>
      </trkpt>
      <trkpt lat="47.26782" lon="-1.63006">
        <ele>17.5</ele>
        <time>2015-11-11T08:03:03Z</time>
      </trkpt>
      <trkpt lat="47.26785" lon="-1.63015">
        <ele>17.7</ele>
        <time>2015-11-11T08:03:12Z</time>
      </trkpt>
      <trkpt lat="47.26793" lon="-1.63015">
        <ele>18.2</ele>
        <time>2015-11-11T08:03:25Z</time>
      </trkpt>
      <trkpt lat="47.26801" lon="-1.63019">
        <ele>18.5</ele>
        <time>2015-11-11T08:03:34Z</time>
      </trkpt>
      <trkpt lat="47.26808" lon="-1.63021">
        <ele>18.9</ele>
        <time>2015-11-11T08:03:41Z</time>
      </trkpt>
      <trkpt lat="47.26815" lon="-1.63026">
        <ele>19.2</ele>
        <time>2015-11-11T08:03:49Z</time>
      </trkpt>
      <trkpt lat="47.26821" lon="-1.63033">
        <ele>19.2</ele>
        <time>2015-11-11T08:03:57Z</time>
      </trkpt>
      <trkpt lat="47.26834" lon="-1.63046">
        <ele>18.7</ele>
        <time>2015-11-11T08:04:12Z</time>
      </trkpt>
      <trkpt lat="47.26841" lon="-1.63053">
        <ele>18.4</ele>
        <time>2015-11-11T08:04:19Z</time>
      </trkpt>
      <trkpt lat="47.26847" lon="-1.63062">
        <ele>18</ele>
        <time>2015-11-11T08:04:25Z</time>
      </trkpt>
      <trkpt lat="47.26853" lon="-1.63069">
        <ele>18.9</ele>
        <time>2015-11-11T08:04:32Z</time>
      </trkpt>
      <trkpt lat="47.26859" lon="-1.63077">
        <ele>19.1</ele>
        <time>2015-11-11T08:04:38Z</time>
      </trkpt>
      <trkpt lat="47.26865" lon="-1.63085">
        <ele>19.1</ele>
        <time>2015-11-11T08:04:45Z</time>
      </trkpt>
      <trkpt lat="47.2687" lon="-1.63095">
        <ele>18.9</ele>
        <time>2015-11-11T08:04:51Z</time>
      </trkpt>
      <trkpt lat="47.26875" lon="-1.63105">
        <ele>18.6</ele>
        <time>2015-11-11T08:04:57Z</time>
      </trkpt>
      <trkpt lat="47.26878" lon="-1.63114">
        <ele>18.3</ele>
        <time>2015-11-11T08:05:03Z</time>
      </trkpt>
      <trkpt lat="47.26886" lon="-1.63135">
        <ele>19.4</ele>
        <time>2015-11-11T08:05:15Z</time>
      </trkpt>
      <trkpt lat="47.26889" lon="-1.63144">
        <ele>19</ele>
        <time>2015-11-11T08:05:22Z</time>
      </trkpt>
      <trkpt lat="47.26894" lon="-1.63153">
        <ele>18.2</ele>
        <time>2015-11-11T08:05:29Z</time>
      </trkpt>
      <trkpt lat="47.26899" lon="-1.63163">
        <ele>19.6</ele>
        <time>2015-11-11T08:05:36Z</time>
      </trkpt>
      <trkpt lat="47.26901" lon="-1.63175">
        <ele>19.3</ele>
        <time>2015-11-11T08:05:43Z</time>
      </trkpt>
      <trkpt lat="47.26903" lon="-1.63185">
        <ele>20.4</ele>
        <time>2015-11-11T08:05:49Z</time>
      </trkpt>
      <trkpt lat="47.26903" lon="-1.63196">
        <ele>19.5</ele>
        <time>2015-11-11T08:05:55Z</time>
      </trkpt>
      <trkpt lat="47.26903" lon="-1.63207">
        <ele>20.5</ele>
        <time>2015-11-11T08:06:02Z</time>
      </trkpt>
      <trkpt lat="47.26899" lon="-1.63216">
        <ele>20.6</ele>
        <time>2015-11-11T08:06:10Z</time>
      </trkpt>
      <trkpt lat="47.26898" lon="-1.63238">
        <ele>20.7</ele>
        <time>2015-11-11T08:06:29Z</time>
      </trkpt>
      <trkpt lat="47.26896" lon="-1.63249">
        <ele>20.9</ele>
        <time>2015-11-11T08:06:35Z</time>
      </trkpt>
      <trkpt lat="47.26894" lon="-1.6326">
        <ele>21.7</ele>
        <time>2015-11-11T08:06:42Z</time>
      </trkpt>
      <trkpt lat="47.26893" lon="-1.63271">
        <ele>21.4</ele>
        <time>2015-11-11T08:06:48Z</time>
      </trkpt>
      <trkpt lat="47.26892" lon="-1.63283">
        <ele>22</ele>
        <time>2015-11-11T08:06:54Z</time>
      </trkpt>
      <trkpt lat="47.26891" lon="-1.63295">
        <ele>22.4</ele>
        <time>2015-11-11T08:07:00Z</time>
      </trkpt>
      <trkpt lat="47.26889" lon="-1.63305">
        <ele>22.5</ele>
        <time>2015-11-11T08:07:08Z</time>
      </trkpt>
      <trkpt lat="47.2689" lon="-1.63316">
        <ele>23.2</ele>
        <time>2015-11-11T08:07:15Z</time>
      </trkpt>
      <trkpt lat="47.26892" lon="-1.63337">
        <ele>24.6</ele>
        <time>2015-11-11T08:07:32Z</time>
      </trkpt>
      <trkpt lat="47.2689" lon="-1.63348">
        <ele>25.2</ele>
        <time>2015-11-11T08:07:39Z</time>
      </trkpt>
      <trkpt lat="47.26883" lon="-1.63355">
        <ele>24.7</ele>
        <time>2015-11-11T08:07:48Z</time>
      </trkpt>
      <trkpt lat="47.26879" lon="-1.63365">
        <ele>23.9</ele>
        <time>2015-11-11T08:07:54Z</time>
      </trkpt>
      <trkpt lat="47.26876" lon="-1.63375">
        <ele>24.4</ele>
        <time>2015-11-11T08:08:01Z</time>
      </trkpt>
      <trkpt lat="47.26875" lon="-1.63386">
        <ele>24.7</ele>
        <time>2015-11-11T08:08:08Z</time>
      </trkpt>
      <trkpt lat="47.26874" lon="-1.63398">
        <ele>24.8</ele>
        <time>2015-11-11T08:08:15Z</time>
      </trkpt>
      <trkpt lat="47.26871" lon="-1.63408">
        <ele>25</ele>
        <time>2015-11-11T08:08:21Z</time>
      </trkpt>
      <trkpt lat="47.26867" lon="-1.6343">
        <ele>25.7</ele>
        <time>2015-11-11T08:08:35Z</time>
      </trkpt>
      <trkpt lat="47.26865" lon="-1.6344">
        <ele>25</ele>
        <time>2015-11-11T08:08:42Z</time>
      </trkpt>
      <trkpt lat="47.26861" lon="-1.63451">
        <ele>26.4</ele>
        <time>2015-11-11T08:08:49Z</time>
      </trkpt>
      <trkpt lat="47.26858" lon="-1.63462">
        <ele>26</ele>
        <time>2015-11-11T08:08:56Z</time>
      </trkpt>
      <trkpt lat="47.26855" lon="-1.63472">
        <ele>26.9</ele>
        <time>2015-11-11T08:09:03Z</time>
      </trkpt>
      <trkpt lat="47.26851" lon="-1.63482">
        <ele>27.5</ele>
        <time>2015-11-11T08:09:10Z</time>
      </trkpt>
      <trkpt lat="47.26848" lon="-1.63492">
        <ele>27.8</ele>
        <time>2015-11-11T08:09:16Z</time>
      </trkpt>
      <trkpt lat="47.26845" lon="-1.63502">
        <ele>27.4</ele>
        <time>2015-11-11T08:09:23Z</time>
      </trkpt>
      <trkpt lat="47.26837" lon="-1.63522">
        <ele>27.1</ele>
        <time>2015-11-11T08:09:37Z</time>
      </trkpt>
      <trkpt lat="47.26833" lon="-1.63531">
        <ele>26.6</ele>
        <time>2015-11-11T08:09:43Z</time>
      </trkpt>
      <trkpt lat="47.26828" lon="-1.63541">
        <ele>26.9</ele>
        <time>2015-11-11T08:09:49Z</time>
      </trkpt>
      <trkpt lat="47.26824" lon="-1.63551">
        <ele>27.1</ele>
        <time>2015-11-11T08:09:56Z</time>
      </trkpt>
      <trkpt lat="47.2682" lon="-1.63561">
        <ele>26.9</ele>
        <time>2015-11-11T08:10:02Z</time>
      </trkpt>
      <trkpt lat="47.26816" lon="-1.6357">
        <ele>27.3</ele>
        <time>2015-11-11T08:10:08Z</time>
      </trkpt>
      <trkpt lat="47.26811" lon="-1.6358">
        <ele>27.9</ele>
        <time>2015-11-11T08:10:15Z</time>
      </trkpt>
      <trkpt lat="47.26806" lon="-1.63589">
        <ele>27.4</ele>
        <time>2015-11-11T08:10:22Z</time>
      </trkpt>
      <trkpt lat="47.268" lon="-1.63595">
        <ele>26.6</ele>
        <time>2015-11-11T08:10:29Z</time>
      </trkpt>
      <trkpt lat="47.26787" lon="-1.63607">
        <ele>26.5</ele>
        <time>2015-11-11T08:10:42Z</time>
      </trkpt>
      <trkpt lat="47.26781" lon="-1.63615">
        <ele>26.8</ele>
        <time>2015-11-11T08:10:49Z</time>
      </trkpt>
      <trkpt lat="47.26777" lon="-1.63625">
        <ele>27.5</ele>
        <time>2015-11-11T08:10:57Z</time>
      </trkpt>
      <trkpt lat="47.26774" lon="-1.63634">
        <ele>26.9</ele>
        <time>2015-11-11T08:11:05Z</time>
      </trkpt>
      <trkpt lat="47.26771" lon="-1.63645">
        <ele>26.9</ele>
        <time>2015-11-11T08:11:14Z</time>
      </trkpt>
      <trkpt lat="47.26767" lon="-1.63655">
        <ele>26.3</ele>
        <time>2015-11-11T08:11:23Z</time>
      </trkpt>
      <trkpt lat="47.26763" lon="-1.63665">
        <ele>24.5</ele>
        <time>2015-11-11T08:11:33Z</time>
      </trkpt>
      <trkpt lat="47.26753" lon="-1.63682">
        <ele>22.9</ele>
        <time>2015-11-11T08:11:48Z</time>
      </trkpt>
      <trkpt lat="47.26748" lon="-1.63692">
        <ele>22.7</ele>
        <time>2015-11-11T08:11:55Z</time>
      </trkpt>
      <trkpt lat="47.26744" lon="-1.63703">
        <ele>23.1</ele>
        <time>2015-11-11T08:12:01Z</time>
      </trkpt>
      <trkpt lat="47.26741" lon="-1.63713">
        <ele>22.6</ele>
        <time>2015-11-11T08:12:08Z</time>
      </trkpt>
      <trkpt lat="47.26738" lon="-1.63725">
        <ele>22.4</ele>
        <time>2015-11-11T08:12:16Z</time>
      </trkpt>
      <trkpt lat="47.26735" lon="-1.63736">
        <ele>22.4</ele>
        <time>2015-11-11T08:12:24Z</time>
      </trkpt>
      <trkpt lat="47.26732" lon="-1.63746">
        <ele>22</ele>
        <time>2015-11-11T08:12:31Z</time>
      </trkpt>
      <trkpt lat="47.26731" lon="-1.63757">
        <ele>22.7</ele>
        <time>2015-11-11T08:12:37Z</time>
      </trkpt>
      <trkpt lat="47.26728" lon="-1.6378">
        <ele>22.2</ele>
        <time>2015-11-11T08:12:51Z</time>
      </trkpt>
      <trkpt lat="47.26727" lon="-1.63791">
        <ele>23</ele>
        <time>2015-11-11T08:12:57Z</time>
      </trkpt>
      <trkpt lat="47.26727" lon="-1.63802">
        <ele>22.8</ele>
        <time>2015-11-11T08:13:03Z</time>
      </trkpt>
      <trkpt lat="47.26727" lon="-1.63813">
        <ele>23</ele>
        <time>2015-11-11T08:13:09Z</time>
      </trkpt>
      <trkpt lat="47.26727" lon="-1.63825">
        <ele>22.7</ele>
        <time>2015-11-11T08:13:14Z</time>
      </trkpt>
      <trkpt lat="47.26725" lon="-1.63836">
        <ele>23</ele>
        <time>2015-11-11T08:13:21Z</time>
      </trkpt>
      <trkpt lat="47.26724" lon="-1.63847">
        <ele>23.3</ele>
        <time>2015-11-11T08:13:28Z</time>
      </trkpt>
      <trkpt lat="47.26723" lon="-1.63858">
        <ele>22.3</ele>
        <time>2015-11-11T08:13:35Z</time>
      </trkpt>
      <trkpt lat="47.26722" lon="-1.63869">
        <ele>22.6</ele>
        <time>2015-11-11T08:13:43Z</time>
      </trkpt>
      <trkpt lat="47.26719" lon="-1.63892">
        <ele>21.8</ele>
        <time>2015-11-11T08:13:59Z</time>
      </trkpt>
      <trkpt lat="47.26718" lon="-1.63903">
        <ele>21.8</ele>
        <time>2015-11-11T08:14:05Z</time>
      </trkpt>
      <trkpt lat="47.26718" lon="-1.63915">
        <ele>21.8</ele>
        <time>2015-11-11T08:14:11Z</time>
      </trkpt>
      <trkpt lat="47.26718" lon="-1.63926">
        <ele>22.3</ele>
        <time>2015-11-11T08:14:17Z</time>
      </trkpt>
      <trkpt lat="47.26716" lon="-1.63938">
        <ele>21.8</ele>
        <time>2015-11-11T08:14:23Z</time>
      </trkpt>
      <trkpt lat="47.26717" lon="-1.6395">
        <ele>21.6</ele>
        <time>2015-11-11T08:14:29Z</time>
      </trkpt>
      <trkpt lat="47.26716" lon="-1.63961">
        <ele>21.2</ele>
        <time>2015-11-11T08:14:34Z</time>
      </trkpt>
      <trkpt lat="47.26714" lon="-1.63972">
        <ele>20.8</ele>
        <time>2015-11-11T08:14:39Z</time>
      </trkpt>
      <trkpt lat="47.26718" lon="-1.63981">
        <ele>21.1</ele>
        <time>2015-11-11T08:14:47Z</time>
      </trkpt>
      <trkpt lat="47.26725" lon="-1.64">
        <ele>21.3</ele>
        <time>2015-11-11T08:15:19Z</time>
      </trkpt>
      <trkpt lat="47.26725" lon="-1.64011">
        <ele>21.9</ele>
        <time>2015-11-11T08:15:27Z</time>
      </trkpt>
      <trkpt lat="47.26724" lon="-1.64023">
        <ele>22</ele>
        <time>2015-11-11T08:15:35Z</time>
      </trkpt>
      <trkpt lat="47.26724" lon="-1.64035">
        <ele>23</ele>
        <time>2015-11-11T08:15:43Z</time>
      </trkpt>
      <trkpt lat="47.26722" lon="-1.64045">
        <ele>24</ele>
        <time>2015-11-11T08:15:53Z</time>
      </trkpt>
      <trkpt lat="47.26715" lon="-1.64065">
        <ele>27.4</ele>
        <time>2015-11-11T08:16:13Z</time>
      </trkpt>
      <trkpt lat="47.26709" lon="-1.64073">
        <ele>28.4</ele>
        <time>2015-11-11T08:16:20Z</time>
      </trkpt>
      <trkpt lat="47.26706" lon="-1.64082">
        <ele>29.3</ele>
        <time>2015-11-11T08:16:29Z</time>
      </trkpt>
      <trkpt lat="47.26702" lon="-1.64092">
        <ele>30.1</ele>
        <time>2015-11-11T08:16:38Z</time>
      </trkpt>
      <trkpt lat="47.26696" lon="-1.64101">
        <ele>31.7</ele>
        <time>2015-11-11T08:16:46Z</time>
      </trkpt>
      <trkpt lat="47.2669" lon="-1.64108">
        <ele>32.1</ele>
        <time>2015-11-11T08:16:54Z</time>
      </trkpt>
      <trkpt lat="47.26678" lon="-1.64121">
        <ele>34</ele>
        <time>2015-11-11T08:17:09Z</time>
      </trkpt>
      <trkpt lat="47.26671" lon="-1.64125">
        <ele>35.2</ele>
        <time>2015-11-11T08:17:17Z</time>
      </trkpt>
      <trkpt lat="47.26663" lon="-1.64127">
        <ele>35.8</ele>
        <time>2015-11-11T08:17:25Z</time>
      </trkpt>
      <trkpt lat="47.26656" lon="-1.64131">
        <ele>36.7</ele>
        <time>2015-11-11T08:17:33Z</time>
      </trkpt>
      <trkpt lat="47.26648" lon="-1.6413">
        <ele>38.5</ele>
        <time>2015-11-11T08:17:43Z</time>
      </trkpt>
      <trkpt lat="47.2664" lon="-1.64129">
        <ele>39.6</ele>
        <time>2015-11-11T08:17:52Z</time>
      </trkpt>
      <trkpt lat="47.26632" lon="-1.64128">
        <ele>41.6</ele>
        <time>2015-11-11T08:18:01Z</time>
      </trkpt>
      <trkpt lat="47.26618" lon="-1.64124">
        <ele>42.8</ele>
        <time>2015-11-11T08:18:16Z</time>
      </trkpt>
      <trkpt lat="47.2661" lon="-1.6412">
        <ele>44.5</ele>
        <time>2015-11-11T08:18:25Z</time>
      </trkpt>
      <trkpt lat="47.26603" lon="-1.64116">
        <ele>45.4</ele>
        <time>2015-11-11T08:18:32Z</time>
      </trkpt>
      <trkpt lat="47.26596" lon="-1.64114">
        <ele>46.2</ele>
        <time>2015-11-11T08:18:38Z</time>
      </trkpt>
      <trkpt lat="47.26588" lon="-1.64112">
        <ele>45.8</ele>
        <time>2015-11-11T08:18:44Z</time>
      </trkpt>
      <trkpt lat="47.2658" lon="-1.64111">
        <ele>46.3</ele>
        <time>2015-11-11T08:18:51Z</time>
      </trkpt>
      <trkpt lat="47.26572" lon="-1.64111">
        <ele>47.8</ele>
        <time>2015-11-11T08:18:58Z</time>
      </trkpt>
      <trkpt lat="47.26564" lon="-1.6411">
        <ele>48.4</ele>
        <time>2015-11-11T08:19:04Z</time>
      </trkpt>
      <trkpt lat="47.26548" lon="-1.64105">
        <ele>49.4</ele>
        <time>2015-11-11T08:19:20Z</time>
      </trkpt>
      <trkpt lat="47.2654" lon="-1.64103">
        <ele>50.1</ele>
        <time>2015-11-11T08:19:27Z</time>
      </trkpt>
      <trkpt lat="47.26533" lon="-1.641">
        <ele>51.1</ele>
        <time>2015-11-11T08:19:36Z</time>
      </trkpt>
      <trkpt lat="47.26525" lon="-1.64096">
        <ele>51.1</ele>
        <time>2015-11-11T08:19:43Z</time>
      </trkpt>
      <trkpt lat="47.26519" lon="-1.64091">
        <ele>51.3</ele>
        <time>2015-11-11T08:19:50Z</time>
      </trkpt>
      <trkpt lat="47.26513" lon="-1.64084">
        <ele>51.3</ele>
        <time>2015-11-11T08:19:56Z</time>
      </trkpt>
      <trkpt lat="47.26506" lon="-1.64079">
        <ele>51.6</ele>
        <time>2015-11-11T08:20:01Z</time>
      </trkpt>
      <trkpt lat="47.26501" lon="-1.64072">
        <ele>52</ele>
        <time>2015-11-11T08:20:07Z</time>
      </trkpt>
      <trkpt lat="47.26487" lon="-1.64061">
        <ele>52.2</ele>
        <time>2015-11-11T08:20:19Z</time>
      </trkpt>
      <trkpt lat="47.26481" lon="-1.64056">
        <ele>52.6</ele>
        <time>2015-11-11T08:20:26Z</time>
      </trkpt>
      <trkpt lat="47.26474" lon="-1.64061">
        <ele>53.4</ele>
        <time>2015-11-11T08:20:33Z</time>
      </trkpt>
      <trkpt lat="47.26467" lon="-1.64067">
        <ele>54.2</ele>
        <time>2015-11-11T08:20:40Z</time>
      </trkpt>
      <trkpt lat="47.2646" lon="-1.64072">
        <ele>54.1</ele>
        <time>2015-11-11T08:20:47Z</time>
      </trkpt>
      <trkpt lat="47.26454" lon="-1.64081">
        <ele>53.5</ele>
        <time>2015-11-11T08:20:54Z</time>
      </trkpt>
      <trkpt lat="47.26448" lon="-1.64088">
        <ele>54.4</ele>
        <time>2015-11-11T08:21:01Z</time>
      </trkpt>
      <trkpt lat="47.26442" lon="-1.64095">
        <ele>54.6</ele>
        <time>2015-11-11T08:21:07Z</time>
      </trkpt>
      <trkpt lat="47.26437" lon="-1.64105">
        <ele>54.4</ele>
        <time>2015-11-11T08:21:14Z</time>
      </trkpt>
      <trkpt lat="47.26427" lon="-1.64122">
        <ele>54.9</ele>
        <time>2015-11-11T08:21:27Z</time>
      </trkpt>
      <trkpt lat="47.26422" lon="-1.6413">
        <ele>55.1</ele>
        <time>2015-11-11T08:21:35Z</time>
      </trkpt>
      <trkpt lat="47.26417" lon="-1.64138">
        <ele>53.4</ele>
        <time>2015-11-11T08:21:42Z</time>
      </trkpt>
      <trkpt lat="47.26411" lon="-1.64147">
        <ele>54.3</ele>
        <time>2015-11-11T08:21:49Z</time>
      </trkpt>
      <trkpt lat="47.26406" lon="-1.64156">
        <ele>55.1</ele>
        <time>2015-11-11T08:21:56Z</time>
      </trkpt>
      <trkpt lat="47.26402" lon="-1.64165">
        <ele>55</ele>
        <time>2015-11-11T08:22:02Z</time>
      </trkpt>
      <trkpt lat="47.26398" lon="-1.64174">
        <ele>54.6</ele>
        <time>2015-11-11T08:22:09Z</time>
      </trkpt>
      <trkpt lat="47.26393" lon="-1.64183">
        <ele>54.9</ele>
        <time>2015-11-11T08:22:16Z</time>
      </trkpt>
      <trkpt lat="47.26384" lon="-1.64201">
        <ele>55.3</ele>
        <time>2015-11-11T08:22:29Z</time>
      </trkpt>
      <trkpt lat="47.2638" lon="-1.6421">
        <ele>54.9</ele>
        <time>2015-11-11T08:22:37Z</time>
      </trkpt>
      <trkpt lat="47.26376" lon="-1.64219">
        <ele>54</ele>
        <time>2015-11-11T08:22:44Z</time>
      </trkpt>
      <trkpt lat="47.26372" lon="-1.64228">
        <ele>54</ele>
        <time>2015-11-11T08:22:51Z</time>
      </trkpt>
      <trkpt lat="47.26373" lon="-1.6424">
        <ele>54.2</ele>
        <time>2015-11-11T08:22:59Z</time>
      </trkpt>
      <trkpt lat="47.26378" lon="-1.64247">
        <ele>54.4</ele>
        <time>2015-11-11T08:23:06Z</time>
      </trkpt>
      <trkpt lat="47.26383" lon="-1.64256">
        <ele>54.3</ele>
        <time>2015-11-11T08:23:13Z</time>
      </trkpt>
      <trkpt lat="47.26388" lon="-1.64264">
        <ele>54</ele>
        <time>2015-11-11T08:23:20Z</time>
      </trkpt>
      <trkpt lat="47.26399" lon="-1.6428">
        <ele>54.7</ele>
        <time>2015-11-11T08:23:34Z</time>
      </trkpt>
      <trkpt lat="47.26404" lon="-1.64288">
        <ele>54.6</ele>
        <time>2015-11-11T08:23:41Z</time>
      </trkpt>
      <trkpt lat="47.2641" lon="-1.64295">
        <ele>54.3</ele>
        <time>2015-11-11T08:23:48Z</time>
      </trkpt>
      <trkpt lat="47.26418" lon="-1.64299">
        <ele>54.5</ele>
        <time>2015-11-11T08:23:55Z</time>
      </trkpt>
      <trkpt lat="47.26425" lon="-1.64298">
        <ele>54.7</ele>
        <time>2015-11-11T08:24:03Z</time>
      </trkpt>
      <trkpt lat="47.26431" lon="-1.6429">
        <ele>53.8</ele>
        <time>2015-11-11T08:24:14Z</time>
      </trkpt>
      <trkpt lat="47.26436" lon="-1.64283">
        <ele>54.7</ele>
        <time>2015-11-11T08:24:22Z</time>
      </trkpt>
      <trkpt lat="47.26449" lon="-1.6427">
        <ele>54.1</ele>
        <time>2015-11-11T08:24:35Z</time>
      </trkpt>
      <trkpt lat="47.26456" lon="-1.64267">
        <ele>54.4</ele>
        <time>2015-11-11T08:24:41Z</time>
      </trkpt>
      <trkpt lat="47.26464" lon="-1.64265">
        <ele>53.7</ele>
        <time>2015-11-11T08:24:47Z</time>
      </trkpt>
      <trkpt lat="47.26472" lon="-1.64261">
        <ele>53.8</ele>
        <time>2015-11-11T08:24:53Z</time>
      </trkpt>
      <trkpt lat="47.26479" lon="-1.64259">
        <ele>53.9</ele>
        <time>2015-11-11T08:25:00Z</time>
      </trkpt>
      <trkpt lat="47.26487" lon="-1.64257">
        <ele>54.1</ele>
        <time>2015-11-11T08:25:06Z</time>
      </trkpt>
      <trkpt lat="47.26494" lon="-1.64257">
        <ele>52.7</ele>
        <time>2015-11-11T08:25:12Z</time>
      </trkpt>
      <trkpt lat="47.26502" lon="-1.64257">
        <ele>52.7</ele>
        <time>2015-11-11T08:25:18Z</time>
      </trkpt>
      <trkpt lat="47.2651" lon="-1.64256">
        <ele>52.5</ele>
        <time>2015-11-11T08:25:25Z</time>
      </trkpt>
      <trkpt lat="47.26525" lon="-1.64254">
        <ele>50.8</ele>
        <time>2015-11-11T08:25:40Z</time>
      </trkpt>
      <trkpt lat="47.26533" lon="-1.64252">
        <ele>51</ele>
        <time>2015-11-11T08:25:48Z</time>
      </trkpt>
      <trkpt lat="47.26541" lon="-1.64252">
        <ele>50.4</ele>
        <time>2015-11-11T08:25:55Z</time>
      </trkpt>
      <trkpt lat="47.26549" lon="-1.64254">
        <ele>49.9</ele>
        <time>2015-11-11T08:26:01Z</time>
      </trkpt>
      <trkpt lat="47.26556" lon="-1.64256">
        <ele>49.1</ele>
        <time>2015-11-11T08:26:07Z</time>
      </trkpt>
      <trkpt lat="47.26564" lon="-1.64257">
        <ele>48.5</ele>
        <time>2015-11-11T08:26:14Z</time>
      </trkpt>
      <trkpt lat="47.26571" lon="-1.6426">
        <ele>48</ele>
        <time>2015-11-11T08:26:20Z</time>
      </trkpt>
      <trkpt lat="47.26579" lon="-1.64261">
        <ele>48.5</ele>
        <time>2015-11-11T08:26:29Z</time>
      </trkpt>
      <trkpt lat="47.26595" lon="-1.64261">
        <ele>46.3</ele>
        <time>2015-11-11T08:26:44Z</time>
      </trkpt>
      <trkpt lat="47.26603" lon="-1.6426">
        <ele>45.6</ele>
        <time>2015-11-11T08:26:51Z</time>
      </trkpt>
      <trkpt lat="47.2661" lon="-1.64259">
        <ele>45.2</ele>
        <time>2015-11-11T08:26:58Z</time>
      </trkpt>
      <trkpt lat="47.26617" lon="-1.6426">
        <ele>44.4</ele>
        <time>2015-11-11T08:27:05Z</time>
      </trkpt>
      <trkpt lat="47.26625" lon="-1.64261">
        <ele>44.2</ele>
        <time>2015-11-11T08:27:12Z</time>
      </trkpt>
      <trkpt lat="47.26632" lon="-1.64261">
        <ele>43.3</ele>
        <time>2015-11-11T08:27:19Z</time>
      </trkpt>
      <trkpt lat="47.2664" lon="-1.6426">
        <ele>43.1</ele>
        <time>2015-11-11T08:27:26Z</time>
      </trkpt>
      <trkpt lat="47.26647" lon="-1.64257">
        <ele>41.8</ele>
        <time>2015-11-11T08:27:33Z</time>
      </trkpt>
      <trkpt lat="47.26663" lon="-1.64253">
        <ele>43.4</ele>
        <time>2015-11-11T08:27:47Z</time>
      </trkpt>
      <trkpt lat="47.26671" lon="-1.64254">
        <ele>44.3</ele>
        <time>2015-11-11T08:27:54Z</time>
      </trkpt>
      <trkpt lat="47.2668" lon="-1.64253">
        <ele>43.7</ele>
        <time>2015-11-11T08:28:00Z</time>
      </trkpt>
      <trkpt lat="47.26688" lon="-1.64254">
        <ele>44.1</ele>
        <time>2015-11-11T08:28:06Z</time>
      </trkpt>
      <trkpt lat="47.26696" lon="-1.64255">
        <ele>43.9</ele>
        <time>2015-11-11T08:28:12Z</time>
      </trkpt>
      <trkpt lat="47.26704" lon="-1.64258">
        <ele>44.1</ele>
        <time>2015-11-11T08:28:18Z</time>
      </trkpt>
      <trkpt lat="47.26712" lon="-1.64259">
        <ele>43.9</ele>
        <time>2015-11-11T08:28:25Z</time>
      </trkpt>
      <trkpt lat="47.2672" lon="-1.64259">
        <ele>43.5</ele>
        <time>2015-11-11T08:28:32Z</time>
      </trkpt>
      <trkpt lat="47.26727" lon="-1.64259">
        <ele>43.4</ele>
        <time>2015-11-11T08:28:39Z</time>
      </trkpt>
      <trkpt lat="47.26744" lon="-1.64261">
        <ele>42.8</ele>
        <time>2015-11-11T08:28:54Z</time>
      </trkpt>
      <trkpt lat="47.26751" lon="-1.64262">
        <ele>43.6</ele>
        <time>2015-11-11T08:29:01Z</time>
      </trkpt>
      <trkpt lat="47.26759" lon="-1.64266">
        <ele>43.8</ele>
        <time>2015-11-11T08:29:07Z</time>
      </trkpt>
      <trkpt lat="47.26767" lon="-1.64267">
        <ele>44.5</ele>
        <time>2015-11-11T08:29:14Z</time>
      </trkpt>
      <trkpt lat="47.26775" lon="-1.64267">
        <ele>44.4</ele>
        <time>2015-11-11T08:29:21Z</time>
      </trkpt>
      <trkpt lat="47.26783" lon="-1.64267">
        <ele>45.3</ele>
        <time>2015-11-11T08:29:28Z</time>
      </trkpt>
      <trkpt lat="47.26791" lon="-1.64267">
        <ele>46</ele>
        <time>2015-11-11T08:29:35Z</time>
      </trkpt>
      <trkpt lat="47.26799" lon="-1.6427">
        <ele>46.7</ele>
        <time>2015-11-11T08:29:42Z</time>
      </trkpt>
      <trkpt lat="47.26811" lon="-1.64283">
        <ele>47.1</ele>
        <time>2015-11-11T08:29:57Z</time>
      </trkpt>
      <trkpt lat="47.26815" lon="-1.64291">
        <ele>47.7</ele>
        <time>2015-11-11T08:30:03Z</time>
      </trkpt>
      <trkpt lat="47.26821" lon="-1.643">
        <ele>48.2</ele>
        <time>2015-11-11T08:30:10Z</time>
      </trkpt>
      <trkpt lat="47.26826" lon="-1.64309">
        <ele>48.3</ele>
        <time>2015-11-11T08:30:16Z</time>
      </trkpt>
      <trkpt lat="47.26831" lon="-1.64317">
        <ele>48.3</ele>
        <time>2015-11-11T08:30:22Z</time>
      </trkpt>
      <trkpt lat="47.26835" lon="-1.64325">
        <ele>49.3</ele>
        <time>2015-11-11T08:30:28Z</time>
      </trkpt>
      <trkpt lat="47.2684" lon="-1.64334">
        <ele>49.6</ele>
        <time>2015-11-11T08:30:34Z</time>
      </trkpt>
      <trkpt lat="47.26845" lon="-1.64343">
        <ele>49.3</ele>
        <time>2015-11-11T08:30:41Z</time>
      </trkpt>
      <trkpt lat="47.26849" lon="-1.64354">
        <ele>49.4</ele>
        <time>2015-11-11T08:30:48Z</time>
      </trkpt>
      <trkpt lat="47.26857" lon="-1.64374">
        <ele>48.8</ele>
        <time>2015-11-11T08:31:02Z</time>
      </trkpt>
      <trkpt lat="47.26862" lon="-1.64382">
        <ele>49.2</ele>
        <time>2015-11-11T08:31:09Z</time>
      </trkpt>
      <trkpt lat="47.26868" lon="-1.6439">
        <ele>50.1</ele>
        <time>2015-11-11T08:31:15Z</time>
      </trkpt>
      <trkpt lat="47.26872" lon="-1.644">
        <ele>49.7</ele>
        <time>2015-11-11T08:31:23Z</time>
      </trkpt>
      <trkpt lat="47.26877" lon="-1.64408">
        <ele>49.1</ele>
        <time>2015-11-11T08:31:30Z</time>
      </trkpt>
      <trkpt lat="47.26882" lon="-1.64417">
        <ele>49</ele>
        <time>2015-11-11T08:31:37Z</time>
      </trkpt>
      <trkpt lat="47.26889" lon="-1.64422">
        <ele>48.7</ele>
        <time>2015-11-11T08:31:46Z</time>
      </trkpt>
      <trkpt lat="47.26896" lon="-1.64427">
        <ele>48.3</ele>
        <time>2015-11-11T08:31:55Z</time>
      </trkpt>
      <trkpt lat="47.26911" lon="-1.64433">
        <ele>46.8</ele>
        <time>2015-11-11T08:32:15Z</time>
      </trkpt>
      <trkpt lat="47.26919" lon="-1.64434">
        <ele>45.6</ele>
        <time>2015-11-11T08:32:26Z</time>
      </trkpt>
      <trkpt lat="47.26925" lon="-1.64438">
        <ele>42.6</ele>
        <time>2015-11-11T08:32:39Z</time>
      </trkpt>
      <trkpt lat="47.26932" lon="-1.64443">
        <ele>41.4</ele>
        <time>2015-11-11T08:32:54Z</time>
      </trkpt>
      <trkpt lat="47.26939" lon="-1.64448">
        <ele>39.4</ele>
        <time>2015-11-11T08:33:07Z</time>
      </trkpt>
      <trkpt lat="47.26953" lon="-1.64455">
        <ele>36.5</ele>
        <time>2015-11-11T08:33:37Z</time>
      </trkpt>
      <trkpt lat="47.2696" lon="-1.64457">
        <ele>32.9</ele>
        <time>2015-11-11T08:33:55Z</time>
      </trkpt>
      <trkpt lat="47.26967" lon="-1.64457">
        <ele>31.3</ele>
        <time>2015-11-11T08:34:10Z</time>
      </trkpt>
      <trkpt lat="47.26982" lon="-1.64458">
        <ele>26.2</ele>
        <time>2015-11-11T08:34:35Z</time>
      </trkpt>
      <trkpt lat="47.26989" lon="-1.64459">
        <ele>25.1</ele>
        <time>2015-11-11T08:34:45Z</time>
      </trkpt>
      <trkpt lat="47.26996" lon="-1.64453">
        <ele>24</ele>
        <time>2015-11-11T08:34:53Z</time>
      </trkpt>
      <trkpt lat="47.27003" lon="-1.64448">
        <ele>23.3</ele>
        <time>2015-11-11T08:35:08Z</time>
      </trkpt>
      <trkpt lat="47.27008" lon="-1.6444">
        <ele>23.7</ele>
        <time>2015-11-11T08:35:32Z</time>
      </trkpt>
      <trkpt lat="47.27021" lon="-1.64432">
        <ele>23.4</ele>
        <time>2015-11-11T08:35:58Z</time>
      </trkpt>
      <trkpt lat="47.27028" lon="-1.64437">
        <ele>24</ele>
        <time>2015-11-11T08:36:07Z</time>
      </trkpt>
      <trkpt lat="47.27035" lon="-1.64441">
        <ele>25.4</ele>
        <time>2015-11-11T08:36:15Z</time>
      </trkpt>
      <trkpt lat="47.27041" lon="-1.64448">
        <ele>26</ele>
        <time>2015-11-11T08:36:22Z</time>
      </trkpt>
      <trkpt lat="47.27048" lon="-1.64454">
        <ele>27.8</ele>
        <time>2015-11-11T08:36:33Z</time>
      </trkpt>
      <trkpt lat="47.27059" lon="-1.6447">
        <ele>32.1</ele>
        <time>2015-11-11T08:36:54Z</time>
      </trkpt>
      <trkpt lat="47.27063" lon="-1.64479">
        <ele>33.7</ele>
        <time>2015-11-11T08:37:02Z</time>
      </trkpt>
      <trkpt lat="47.27068" lon="-1.64488">
        <ele>36</ele>
        <time>2015-11-11T08:37:09Z</time>
      </trkpt>
      <trkpt lat="47.27073" lon="-1.64496">
        <ele>37.4</ele>
        <time>2015-11-11T08:37:17Z</time>
      </trkpt>
      <trkpt lat="47.27079" lon="-1.64504">
        <ele>39.3</ele>
        <time>2015-11-11T08:37:25Z</time>
      </trkpt>
      <trkpt lat="47.27084" lon="-1.64511">
        <ele>40.9</ele>
        <time>2015-11-11T08:37:31Z</time>
      </trkpt>
      <trkpt lat="47.27089" lon="-1.6452">
        <ele>40.8</ele>
        <time>2015-11-11T08:37:42Z</time>
      </trkpt>
      <trkpt lat="47.27104" lon="-1.64524">
        <ele>41.8</ele>
        <time>2015-11-11T08:38:19Z</time>
      </trkpt>
      <trkpt lat="47.27109" lon="-1.64531">
        <ele>42</ele>
        <time>2015-11-11T08:38:42Z</time>
      </trkpt>
      <trkpt lat="47.27116" lon="-1.64535">
        <ele>42.8</ele>
        <time>2015-11-11T08:38:58Z</time>
      </trkpt>
      <trkpt lat="47.27132" lon="-1.64533">
        <ele>44.7</ele>
        <time>2015-11-11T08:39:17Z</time>
      </trkpt>
      <trkpt lat="47.2714" lon="-1.64533">
        <ele>45.5</ele>
        <time>2015-11-11T08:39:25Z</time>
      </trkpt>
      <trkpt lat="47.27147" lon="-1.64533">
        <ele>45.6</ele>
        <time>2015-11-11T08:39:33Z</time>
      </trkpt>
      <trkpt lat="47.27155" lon="-1.64534">
        <ele>46</ele>
        <time>2015-11-11T08:39:40Z</time>
      </trkpt>
      <trkpt lat="47.27163" lon="-1.64533">
        <ele>46.1</ele>
        <time>2015-11-11T08:39:47Z</time>
      </trkpt>
      <trkpt lat="47.27171" lon="-1.64533">
        <ele>46.3</ele>
        <time>2015-11-11T08:39:55Z</time>
      </trkpt>
      <trkpt lat="47.27179" lon="-1.64533">
        <ele>46.4</ele>
        <time>2015-11-11T08:40:02Z</time>
      </trkpt>
      <trkpt lat="47.27195" lon="-1.64534">
        <ele>47.2</ele>
        <time>2015-11-11T08:40:15Z</time>
      </trkpt>
      <trkpt lat="47.27202" lon="-1.64532">
        <ele>47.3</ele>
        <time>2015-11-11T08:40:23Z</time>
      </trkpt>
      <trkpt lat="47.2721" lon="-1.64532">
        <ele>47.1</ele>
        <time>2015-11-11T08:40:30Z</time>
      </trkpt>
      <trkpt lat="47.27218" lon="-1.6453">
        <ele>47.5</ele>
        <time>2015-11-11T08:40:37Z</time>
      </trkpt>
      <trkpt lat="47.27226" lon="-1.64529">
        <ele>47.9</ele>
        <time>2015-11-11T08:40:44Z</time>
      </trkpt>
      <trkpt lat="47.27233" lon="-1.64529">
        <ele>47.6</ele>
        <time>2015-11-11T08:40:50Z</time>
      </trkpt>
      <trkpt lat="47.27241" lon="-1.64528">
        <ele>47.8</ele>
        <time>2015-11-11T08:40:57Z</time>
      </trkpt>
      <trkpt lat="47.2725" lon="-1.64529">
        <ele>48.3</ele>
        <time>2015-11-11T08:41:04Z</time>
      </trkpt>
      <trkpt lat="47.27265" lon="-1.6453">
        <ele>48</ele>
        <time>2015-11-11T08:41:18Z</time>
      </trkpt>
      <trkpt lat="47.27273" lon="-1.6453">
        <ele>48.5</ele>
        <time>2015-11-11T08:41:25Z</time>
      </trkpt>
      <trkpt lat="47.27281" lon="-1.6453">
        <ele>48.7</ele>
        <time>2015-11-11T08:41:32Z</time>
      </trkpt>
      <trkpt lat="47.27289" lon="-1.6453">
        <ele>48.2</ele>
        <time>2015-11-11T08:41:39Z</time>
      </trkpt>
      <trkpt lat="47.27298" lon="-1.64532">
        <ele>48.9</ele>
        <time>2015-11-11T08:41:46Z</time>
      </trkpt>
      <trkpt lat="47.27306" lon="-1.64532">
        <ele>49.5</ele>
        <time>2015-11-11T08:41:53Z</time>
      </trkpt>
      <trkpt lat="47.27313" lon="-1.64531">
        <ele>49</ele>
        <time>2015-11-11T08:41:59Z</time>
      </trkpt>
      <trkpt lat="47.27321" lon="-1.6453">
        <ele>49.5</ele>
        <time>2015-11-11T08:42:05Z</time>
      </trkpt>
      <trkpt lat="47.27337" lon="-1.64527">
        <ele>49.8</ele>
        <time>2015-11-11T08:42:18Z</time>
      </trkpt>
      <trkpt lat="47.27344" lon="-1.64525">
        <ele>50</ele>
        <time>2015-11-11T08:42:25Z</time>
      </trkpt>
      <trkpt lat="47.27352" lon="-1.64521">
        <ele>50.1</ele>
        <time>2015-11-11T08:42:32Z</time>
      </trkpt>
      <trkpt lat="47.27359" lon="-1.64518">
        <ele>50.4</ele>
        <time>2015-11-11T08:42:38Z</time>
      </trkpt>
      <trkpt lat="47.27366" lon="-1.64514">
        <ele>50.6</ele>
        <time>2015-11-11T08:42:45Z</time>
      </trkpt>
      <trkpt lat="47.27374" lon="-1.6451">
        <ele>50.4</ele>
        <time>2015-11-11T08:42:52Z</time>
      </trkpt>
      <trkpt lat="47.27381" lon="-1.64507">
        <ele>51</ele>
        <time>2015-11-11T08:42:58Z</time>
      </trkpt>
      <trkpt lat="47.27389" lon="-1.64504">
        <ele>51.2</ele>
        <time>2015-11-11T08:43:05Z</time>
      </trkpt>
      <trkpt lat="47.27396" lon="-1.64502">
        <ele>52.3</ele>
        <time>2015-11-11T08:43:13Z</time>
      </trkpt>
      <trkpt lat="47.27404" lon="-1.64489">
        <ele>51.9</ele>
        <time>2015-11-11T08:43:40Z</time>
      </trkpt>
      <trkpt lat="47.27398" lon="-1.64483">
        <ele>50.9</ele>
        <time>2015-11-11T08:43:51Z</time>
      </trkpt>
      <trkpt lat="47.27393" lon="-1.64475">
        <ele>50.8</ele>
        <time>2015-11-11T08:44:02Z</time>
      </trkpt>
      <trkpt lat="47.27386" lon="-1.6447">
        <ele>49.6</ele>
        <time>2015-11-11T08:44:11Z</time>
      </trkpt>
      <trkpt lat="47.2738" lon="-1.64462">
        <ele>48.8</ele>
        <time>2015-11-11T08:44:21Z</time>
      </trkpt>
      <trkpt lat="47.27369" lon="-1.64447">
        <ele>46.9</ele>
        <time>2015-11-11T08:44:36Z</time>
      </trkpt>
      <trkpt lat="47.27363" lon="-1.6444">
        <ele>46.5</ele>
        <time>2015-11-11T08:44:45Z</time>
      </trkpt>
      <trkpt lat="47.27359" lon="-1.6443">
        <ele>46.4</ele>
        <time>2015-11-11T08:44:53Z</time>
      </trkpt>
      <trkpt lat="47.27356" lon="-1.6442">
        <ele>46.6</ele>
        <time>2015-11-11T08:44:59Z</time>
      </trkpt>
      <trkpt lat="47.27351" lon="-1.64411">
        <ele>46.1</ele>
        <time>2015-11-11T08:45:07Z</time>
      </trkpt>
      <trkpt lat="47.27344" lon="-1.64405">
        <ele>45.5</ele>
        <time>2015-11-11T08:45:15Z</time>
      </trkpt>
      <trkpt lat="47.27337" lon="-1.644">
        <ele>44.6</ele>
        <time>2015-11-11T08:45:21Z</time>
      </trkpt>
      <trkpt lat="47.2733" lon="-1.64394">
        <ele>45</ele>
        <time>2015-11-11T08:45:27Z</time>
      </trkpt>
      <trkpt lat="47.27315" lon="-1.64385">
        <ele>45.4</ele>
        <time>2015-11-11T08:45:41Z</time>
      </trkpt>
      <trkpt lat="47.2731" lon="-1.64377">
        <ele>44.2</ele>
        <time>2015-11-11T08:45:47Z</time>
      </trkpt>
      <trkpt lat="47.27304" lon="-1.64371">
        <ele>43.9</ele>
        <time>2015-11-11T08:45:52Z</time>
      </trkpt>
      <trkpt lat="47.27299" lon="-1.64364">
        <ele>43.6</ele>
        <time>2015-11-11T08:45:58Z</time>
      </trkpt>
      <trkpt lat="47.27295" lon="-1.64355">
        <ele>44.2</ele>
        <time>2015-11-11T08:46:04Z</time>
      </trkpt>
      <trkpt lat="47.27292" lon="-1.64344">
        <ele>44.5</ele>
        <time>2015-11-11T08:46:10Z</time>
      </trkpt>
      <trkpt lat="47.27286" lon="-1.64337">
        <ele>43.7</ele>
        <time>2015-11-11T08:46:16Z</time>
      </trkpt>
      <trkpt lat="47.27282" lon="-1.64327">
        <ele>44.2</ele>
        <time>2015-11-11T08:46:22Z</time>
      </trkpt>
      <trkpt lat="47.27277" lon="-1.64318">
        <ele>44.3</ele>
        <time>2015-11-11T08:46:28Z</time>
      </trkpt>
      <trkpt lat="47.27269" lon="-1.643">
        <ele>43.8</ele>
        <time>2015-11-11T08:46:41Z</time>
      </trkpt>
      <trkpt lat="47.27264" lon="-1.64292">
        <ele>43.9</ele>
        <time>2015-11-11T08:46:47Z</time>
      </trkpt>
      <trkpt lat="47.27259" lon="-1.64284">
        <ele>43.8</ele>
        <time>2015-11-11T08:46:53Z</time>
      </trkpt>
      <trkpt lat="47.27254" lon="-1.64276">
        <ele>43.9</ele>
        <time>2015-11-11T08:46:59Z</time>
      </trkpt>
      <trkpt lat="47.27248" lon="-1.64269">
        <ele>44.1</ele>
        <time>2015-11-11T08:47:05Z</time>
      </trkpt>
      <trkpt lat="47.27244" lon="-1.6426">
        <ele>43.6</ele>
        <time>2015-11-11T08:47:11Z</time>
      </trkpt>
      <trkpt lat="47.27239" lon="-1.64251">
        <ele>43</ele>
        <time>2015-11-11T08:47:17Z</time>
      </trkpt>
      <trkpt lat="47.27235" lon="-1.64243">
        <ele>43.4</ele>
        <time>2015-11-11T08:47:23Z</time>
      </trkpt>
      <trkpt lat="47.27231" lon="-1.64233">
        <ele>43.3</ele>
        <time>2015-11-11T08:47:29Z</time>
      </trkpt>
      <trkpt lat="47.27222" lon="-1.64214">
        <ele>43.8</ele>
        <time>2015-11-11T08:47:42Z</time>
      </trkpt>
      <trkpt lat="47.27219" lon="-1.64204">
        <ele>43.7</ele>
        <time>2015-11-11T08:47:48Z</time>
      </trkpt>
      <trkpt lat="47.27216" lon="-1.64194">
        <ele>44.3</ele>
        <time>2015-11-11T08:47:54Z</time>
      </trkpt>
      <trkpt lat="47.27212" lon="-1.64184">
        <ele>45.4</ele>
        <time>2015-11-11T08:48:00Z</time>
      </trkpt>
      <trkpt lat="47.27209" lon="-1.64173">
        <ele>45.2</ele>
        <time>2015-11-11T08:48:06Z</time>
      </trkpt>
      <trkpt lat="47.27205" lon="-1.64162">
        <ele>45.8</ele>
        <time>2015-11-11T08:48:12Z</time>
      </trkpt>
      <trkpt lat="47.27201" lon="-1.64152">
        <ele>46.2</ele>
        <time>2015-11-11T08:48:19Z</time>
      </trkpt>
      <trkpt lat="47.27197" lon="-1.64142">
        <ele>47.1</ele>
        <time>2015-11-11T08:48:26Z</time>
      </trkpt>
      <trkpt lat="47.27192" lon="-1.64132">
        <ele>47.5</ele>
        <time>2015-11-11T08:48:33Z</time>
      </trkpt>
      <trkpt lat="47.27185" lon="-1.64112">
        <ele>48.3</ele>
        <time>2015-11-11T08:48:46Z</time>
      </trkpt>
      <trkpt lat="47.2718" lon="-1.64103">
        <ele>48.6</ele>
        <time>2015-11-11T08:48:53Z</time>
      </trkpt>
      <trkpt lat="47.27176" lon="-1.64092">
        <ele>49.3</ele>
        <time>2015-11-11T08:49:00Z</time>
      </trkpt>
      <trkpt lat="47.2717" lon="-1.64083">
        <ele>49.3</ele>
        <time>2015-11-11T08:49:06Z</time>
      </trkpt>
      <trkpt lat="47.27166" lon="-1.64073">
        <ele>49.9</ele>
        <time>2015-11-11T08:49:12Z</time>
      </trkpt>
      <trkpt lat="47.27161" lon="-1.64063">
        <ele>49.7</ele>
        <time>2015-11-11T08:49:19Z</time>
      </trkpt>
      <trkpt lat="47.27158" lon="-1.64054">
        <ele>49.5</ele>
        <time>2015-11-11T08:49:25Z</time>
      </trkpt>
      <trkpt lat="47.27153" lon="-1.64043">
        <ele>50.5</ele>
        <time>2015-11-11T08:49:32Z</time>
      </trkpt>
      <trkpt lat="47.27149" lon="-1.64035">
        <ele>51.1</ele>
        <time>2015-11-11T08:49:39Z</time>
      </trkpt>
      <trkpt lat="47.2714" lon="-1.64018">
        <ele>49.9</ele>
        <time>2015-11-11T08:49:53Z</time>
      </trkpt>
      <trkpt lat="47.27134" lon="-1.64009">
        <ele>50.5</ele>
        <time>2015-11-11T08:50:00Z</time>
      </trkpt>
      <trkpt lat="47.27129" lon="-1.64">
        <ele>50.4</ele>
        <time>2015-11-11T08:50:07Z</time>
      </trkpt>
      <trkpt lat="47.27124" lon="-1.6399">
        <ele>50.3</ele>
        <time>2015-11-11T08:50:13Z</time>
      </trkpt>
      <trkpt lat="47.27119" lon="-1.63982">
        <ele>50.2</ele>
        <time>2015-11-11T08:50:20Z</time>
      </trkpt>
      <trkpt lat="47.27114" lon="-1.63973">
        <ele>50.1</ele>
        <time>2015-11-11T08:50:27Z</time>
      </trkpt>
      <trkpt lat="47.2711" lon="-1.63964">
        <ele>49.5</ele>
        <time>2015-11-11T08:50:33Z</time>
      </trkpt>
      <trkpt lat="47.27105" lon="-1.63954">
        <ele>50.4</ele>
        <time>2015-11-11T08:50:39Z</time>
      </trkpt>
      <trkpt lat="47.271" lon="-1.63945">
        <ele>50.6</ele>
        <time>2015-11-11T08:50:45Z</time>
      </trkpt>
      <trkpt lat="47.27091" lon="-1.63927">
        <ele>51.3</ele>
        <time>2015-11-11T08:50:57Z</time>
      </trkpt>
      <trkpt lat="47.27084" lon="-1.63921">
        <ele>50.7</ele>
        <time>2015-11-11T08:51:04Z</time>
      </trkpt>
      <trkpt lat="47.27079" lon="-1.63912">
        <ele>50.9</ele>
        <time>2015-11-11T08:51:11Z</time>
      </trkpt>
      <trkpt lat="47.27077" lon="-1.63901">
        <ele>50.7</ele>
        <time>2015-11-11T08:51:18Z</time>
      </trkpt>
      <trkpt lat="47.27074" lon="-1.63891">
        <ele>50.8</ele>
        <time>2015-11-11T08:51:24Z</time>
      </trkpt>
      <trkpt lat="47.27071" lon="-1.63881">
        <ele>50.8</ele>
        <time>2015-11-11T08:51:30Z</time>
      </trkpt>
      <trkpt lat="47.27068" lon="-1.6387">
        <ele>51.4</ele>
        <time>2015-11-11T08:51:37Z</time>
      </trkpt>
      <trkpt lat="47.27066" lon="-1.63858">
        <ele>51.5</ele>
        <time>2015-11-11T08:51:44Z</time>
      </trkpt>
      <trkpt lat="47.27065" lon="-1.63847">
        <ele>51.3</ele>
        <time>2015-11-11T08:51:49Z</time>
      </trkpt>
      <trkpt lat="47.27064" lon="-1.63825">
        <ele>51</ele>
        <time>2015-11-11T08:52:01Z</time>
      </trkpt>
      <trkpt lat="47.27063" lon="-1.63813">
        <ele>51.5</ele>
        <time>2015-11-11T08:52:07Z</time>
      </trkpt>
      <trkpt lat="47.27062" lon="-1.63801">
        <ele>51.8</ele>
        <time>2015-11-11T08:52:13Z</time>
      </trkpt>
      <trkpt lat="47.27062" lon="-1.63789">
        <ele>51.9</ele>
        <time>2015-11-11T08:52:19Z</time>
      </trkpt>
      <trkpt lat="47.27061" lon="-1.63778">
        <ele>51.8</ele>
        <time>2015-11-11T08:52:25Z</time>
      </trkpt>
      <trkpt lat="47.27061" lon="-1.63767">
        <ele>51.5</ele>
        <time>2015-11-11T08:52:31Z</time>
      </trkpt>
      <trkpt lat="47.27062" lon="-1.63755">
        <ele>52</ele>
        <time>2015-11-11T08:52:37Z</time>
      </trkpt>
      <trkpt lat="47.27064" lon="-1.63744">
        <ele>51.9</ele>
        <time>2015-11-11T08:52:42Z</time>
      </trkpt>
      <trkpt lat="47.27065" lon="-1.63733">
        <ele>52.8</ele>
        <time>2015-11-11T08:52:47Z</time>
      </trkpt>
      <trkpt lat="47.27066" lon="-1.63721">
        <ele>52.1</ele>
        <time>2015-11-11T08:52:54Z</time>
      </trkpt>
      <trkpt lat="47.27068" lon="-1.63697">
        <ele>52</ele>
        <time>2015-11-11T08:53:08Z</time>
      </trkpt>
      <trkpt lat="47.2707" lon="-1.63686">
        <ele>52</ele>
        <time>2015-11-11T08:53:14Z</time>
      </trkpt>
      <trkpt lat="47.27072" lon="-1.63676">
        <ele>53.2</ele>
        <time>2015-11-11T08:53:20Z</time>
      </trkpt>
      <trkpt lat="47.27075" lon="-1.63666">
        <ele>52.5</ele>
        <time>2015-11-11T08:53:26Z</time>
      </trkpt>
      <trkpt lat="47.27077" lon="-1.63655">
        <ele>52.6</ele>
        <time>2015-11-11T08:53:32Z</time>
      </trkpt>
      <trkpt lat="47.27081" lon="-1.63643">
        <ele>53.3</ele>
        <time>2015-11-11T08:53:38Z</time>
      </trkpt>
      <trkpt lat="47.27084" lon="-1.63632">
        <ele>53.9</ele>
        <time>2015-11-11T08:53:44Z</time>
      </trkpt>
      <trkpt lat="47.27087" lon="-1.63621">
        <ele>53.7</ele>
        <time>2015-11-11T08:53:50Z</time>
      </trkpt>
      <trkpt lat="47.27089" lon="-1.6361">
        <ele>54</ele>
        <time>2015-11-11T08:53:56Z</time>
      </trkpt>
      <trkpt lat="47.27093" lon="-1.63588">
        <ele>53.5</ele>
        <time>2015-11-11T08:54:09Z</time>
      </trkpt>
      <trkpt lat="47.27094" lon="-1.63577">
        <ele>54.1</ele>
        <time>2015-11-11T08:54:16Z</time>
      </trkpt>
      <trkpt lat="47.27094" lon="-1.63566">
        <ele>52.8</ele>
        <time>2015-11-11T08:54:22Z</time>
      </trkpt>
      <trkpt lat="47.27094" lon="-1.63554">
        <ele>52.3</ele>
        <time>2015-11-11T08:54:29Z</time>
      </trkpt>
      <trkpt lat="47.27095" lon="-1.63542">
        <ele>51.6</ele>
        <time>2015-11-11T08:54:35Z</time>
      </trkpt>
      <trkpt lat="47.27094" lon="-1.63531">
        <ele>51.1</ele>
        <time>2015-11-11T08:54:41Z</time>
      </trkpt>
      <trkpt lat="47.27093" lon="-1.63519">
        <ele>50.5</ele>
        <time>2015-11-11T08:54:47Z</time>
      </trkpt>
      <trkpt lat="47.2709" lon="-1.63508">
        <ele>48.8</ele>
        <time>2015-11-11T08:54:54Z</time>
      </trkpt>
      <trkpt lat="47.27089" lon="-1.63498">
        <ele>48.8</ele>
        <time>2015-11-11T08:55:00Z</time>
      </trkpt>
      <trkpt lat="47.27088" lon="-1.63474">
        <ele>47.2</ele>
        <time>2015-11-11T08:55:12Z</time>
      </trkpt>
      <trkpt lat="47.27086" lon="-1.63463">
        <ele>46.6</ele>
        <time>2015-11-11T08:55:18Z</time>
      </trkpt>
      <trkpt lat="47.27082" lon="-1.63454">
        <ele>45.8</ele>
        <time>2015-11-11T08:55:25Z</time>
      </trkpt>
      <trkpt lat="47.27076" lon="-1.63446">
        <ele>45.6</ele>
        <time>2015-11-11T08:55:32Z</time>
      </trkpt>
      <trkpt lat="47.2707" lon="-1.63439">
        <ele>45.1</ele>
        <time>2015-11-11T08:55:39Z</time>
      </trkpt>
      <trkpt lat="47.27064" lon="-1.63435">
        <ele>44.9</ele>
        <time>2015-11-11T08:55:46Z</time>
      </trkpt>
      <trkpt lat="47.27058" lon="-1.63428">
        <ele>44</ele>
        <time>2015-11-11T08:55:52Z</time>
      </trkpt>
      <trkpt lat="47.27053" lon="-1.63419">
        <ele>43.7</ele>
        <time>2015-11-11T08:55:58Z</time>
      </trkpt>
      <trkpt lat="47.2705" lon="-1.63409">
        <ele>43.2</ele>
        <time>2015-11-11T08:56:05Z</time>
      </trkpt>
      <trkpt lat="47.2705" lon="-1.63386">
        <ele>43.4</ele>
        <time>2015-11-11T08:56:18Z</time>
      </trkpt>
      <trkpt lat="47.27048" lon="-1.63374">
        <ele>43.9</ele>
        <time>2015-11-11T08:56:25Z</time>
      </trkpt>
      <trkpt lat="47.27046" lon="-1.63363">
        <ele>44.4</ele>
        <time>2015-11-11T08:56:32Z</time>
      </trkpt>
      <trkpt lat="47.27045" lon="-1.63351">
        <ele>44.4</ele>
        <time>2015-11-11T08:56:38Z</time>
      </trkpt>
      <trkpt lat="47.27042" lon="-1.63339">
        <ele>43.5</ele>
        <time>2015-11-11T08:56:44Z</time>
      </trkpt>
      <trkpt lat="47.27042" lon="-1.63328">
        <ele>42.6</ele>
        <time>2015-11-11T08:56:50Z</time>
      </trkpt>
      <trkpt lat="47.27041" lon="-1.63317">
        <ele>42.1</ele>
        <time>2015-11-11T08:56:56Z</time>
      </trkpt>
      <trkpt lat="47.2704" lon="-1.63306">
        <ele>41.7</ele>
        <time>2015-11-11T08:57:02Z</time>
      </trkpt>
      <trkpt lat="47.27037" lon="-1.63295">
        <ele>41.6</ele>
        <time>2015-11-11T08:57:08Z</time>
      </trkpt>
      <trkpt lat="47.27037" lon="-1.63271">
        <ele>40.7</ele>
        <time>2015-11-11T08:57:20Z</time>
      </trkpt>
      <trkpt lat="47.2704" lon="-1.6326">
        <ele>41.2</ele>
        <time>2015-11-11T08:57:26Z</time>
      </trkpt>
      <trkpt lat="47.27042" lon="-1.63249">
        <ele>41.6</ele>
        <time>2015-11-11T08:57:32Z</time>
      </trkpt>
      <trkpt lat="47.27044" lon="-1.63236">
        <ele>41.1</ele>
        <time>2015-11-11T08:57:38Z</time>
      </trkpt>
      <trkpt lat="47.27047" lon="-1.63225">
        <ele>41.6</ele>
        <time>2015-11-11T08:57:44Z</time>
      </trkpt>
      <trkpt lat="47.2705" lon="-1.63215">
        <ele>42</ele>
        <time>2015-11-11T08:57:50Z</time>
      </trkpt>
      <trkpt lat="47.27052" lon="-1.63204">
        <ele>42</ele>
        <time>2015-11-11T08:57:56Z</time>
      </trkpt>
      <trkpt lat="47.27054" lon="-1.63193">
        <ele>40.9</ele>
        <time>2015-11-11T08:58:02Z</time>
      </trkpt>
      <trkpt lat="47.27055" lon="-1.63183">
        <ele>41.2</ele>
        <time>2015-11-11T08:58:08Z</time>
      </trkpt>
      <trkpt lat="47.27056" lon="-1.63172">
        <ele>41.2</ele>
        <time>2015-11-11T08:58:14Z</time>
      </trkpt>
      <trkpt lat="47.2706" lon="-1.63149">
        <ele>40.4</ele>
        <time>2015-11-11T08:58:27Z</time>
      </trkpt>
      <trkpt lat="47.27061" lon="-1.63137">
        <ele>40</ele>
        <time>2015-11-11T08:58:33Z</time>
      </trkpt>
      <trkpt lat="47.27064" lon="-1.63127">
        <ele>40.4</ele>
        <time>2015-11-11T08:58:38Z</time>
      </trkpt>
      <trkpt lat="47.27066" lon="-1.63115">
        <ele>40.5</ele>
        <time>2015-11-11T08:58:44Z</time>
      </trkpt>
      <trkpt lat="47.27069" lon="-1.63104">
        <ele>41.2</ele>
        <time>2015-11-11T08:58:50Z</time>
      </trkpt>
      <trkpt lat="47.27072" lon="-1.63095">
        <ele>42.7</ele>
        <time>2015-11-11T08:58:57Z</time>
      </trkpt>
      <trkpt lat="47.27076" lon="-1.63085">
        <ele>43.9</ele>
        <time>2015-11-11T08:59:06Z</time>
      </trkpt>
      <trkpt lat="47.27081" lon="-1.63076">
        <ele>44.6</ele>
        <time>2015-11-11T08:59:15Z</time>
      </trkpt>
      <trkpt lat="47.27084" lon="-1.63054">
        <ele>48.1</ele>
        <time>2015-11-11T08:59:33Z</time>
      </trkpt>
      <trkpt lat="47.27086" lon="-1.63042">
        <ele>50</ele>
        <time>2015-11-11T08:59:42Z</time>
      </trkpt>
      <trkpt lat="47.27087" lon="-1.6303">
        <ele>51.1</ele>
        <time>2015-11-11T08:59:50Z</time>
      </trkpt>
      <trkpt lat="47.27089" lon="-1.63019">
        <ele>52.4</ele>
        <time>2015-11-11T08:59:58Z</time>
      </trkpt>
      <trkpt lat="47.27093" lon="-1.6301">
        <ele>53.2</ele>
        <time>2015-11-11T09:00:06Z</time>
      </trkpt>
      <trkpt lat="47.27094" lon="-1.62999">
        <ele>55.6</ele>
        <time>2015-11-11T09:00:16Z</time>
      </trkpt>
      <trkpt lat="47.27092" lon="-1.62976">
        <ele>57.1</ele>
        <time>2015-11-11T09:00:30Z</time>
      </trkpt>
      <trkpt lat="47.27091" lon="-1.62965">
        <ele>57.5</ele>
        <time>2015-11-11T09:00:36Z</time>
      </trkpt>
      <trkpt lat="47.2709" lon="-1.62954">
        <ele>57.8</ele>
        <time>2015-11-11T09:00:42Z</time>
      </trkpt>
      <trkpt lat="47.27088" lon="-1.62943">
        <ele>57.7</ele>
        <time>2015-11-11T09:00:49Z</time>
      </trkpt>
      <trkpt lat="47.27088" lon="-1.62931">
        <ele>58.6</ele>
        <time>2015-11-11T09:00:55Z</time>
      </trkpt>
      <trkpt lat="47.27086" lon="-1.6292">
        <ele>59.1</ele>
        <time>2015-11-11T09:01:00Z</time>
      </trkpt>
      <trkpt lat="47.27084" lon="-1.62909">
        <ele>58.8</ele>
        <time>2015-11-11T09:01:06Z</time>
      </trkpt>
      <trkpt lat="47.27081" lon="-1.62897">
        <ele>59.2</ele>
        <time>2015-11-11T09:01:12Z</time>
      </trkpt>
      <trkpt lat="47.27078" lon="-1.62885">
        <ele>58.8</ele>
        <time>2015-11-11T09:01:18Z</time>
      </trkpt>
      <trkpt lat="47.27072" lon="-1.62864">
        <ele>58.7</ele>
        <time>2015-11-11T09:01:29Z</time>
      </trkpt>
      <trkpt lat="47.27069" lon="-1.62853">
        <ele>58.8</ele>
        <time>2015-11-11T09:01:35Z</time>
      </trkpt>
      <trkpt lat="47.27064" lon="-1.62843">
        <ele>58.6</ele>
        <time>2015-11-11T09:01:41Z</time>
      </trkpt>
      <trkpt lat="47.27061" lon="-1.62833">
        <ele>58.2</ele>
        <time>2015-11-11T09:01:47Z</time>
      </trkpt>
      <trkpt lat="47.27059" lon="-1.62822">
        <ele>57.9</ele>
        <time>2015-11-11T09:01:53Z</time>
      </trkpt>
      <trkpt lat="47.27055" lon="-1.62813">
        <ele>57.6</ele>
        <time>2015-11-11T09:01:59Z</time>
      </trkpt>
      <trkpt lat="47.27052" lon="-1.62803">
        <ele>56.7</ele>
        <time>2015-11-11T09:02:05Z</time>
      </trkpt>
      <trkpt lat="47.2705" lon="-1.62792">
        <ele>56.1</ele>
        <time>2015-11-11T09:02:11Z</time>
      </trkpt>
      <trkpt lat="47.27048" lon="-1.6278">
        <ele>55.9</ele>
        <time>2015-11-11T09:02:18Z</time>
      </trkpt>
      <trkpt lat="47.27047" lon="-1.62769">
        <ele>55.4</ele>
        <time>2015-11-11T09:02:25Z</time>
      </trkpt>
      <trkpt lat="47.27045" lon="-1.62745">
        <ele>54.6</ele>
        <time>2015-11-11T09:02:38Z</time>
      </trkpt>
      <trkpt lat="47.27043" lon="-1.62733">
        <ele>54.1</ele>
        <time>2015-11-11T09:02:44Z</time>
      </trkpt>
      <trkpt lat="47.27039" lon="-1.62724">
        <ele>54.2</ele>
        <time>2015-11-11T09:02:50Z</time>
      </trkpt>
      <trkpt lat="47.27035" lon="-1.62715">
        <ele>54.9</ele>
        <time>2015-11-11T09:02:56Z</time>
      </trkpt>
      <trkpt lat="47.27032" lon="-1.62705">
        <ele>53.9</ele>
        <time>2015-11-11T09:03:01Z</time>
      </trkpt>
      <trkpt lat="47.27029" lon="-1.62694">
        <ele>53.8</ele>
        <time>2015-11-11T09:03:07Z</time>
      </trkpt>
      <trkpt lat="47.27027" lon="-1.62683">
        <ele>53.2</ele>
        <time>2015-11-11T09:03:13Z</time>
      </trkpt>
      <trkpt lat="47.27026" lon="-1.62671">
        <ele>53.7</ele>
        <time>2015-11-11T09:03:18Z</time>
      </trkpt>
      <trkpt lat="47.27027" lon="-1.6266">
        <ele>53.7</ele>
        <time>2015-11-11T09:03:24Z</time>
      </trkpt>
      <trkpt lat="47.27028" lon="-1.62648">
        <ele>53.3</ele>
        <time>2015-11-11T09:03:29Z</time>
      </trkpt>
      <trkpt lat="47.27031" lon="-1.62626">
        <ele>53.8</ele>
        <time>2015-11-11T09:03:39Z</time>
      </trkpt>
      <trkpt lat="47.27032" lon="-1.62615">
        <ele>54.1</ele>
        <time>2015-11-11T09:03:44Z</time>
      </trkpt>
      <trkpt lat="47.2703" lon="-1.62603">
        <ele>53.9</ele>
        <time>2015-11-11T09:03:51Z</time>
      </trkpt>
      <trkpt lat="47.27026" lon="-1.62594">
        <ele>54.3</ele>
        <time>2015-11-11T09:03:57Z</time>
      </trkpt>
      <trkpt lat="47.27022" lon="-1.62584">
        <ele>54.1</ele>
        <time>2015-11-11T09:04:03Z</time>
      </trkpt>
      <trkpt lat="47.27018" lon="-1.62573">
        <ele>53.1</ele>
        <time>2015-11-11T09:04:10Z</time>
      </trkpt>
      <trkpt lat="47.27014" lon="-1.62563">
        <ele>52.6</ele>
        <time>2015-11-11T09:04:16Z</time>
      </trkpt>
      <trkpt lat="47.27012" lon="-1.62552">
        <ele>52.3</ele>
        <time>2015-11-11T09:04:21Z</time>
      </trkpt>
      <trkpt lat="47.27011" lon="-1.62541">
        <ele>51.4</ele>
        <time>2015-11-11T09:04:27Z</time>
      </trkpt>
      <trkpt lat="47.27012" lon="-1.62529">
        <ele>50</ele>
        <time>2015-11-11T09:04:33Z</time>
      </trkpt>
      <trkpt lat="47.27018" lon="-1.62506">
        <ele>48.8</ele>
        <time>2015-11-11T09:04:47Z</time>
      </trkpt>
      <trkpt lat="47.27022" lon="-1.62496">
        <ele>48.4</ele>
        <time>2015-11-11T09:04:53Z</time>
      </trkpt>
      <trkpt lat="47.27029" lon="-1.62492">
        <ele>46.7</ele>
        <time>2015-11-11T09:05:02Z</time>
      </trkpt>
      <trkpt lat="47.27036" lon="-1.62494">
        <ele>46.1</ele>
        <time>2015-11-11T09:05:10Z</time>
      </trkpt>
      <trkpt lat="47.27043" lon="-1.62497">
        <ele>46.6</ele>
        <time>2015-11-11T09:05:21Z</time>
      </trkpt>
      <trkpt lat="47.2705" lon="-1.625">
        <ele>46.5</ele>
        <time>2015-11-11T09:05:48Z</time>
      </trkpt>
      <trkpt lat="47.27049" lon="-1.62521">
        <ele>47.1</ele>
        <time>2015-11-11T09:07:54Z</time>
      </trkpt>
      <trkpt lat="47.2706" lon="-1.6253">
        <ele>47.2</ele>
        <time>2015-11-11T09:08:33Z</time>
      </trkpt>
      <trkpt lat="47.27058" lon="-1.62518">
        <ele>47.8</ele>
        <time>2015-11-11T09:09:30Z</time>
      </trkpt>
      <trkpt lat="47.27062" lon="-1.62517">
        <ele>47.2</ele>
        <time>2015-11-11T09:12:04Z</time>
      </trkpt>
      <trkpt lat="47.27053" lon="-1.62497">
        <ele>46.8</ele>
        <time>2015-11-11T09:12:23Z</time>
      </trkpt>
      <trkpt lat="47.27048" lon="-1.62488">
        <ele>46.8</ele>
        <time>2015-11-11T09:12:29Z</time>
      </trkpt>
      <trkpt lat="47.27047" lon="-1.62477">
        <ele>46.7</ele>
        <time>2015-11-11T09:12:37Z</time>
      </trkpt>
      <trkpt lat="47.2705" lon="-1.62467">
        <ele>47.1</ele>
        <time>2015-11-11T09:12:44Z</time>
      </trkpt>
      <trkpt lat="47.27052" lon="-1.62456">
        <ele>46.1</ele>
        <time>2015-11-11T09:12:51Z</time>
      </trkpt>
      <trkpt lat="47.27056" lon="-1.62447">
        <ele>45.9</ele>
        <time>2015-11-11T09:12:57Z</time>
      </trkpt>
      <trkpt lat="47.27061" lon="-1.62437">
        <ele>45.4</ele>
        <time>2015-11-11T09:13:03Z</time>
      </trkpt>
      <trkpt lat="47.27064" lon="-1.62428">
        <ele>45.3</ele>
        <time>2015-11-11T09:13:09Z</time>
      </trkpt>
      <trkpt lat="47.27073" lon="-1.6241">
        <ele>44.2</ele>
        <time>2015-11-11T09:13:22Z</time>
      </trkpt>
      <trkpt lat="47.27078" lon="-1.624">
        <ele>43</ele>
        <time>2015-11-11T09:13:29Z</time>
      </trkpt>
      <trkpt lat="47.27083" lon="-1.62392">
        <ele>43.5</ele>
        <time>2015-11-11T09:13:35Z</time>
      </trkpt>
      <trkpt lat="47.27088" lon="-1.62384">
        <ele>42.5</ele>
        <time>2015-11-11T09:13:41Z</time>
      </trkpt>
      <trkpt lat="47.27094" lon="-1.62377">
        <ele>42.3</ele>
        <time>2015-11-11T09:13:47Z</time>
      </trkpt>
      <trkpt lat="47.27101" lon="-1.62371">
        <ele>41.6</ele>
        <time>2015-11-11T09:13:52Z</time>
      </trkpt>
      <trkpt lat="47.27108" lon="-1.62367">
        <ele>41.3</ele>
        <time>2015-11-11T09:14:00Z</time>
      </trkpt>
      <trkpt lat="47.27115" lon="-1.62363">
        <ele>40.8</ele>
        <time>2015-11-11T09:14:07Z</time>
      </trkpt>
      <trkpt lat="47.27123" lon="-1.62363">
        <ele>40.7</ele>
        <time>2015-11-11T09:14:45Z</time>
      </trkpt>
      <trkpt lat="47.27133" lon="-1.62379">
        <ele>42.2</ele>
        <time>2015-11-11T09:15:00Z</time>
      </trkpt>
      <trkpt lat="47.27133" lon="-1.6239">
        <ele>42.7</ele>
        <time>2015-11-11T09:15:06Z</time>
      </trkpt>
      <trkpt lat="47.27135" lon="-1.62401">
        <ele>42.8</ele>
        <time>2015-11-11T09:15:12Z</time>
      </trkpt>
      <trkpt lat="47.27139" lon="-1.62411">
        <ele>42.3</ele>
        <time>2015-11-11T09:15:20Z</time>
      </trkpt>
      <trkpt lat="47.27141" lon="-1.62424">
        <ele>43.4</ele>
        <time>2015-11-11T09:15:27Z</time>
      </trkpt>
      <trkpt lat="47.27144" lon="-1.62435">
        <ele>43.1</ele>
        <time>2015-11-11T09:15:34Z</time>
      </trkpt>
      <trkpt lat="47.2715" lon="-1.62443">
        <ele>43.9</ele>
        <time>2015-11-11T09:15:40Z</time>
      </trkpt>
      <trkpt lat="47.27155" lon="-1.6245">
        <ele>43.8</ele>
        <time>2015-11-11T09:15:46Z</time>
      </trkpt>
      <trkpt lat="47.27168" lon="-1.62464">
        <ele>44.4</ele>
        <time>2015-11-11T09:15:57Z</time>
      </trkpt>
      <trkpt lat="47.27174" lon="-1.62471">
        <ele>44.7</ele>
        <time>2015-11-11T09:16:03Z</time>
      </trkpt>
      <trkpt lat="47.27181" lon="-1.62478">
        <ele>45</ele>
        <time>2015-11-11T09:16:10Z</time>
      </trkpt>
      <trkpt lat="47.27188" lon="-1.62484">
        <ele>44.6</ele>
        <time>2015-11-11T09:16:16Z</time>
      </trkpt>
      <trkpt lat="47.27193" lon="-1.62493">
        <ele>45.4</ele>
        <time>2015-11-11T09:16:22Z</time>
      </trkpt>
      <trkpt lat="47.27198" lon="-1.62502">
        <ele>45.6</ele>
        <time>2015-11-11T09:16:28Z</time>
      </trkpt>
      <trkpt lat="47.27204" lon="-1.62512">
        <ele>45.2</ele>
        <time>2015-11-11T09:16:34Z</time>
      </trkpt>
      <trkpt lat="47.27207" lon="-1.62523">
        <ele>45.2</ele>
        <time>2015-11-11T09:16:40Z</time>
      </trkpt>
      <trkpt lat="47.27209" lon="-1.62533">
        <ele>45.1</ele>
        <time>2015-11-11T09:16:45Z</time>
      </trkpt>
      <trkpt lat="47.27212" lon="-1.62543">
        <ele>45.5</ele>
        <time>2015-11-11T09:16:51Z</time>
      </trkpt>
      <trkpt lat="47.27221" lon="-1.62563">
        <ele>45.7</ele>
        <time>2015-11-11T09:17:02Z</time>
      </trkpt>
      <trkpt lat="47.27224" lon="-1.62572">
        <ele>45.3</ele>
        <time>2015-11-11T09:17:07Z</time>
      </trkpt>
      <trkpt lat="47.27229" lon="-1.62581">
        <ele>44.7</ele>
        <time>2015-11-11T09:17:12Z</time>
      </trkpt>
      <trkpt lat="47.27234" lon="-1.6259">
        <ele>45</ele>
        <time>2015-11-11T09:17:20Z</time>
      </trkpt>
      <trkpt lat="47.27239" lon="-1.62599">
        <ele>44.1</ele>
        <time>2015-11-11T09:17:28Z</time>
      </trkpt>
      <trkpt lat="47.27243" lon="-1.62611">
        <ele>43.8</ele>
        <time>2015-11-11T09:17:34Z</time>
      </trkpt>
      <trkpt lat="47.27247" lon="-1.62619">
        <ele>43.9</ele>
        <time>2015-11-11T09:17:38Z</time>
      </trkpt>
      <trkpt lat="47.27253" lon="-1.62627">
        <ele>43.4</ele>
        <time>2015-11-11T09:17:44Z</time>
      </trkpt>
      <trkpt lat="47.2726" lon="-1.6263">
        <ele>42.5</ele>
        <time>2015-11-11T09:17:50Z</time>
      </trkpt>
      <trkpt lat="47.27268" lon="-1.62633">
        <ele>42.7</ele>
        <time>2015-11-11T09:17:56Z</time>
      </trkpt>
      <trkpt lat="47.27282" lon="-1.62644">
        <ele>41.8</ele>
        <time>2015-11-11T09:18:08Z</time>
      </trkpt>
      <trkpt lat="47.27288" lon="-1.62651">
        <ele>42.1</ele>
        <time>2015-11-11T09:18:14Z</time>
      </trkpt>
      <trkpt lat="47.27295" lon="-1.62658">
        <ele>41.2</ele>
        <time>2015-11-11T09:18:20Z</time>
      </trkpt>
      <trkpt lat="47.273" lon="-1.62666">
        <ele>40.7</ele>
        <time>2015-11-11T09:18:25Z</time>
      </trkpt>
      <trkpt lat="47.27305" lon="-1.62677">
        <ele>40.1</ele>
        <time>2015-11-11T09:18:31Z</time>
      </trkpt>
      <trkpt lat="47.27309" lon="-1.62686">
        <ele>41.3</ele>
        <time>2015-11-11T09:18:36Z</time>
      </trkpt>
      <trkpt lat="47.27314" lon="-1.62694">
        <ele>40.3</ele>
        <time>2015-11-11T09:18:42Z</time>
      </trkpt>
      <trkpt lat="47.2732" lon="-1.62703">
        <ele>39.7</ele>
        <time>2015-11-11T09:18:49Z</time>
      </trkpt>
      <trkpt lat="47.27325" lon="-1.62712">
        <ele>39.3</ele>
        <time>2015-11-11T09:18:56Z</time>
      </trkpt>
      <trkpt lat="47.27337" lon="-1.62727">
        <ele>38.8</ele>
        <time>2015-11-11T09:19:08Z</time>
      </trkpt>
      <trkpt lat="47.27341" lon="-1.62737">
        <ele>39.1</ele>
        <time>2015-11-11T09:19:14Z</time>
      </trkpt>
      <trkpt lat="47.27347" lon="-1.62744">
        <ele>38.9</ele>
        <time>2015-11-11T09:19:20Z</time>
      </trkpt>
      <trkpt lat="47.27353" lon="-1.62753">
        <ele>38.6</ele>
        <time>2015-11-11T09:19:26Z</time>
      </trkpt>
      <trkpt lat="47.27359" lon="-1.6276">
        <ele>39</ele>
        <time>2015-11-11T09:19:31Z</time>
      </trkpt>
      <trkpt lat="47.27365" lon="-1.62767">
        <ele>39</ele>
        <time>2015-11-11T09:19:36Z</time>
      </trkpt>
      <trkpt lat="47.27372" lon="-1.62775">
        <ele>39.4</ele>
        <time>2015-11-11T09:19:42Z</time>
      </trkpt>
      <trkpt lat="47.27378" lon="-1.62781">
        <ele>39.4</ele>
        <time>2015-11-11T09:19:47Z</time>
      </trkpt>
      <trkpt lat="47.27384" lon="-1.62788">
        <ele>39.6</ele>
        <time>2015-11-11T09:19:52Z</time>
      </trkpt>
      <trkpt lat="47.27391" lon="-1.62795">
        <ele>39.2</ele>
        <time>2015-11-11T09:19:58Z</time>
      </trkpt>
      <trkpt lat="47.27404" lon="-1.6281">
        <ele>39.7</ele>
        <time>2015-11-11T09:20:10Z</time>
      </trkpt>
      <trkpt lat="47.27409" lon="-1.62817">
        <ele>40.2</ele>
        <time>2015-11-11T09:20:15Z</time>
      </trkpt>
      <trkpt lat="47.27415" lon="-1.62824">
        <ele>40.7</ele>
        <time>2015-11-11T09:20:20Z</time>
      </trkpt>
      <trkpt lat="47.2742" lon="-1.62833">
        <ele>40.2</ele>
        <time>2015-11-11T09:20:25Z</time>
      </trkpt>
      <trkpt lat="47.27424" lon="-1.62843">
        <ele>39.9</ele>
        <time>2015-11-11T09:20:30Z</time>
      </trkpt>
      <trkpt lat="47.27429" lon="-1.6285">
        <ele>40.1</ele>
        <time>2015-11-11T09:20:35Z</time>
      </trkpt>
      <trkpt lat="47.27436" lon="-1.62858">
        <ele>40.4</ele>
        <time>2015-11-11T09:20:41Z</time>
      </trkpt>
      <trkpt lat="47.2744" lon="-1.62868">
        <ele>41.6</ele>
        <time>2015-11-11T09:20:47Z</time>
      </trkpt>
      <trkpt lat="47.27444" lon="-1.62878">
        <ele>41.2</ele>
        <time>2015-11-11T09:20:53Z</time>
      </trkpt>
      <trkpt lat="47.27449" lon="-1.62887">
        <ele>41</ele>
        <time>2015-11-11T09:20:58Z</time>
      </trkpt>
      <trkpt lat="47.27461" lon="-1.62899">
        <ele>40.7</ele>
        <time>2015-11-11T09:21:11Z</time>
      </trkpt>
      <trkpt lat="47.27468" lon="-1.62904">
        <ele>41</ele>
        <time>2015-11-11T09:21:17Z</time>
      </trkpt>
      <trkpt lat="47.27474" lon="-1.62911">
        <ele>41.2</ele>
        <time>2015-11-11T09:21:23Z</time>
      </trkpt>
      <trkpt lat="47.27481" lon="-1.62917">
        <ele>41.3</ele>
        <time>2015-11-11T09:21:29Z</time>
      </trkpt>
      <trkpt lat="47.27488" lon="-1.62922">
        <ele>40.8</ele>
        <time>2015-11-11T09:21:35Z</time>
      </trkpt>
      <trkpt lat="47.27496" lon="-1.62925">
        <ele>41.1</ele>
        <time>2015-11-11T09:21:41Z</time>
      </trkpt>
      <trkpt lat="47.27504" lon="-1.62925">
        <ele>40.9</ele>
        <time>2015-11-11T09:21:46Z</time>
      </trkpt>
      <trkpt lat="47.27511" lon="-1.62923">
        <ele>40.8</ele>
        <time>2015-11-11T09:21:51Z</time>
      </trkpt>
      <trkpt lat="47.27517" lon="-1.62929">
        <ele>40.9</ele>
        <time>2015-11-11T09:21:57Z</time>
      </trkpt>
      <trkpt lat="47.27519" lon="-1.62941">
        <ele>40.9</ele>
        <time>2015-11-11T09:22:03Z</time>
      </trkpt>
      <trkpt lat="47.27523" lon="-1.62964">
        <ele>41.9</ele>
        <time>2015-11-11T09:22:16Z</time>
      </trkpt>
      <trkpt lat="47.27524" lon="-1.62976">
        <ele>41</ele>
        <time>2015-11-11T09:22:23Z</time>
      </trkpt>
      <trkpt lat="47.27525" lon="-1.62986">
        <ele>41.5</ele>
        <time>2015-11-11T09:22:29Z</time>
      </trkpt>
      <trkpt lat="47.27526" lon="-1.62998">
        <ele>41.9</ele>
        <time>2015-11-11T09:22:35Z</time>
      </trkpt>
      <trkpt lat="47.27527" lon="-1.63008">
        <ele>42.4</ele>
        <time>2015-11-11T09:22:41Z</time>
      </trkpt>
      <trkpt lat="47.27528" lon="-1.63021">
        <ele>42.5</ele>
        <time>2015-11-11T09:22:47Z</time>
      </trkpt>
      <trkpt lat="47.27529" lon="-1.63033">
        <ele>42.7</ele>
        <time>2015-11-11T09:22:53Z</time>
      </trkpt>
      <trkpt lat="47.27531" lon="-1.63045">
        <ele>43.3</ele>
        <time>2015-11-11T09:22:59Z</time>
      </trkpt>
      <trkpt lat="47.27532" lon="-1.63056">
        <ele>43.7</ele>
        <time>2015-11-11T09:23:05Z</time>
      </trkpt>
      <trkpt lat="47.27531" lon="-1.63079">
        <ele>44.5</ele>
        <time>2015-11-11T09:23:17Z</time>
      </trkpt>
      <trkpt lat="47.27531" lon="-1.6309">
        <ele>44.4</ele>
        <time>2015-11-11T09:23:23Z</time>
      </trkpt>
      <trkpt lat="47.27529" lon="-1.631">
        <ele>44.9</ele>
        <time>2015-11-11T09:23:29Z</time>
      </trkpt>
      <trkpt lat="47.27528" lon="-1.63111">
        <ele>44.6</ele>
        <time>2015-11-11T09:23:35Z</time>
      </trkpt>
      <trkpt lat="47.27526" lon="-1.63122">
        <ele>44.9</ele>
        <time>2015-11-11T09:23:41Z</time>
      </trkpt>
      <trkpt lat="47.27525" lon="-1.63133">
        <ele>45.3</ele>
        <time>2015-11-11T09:23:47Z</time>
      </trkpt>
      <trkpt lat="47.27525" lon="-1.63145">
        <ele>45.5</ele>
        <time>2015-11-11T09:23:53Z</time>
      </trkpt>
      <trkpt lat="47.27526" lon="-1.63155">
        <ele>45.6</ele>
        <time>2015-11-11T09:23:59Z</time>
      </trkpt>
      <trkpt lat="47.27528" lon="-1.63167">
        <ele>46.6</ele>
        <time>2015-11-11T09:24:06Z</time>
      </trkpt>
      <trkpt lat="47.27535" lon="-1.63187">
        <ele>47</ele>
        <time>2015-11-11T09:24:18Z</time>
      </trkpt>
      <trkpt lat="47.27539" lon="-1.63196">
        <ele>47.4</ele>
        <time>2015-11-11T09:24:24Z</time>
      </trkpt>
      <trkpt lat="47.27544" lon="-1.63204">
        <ele>47.8</ele>
        <time>2015-11-11T09:24:30Z</time>
      </trkpt>
      <trkpt lat="47.2755" lon="-1.63214">
        <ele>48.5</ele>
        <time>2015-11-11T09:24:37Z</time>
      </trkpt>
      <trkpt lat="47.27553" lon="-1.63224">
        <ele>49.3</ele>
        <time>2015-11-11T09:24:44Z</time>
      </trkpt>
      <trkpt lat="47.2756" lon="-1.6323">
        <ele>50</ele>
        <time>2015-11-11T09:24:51Z</time>
      </trkpt>
      <trkpt lat="47.27567" lon="-1.63236">
        <ele>50.6</ele>
        <time>2015-11-11T09:24:58Z</time>
      </trkpt>
      <trkpt lat="47.27575" lon="-1.63239">
        <ele>51.6</ele>
        <time>2015-11-11T09:25:05Z</time>
      </trkpt>
      <trkpt lat="47.27581" lon="-1.63243">
        <ele>51.4</ele>
        <time>2015-11-11T09:25:11Z</time>
      </trkpt>
      <trkpt lat="47.27595" lon="-1.63257">
        <ele>52.4</ele>
        <time>2015-11-11T09:25:23Z</time>
      </trkpt>
      <trkpt lat="47.27601" lon="-1.63264">
        <ele>52.6</ele>
        <time>2015-11-11T09:25:29Z</time>
      </trkpt>
      <trkpt lat="47.27608" lon="-1.63271">
        <ele>53.3</ele>
        <time>2015-11-11T09:25:35Z</time>
      </trkpt>
      <trkpt lat="47.27615" lon="-1.63278">
        <ele>53.3</ele>
        <time>2015-11-11T09:25:41Z</time>
      </trkpt>
      <trkpt lat="47.2762" lon="-1.63286">
        <ele>53.1</ele>
        <time>2015-11-11T09:25:46Z</time>
      </trkpt>
      <trkpt lat="47.27627" lon="-1.6329">
        <ele>54.3</ele>
        <time>2015-11-11T09:25:53Z</time>
      </trkpt>
      <trkpt lat="47.27635" lon="-1.63289">
        <ele>54.4</ele>
        <time>2015-11-11T09:26:01Z</time>
      </trkpt>
      <trkpt lat="47.27642" lon="-1.63288">
        <ele>54.3</ele>
        <time>2015-11-11T09:26:07Z</time>
      </trkpt>
      <trkpt lat="47.2765" lon="-1.63286">
        <ele>55.4</ele>
        <time>2015-11-11T09:26:14Z</time>
      </trkpt>
      <trkpt lat="47.27665" lon="-1.63285">
        <ele>57.1</ele>
        <time>2015-11-11T09:26:30Z</time>
      </trkpt>
      <trkpt lat="47.27672" lon="-1.63281">
        <ele>57</ele>
        <time>2015-11-11T09:26:37Z</time>
      </trkpt>
      <trkpt lat="47.27679" lon="-1.63276">
        <ele>57.8</ele>
        <time>2015-11-11T09:26:43Z</time>
      </trkpt>
      <trkpt lat="47.27686" lon="-1.63273">
        <ele>58.5</ele>
        <time>2015-11-11T09:26:49Z</time>
      </trkpt>
      <trkpt lat="47.27694" lon="-1.63271">
        <ele>58.7</ele>
        <time>2015-11-11T09:26:55Z</time>
      </trkpt>
      <trkpt lat="47.27702" lon="-1.63267">
        <ele>59</ele>
        <time>2015-11-11T09:27:01Z</time>
      </trkpt>
      <trkpt lat="47.2771" lon="-1.63266">
        <ele>60.1</ele>
        <time>2015-11-11T09:27:07Z</time>
      </trkpt>
      <trkpt lat="47.27718" lon="-1.63265">
        <ele>60.2</ele>
        <time>2015-11-11T09:27:13Z</time>
      </trkpt>
      <trkpt lat="47.27725" lon="-1.63264">
        <ele>61</ele>
        <time>2015-11-11T09:27:18Z</time>
      </trkpt>
      <trkpt lat="47.2774" lon="-1.63259">
        <ele>61.4</ele>
        <time>2015-11-11T09:27:30Z</time>
      </trkpt>
      <trkpt lat="47.27748" lon="-1.63258">
        <ele>61.8</ele>
        <time>2015-11-11T09:27:37Z</time>
      </trkpt>
      <trkpt lat="47.27756" lon="-1.63256">
        <ele>61.8</ele>
        <time>2015-11-11T09:27:43Z</time>
      </trkpt>
      <trkpt lat="47.27763" lon="-1.63252">
        <ele>62</ele>
        <time>2015-11-11T09:27:49Z</time>
      </trkpt>
      <trkpt lat="47.27772" lon="-1.63254">
        <ele>62.1</ele>
        <time>2015-11-11T09:27:56Z</time>
      </trkpt>
      <trkpt lat="47.27777" lon="-1.6326">
        <ele>63.3</ele>
        <time>2015-11-11T09:28:09Z</time>
      </trkpt>
      <trkpt lat="47.27784" lon="-1.63266">
        <ele>64.6</ele>
        <time>2015-11-11T09:28:16Z</time>
      </trkpt>
      <trkpt lat="47.27792" lon="-1.63267">
        <ele>64.6</ele>
        <time>2015-11-11T09:28:22Z</time>
      </trkpt>
      <trkpt lat="47.27807" lon="-1.6327">
        <ele>65.6</ele>
        <time>2015-11-11T09:28:33Z</time>
      </trkpt>
      <trkpt lat="47.27815" lon="-1.63273">
        <ele>65.8</ele>
        <time>2015-11-11T09:28:39Z</time>
      </trkpt>
      <trkpt lat="47.27822" lon="-1.63276">
        <ele>66.2</ele>
        <time>2015-11-11T09:28:45Z</time>
      </trkpt>
      <trkpt lat="47.2783" lon="-1.63279">
        <ele>66.4</ele>
        <time>2015-11-11T09:28:52Z</time>
      </trkpt>
      <trkpt lat="47.27837" lon="-1.63284">
        <ele>66.6</ele>
        <time>2015-11-11T09:29:00Z</time>
      </trkpt>
      <trkpt lat="47.27845" lon="-1.6329">
        <ele>66.5</ele>
        <time>2015-11-11T09:29:08Z</time>
      </trkpt>
      <trkpt lat="47.27852" lon="-1.63296">
        <ele>67.6</ele>
        <time>2015-11-11T09:29:14Z</time>
      </trkpt>
      <trkpt lat="47.27859" lon="-1.63302">
        <ele>68</ele>
        <time>2015-11-11T09:29:20Z</time>
      </trkpt>
      <trkpt lat="47.27865" lon="-1.63309">
        <ele>68.1</ele>
        <time>2015-11-11T09:29:25Z</time>
      </trkpt>
      <trkpt lat="47.27879" lon="-1.63321">
        <ele>68.8</ele>
        <time>2015-11-11T09:29:35Z</time>
      </trkpt>
      <trkpt lat="47.27887" lon="-1.63327">
        <ele>68.3</ele>
        <time>2015-11-11T09:29:41Z</time>
      </trkpt>
      <trkpt lat="47.27893" lon="-1.63331">
        <ele>68.3</ele>
        <time>2015-11-11T09:29:46Z</time>
      </trkpt>
      <trkpt lat="47.27901" lon="-1.63334">
        <ele>68.4</ele>
        <time>2015-11-11T09:29:52Z</time>
      </trkpt>
      <trkpt lat="47.27909" lon="-1.63337">
        <ele>68.3</ele>
        <time>2015-11-11T09:29:58Z</time>
      </trkpt>
      <trkpt lat="47.27917" lon="-1.63339">
        <ele>69</ele>
        <time>2015-11-11T09:30:04Z</time>
      </trkpt>
      <trkpt lat="47.27925" lon="-1.63337">
        <ele>67.9</ele>
        <time>2015-11-11T09:30:10Z</time>
      </trkpt>
      <trkpt lat="47.27933" lon="-1.63333">
        <ele>68.1</ele>
        <time>2015-11-11T09:30:16Z</time>
      </trkpt>
      <trkpt lat="47.2794" lon="-1.63329">
        <ele>67.3</ele>
        <time>2015-11-11T09:30:22Z</time>
      </trkpt>
      <trkpt lat="47.27948" lon="-1.63327">
        <ele>67.9</ele>
        <time>2015-11-11T09:30:28Z</time>
      </trkpt>
      <trkpt lat="47.27965" lon="-1.63322">
        <ele>67.3</ele>
        <time>2015-11-11T09:30:40Z</time>
      </trkpt>
      <trkpt lat="47.27972" lon="-1.63321">
        <ele>68</ele>
        <time>2015-11-11T09:30:46Z</time>
      </trkpt>
      <trkpt lat="47.27979" lon="-1.63322">
        <ele>68.3</ele>
        <time>2015-11-11T09:30:52Z</time>
      </trkpt>
      <trkpt lat="47.27987" lon="-1.63321">
        <ele>67.9</ele>
        <time>2015-11-11T09:30:58Z</time>
      </trkpt>
      <trkpt lat="47.27995" lon="-1.63319">
        <ele>67.7</ele>
        <time>2015-11-11T09:31:04Z</time>
      </trkpt>
      <trkpt lat="47.28003" lon="-1.63318">
        <ele>68.6</ele>
        <time>2015-11-11T09:31:10Z</time>
      </trkpt>
      <trkpt lat="47.2801" lon="-1.63317">
        <ele>68.5</ele>
        <time>2015-11-11T09:31:15Z</time>
      </trkpt>
      <trkpt lat="47.28018" lon="-1.63314">
        <ele>67.5</ele>
        <time>2015-11-11T09:31:21Z</time>
      </trkpt>
      <trkpt lat="47.28026" lon="-1.63311">
        <ele>67.6</ele>
        <time>2015-11-11T09:31:27Z</time>
      </trkpt>
      <trkpt lat="47.28033" lon="-1.63308">
        <ele>67.6</ele>
        <time>2015-11-11T09:31:33Z</time>
      </trkpt>
      <trkpt lat="47.28048" lon="-1.63298">
        <ele>67.5</ele>
        <time>2015-11-11T09:31:45Z</time>
      </trkpt>
      <trkpt lat="47.28055" lon="-1.63292">
        <ele>67.6</ele>
        <time>2015-11-11T09:31:50Z</time>
      </trkpt>
      <trkpt lat="47.28061" lon="-1.63286">
        <ele>67.4</ele>
        <time>2015-11-11T09:31:56Z</time>
      </trkpt>
      <trkpt lat="47.28069" lon="-1.63281">
        <ele>66.3</ele>
        <time>2015-11-11T09:32:02Z</time>
      </trkpt>
      <trkpt lat="47.28076" lon="-1.63276">
        <ele>66.3</ele>
        <time>2015-11-11T09:32:08Z</time>
      </trkpt>
      <trkpt lat="47.28083" lon="-1.63273">
        <ele>65.8</ele>
        <time>2015-11-11T09:32:14Z</time>
      </trkpt>
      <trkpt lat="47.28091" lon="-1.6327">
        <ele>65.8</ele>
        <time>2015-11-11T09:32:21Z</time>
      </trkpt>
      <trkpt lat="47.28098" lon="-1.6327">
        <ele>66</ele>
        <time>2015-11-11T09:32:28Z</time>
      </trkpt>
      <trkpt lat="47.28105" lon="-1.63276">
        <ele>66</ele>
        <time>2015-11-11T09:32:36Z</time>
      </trkpt>
      <trkpt lat="47.28117" lon="-1.6329">
        <ele>65.9</ele>
        <time>2015-11-11T09:32:49Z</time>
      </trkpt>
      <trkpt lat="47.28123" lon="-1.63298">
        <ele>67.2</ele>
        <time>2015-11-11T09:32:55Z</time>
      </trkpt>
      <trkpt lat="47.28128" lon="-1.63307">
        <ele>67.4</ele>
        <time>2015-11-11T09:33:01Z</time>
      </trkpt>
      <trkpt lat="47.28133" lon="-1.63315">
        <ele>66.4</ele>
        <time>2015-11-11T09:33:06Z</time>
      </trkpt>
      <trkpt lat="47.28138" lon="-1.63325">
        <ele>66.3</ele>
        <time>2015-11-11T09:33:12Z</time>
      </trkpt>
      <trkpt lat="47.28144" lon="-1.63334">
        <ele>66.2</ele>
        <time>2015-11-11T09:33:18Z</time>
      </trkpt>
      <trkpt lat="47.28149" lon="-1.63342">
        <ele>66.3</ele>
        <time>2015-11-11T09:33:24Z</time>
      </trkpt>
      <trkpt lat="47.28154" lon="-1.63352">
        <ele>67.2</ele>
        <time>2015-11-11T09:33:30Z</time>
      </trkpt>
      <trkpt lat="47.28158" lon="-1.63361">
        <ele>67</ele>
        <time>2015-11-11T09:33:35Z</time>
      </trkpt>
      <trkpt lat="47.28163" lon="-1.63371">
        <ele>66.8</ele>
        <time>2015-11-11T09:33:41Z</time>
      </trkpt>
      <trkpt lat="47.28172" lon="-1.63391">
        <ele>67</ele>
        <time>2015-11-11T09:33:53Z</time>
      </trkpt>
      <trkpt lat="47.28175" lon="-1.63402">
        <ele>66.7</ele>
        <time>2015-11-11T09:34:00Z</time>
      </trkpt>
      <trkpt lat="47.28179" lon="-1.63412">
        <ele>66.7</ele>
        <time>2015-11-11T09:34:06Z</time>
      </trkpt>
      <trkpt lat="47.28182" lon="-1.63423">
        <ele>67.3</ele>
        <time>2015-11-11T09:34:13Z</time>
      </trkpt>
      <trkpt lat="47.28186" lon="-1.63434">
        <ele>67.2</ele>
        <time>2015-11-11T09:34:20Z</time>
      </trkpt>
      <trkpt lat="47.28189" lon="-1.63444">
        <ele>67.3</ele>
        <time>2015-11-11T09:34:26Z</time>
      </trkpt>
      <trkpt lat="47.28192" lon="-1.63455">
        <ele>67.1</ele>
        <time>2015-11-11T09:34:32Z</time>
      </trkpt>
      <trkpt lat="47.28195" lon="-1.63465">
        <ele>66.7</ele>
        <time>2015-11-11T09:34:37Z</time>
      </trkpt>
      <trkpt lat="47.28199" lon="-1.63475">
        <ele>66.3</ele>
        <time>2015-11-11T09:34:42Z</time>
      </trkpt>
      <trkpt lat="47.28203" lon="-1.63485">
        <ele>66.9</ele>
        <time>2015-11-11T09:34:47Z</time>
      </trkpt>
      <trkpt lat="47.2821" lon="-1.63505">
        <ele>67</ele>
        <time>2015-11-11T09:34:58Z</time>
      </trkpt>
      <trkpt lat="47.28215" lon="-1.63514">
        <ele>66.8</ele>
        <time>2015-11-11T09:35:04Z</time>
      </trkpt>
      <trkpt lat="47.2822" lon="-1.63524">
        <ele>66.8</ele>
        <time>2015-11-11T09:35:10Z</time>
      </trkpt>
      <trkpt lat="47.28224" lon="-1.63532">
        <ele>67.4</ele>
        <time>2015-11-11T09:35:15Z</time>
      </trkpt>
      <trkpt lat="47.28229" lon="-1.63541">
        <ele>68.3</ele>
        <time>2015-11-11T09:35:21Z</time>
      </trkpt>
      <trkpt lat="47.28233" lon="-1.6355">
        <ele>68.2</ele>
        <time>2015-11-11T09:35:27Z</time>
      </trkpt>
      <trkpt lat="47.28238" lon="-1.63559">
        <ele>68.5</ele>
        <time>2015-11-11T09:35:34Z</time>
      </trkpt>
      <trkpt lat="47.28242" lon="-1.63569">
        <ele>68.1</ele>
        <time>2015-11-11T09:35:40Z</time>
      </trkpt>
      <trkpt lat="47.28247" lon="-1.63578">
        <ele>68.2</ele>
        <time>2015-11-11T09:35:46Z</time>
      </trkpt>
      <trkpt lat="47.28253" lon="-1.63587">
        <ele>68.9</ele>
        <time>2015-11-11T09:35:52Z</time>
      </trkpt>
      <trkpt lat="47.28264" lon="-1.63605">
        <ele>70.2</ele>
        <time>2015-11-11T09:36:04Z</time>
      </trkpt>
      <trkpt lat="47.2827" lon="-1.63614">
        <ele>69.8</ele>
        <time>2015-11-11T09:36:10Z</time>
      </trkpt>
      <trkpt lat="47.28275" lon="-1.63622">
        <ele>70.6</ele>
        <time>2015-11-11T09:36:16Z</time>
      </trkpt>
      <trkpt lat="47.2828" lon="-1.6363">
        <ele>71.1</ele>
        <time>2015-11-11T09:36:22Z</time>
      </trkpt>
      <trkpt lat="47.28287" lon="-1.63636">
        <ele>70.9</ele>
        <time>2015-11-11T09:36:28Z</time>
      </trkpt>
      <trkpt lat="47.28293" lon="-1.63643">
        <ele>70.9</ele>
        <time>2015-11-11T09:36:34Z</time>
      </trkpt>
      <trkpt lat="47.28299" lon="-1.63649">
        <ele>71.7</ele>
        <time>2015-11-11T09:36:39Z</time>
      </trkpt>
      <trkpt lat="47.28306" lon="-1.63655">
        <ele>71.7</ele>
        <time>2015-11-11T09:36:45Z</time>
      </trkpt>
      <trkpt lat="47.28314" lon="-1.6366">
        <ele>71.2</ele>
        <time>2015-11-11T09:36:51Z</time>
      </trkpt>
      <trkpt lat="47.28321" lon="-1.63664">
        <ele>72.2</ele>
        <time>2015-11-11T09:36:57Z</time>
      </trkpt>
      <trkpt lat="47.28336" lon="-1.63673">
        <ele>72.4</ele>
        <time>2015-11-11T09:37:10Z</time>
      </trkpt>
      <trkpt lat="47.28343" lon="-1.63677">
        <ele>72.8</ele>
        <time>2015-11-11T09:37:15Z</time>
      </trkpt>
      <trkpt lat="47.2835" lon="-1.6368">
        <ele>72.7</ele>
        <time>2015-11-11T09:37:20Z</time>
      </trkpt>
      <trkpt lat="47.28357" lon="-1.63685">
        <ele>72.3</ele>
        <time>2015-11-11T09:37:25Z</time>
      </trkpt>
      <trkpt lat="47.28364" lon="-1.63692">
        <ele>72.7</ele>
        <time>2015-11-11T09:37:31Z</time>
      </trkpt>
      <trkpt lat="47.28372" lon="-1.63693">
        <ele>72.7</ele>
        <time>2015-11-11T09:37:37Z</time>
      </trkpt>
      <trkpt lat="47.28378" lon="-1.63686">
        <ele>72.6</ele>
        <time>2015-11-11T09:37:43Z</time>
      </trkpt>
      <trkpt lat="47.28383" lon="-1.63678">
        <ele>72.9</ele>
        <time>2015-11-11T09:37:50Z</time>
      </trkpt>
      <trkpt lat="47.28387" lon="-1.6367">
        <ele>72.9</ele>
        <time>2015-11-11T09:37:57Z</time>
      </trkpt>
      <trkpt lat="47.28391" lon="-1.6366">
        <ele>71.9</ele>
        <time>2015-11-11T09:38:04Z</time>
      </trkpt>
      <trkpt lat="47.28398" lon="-1.63639">
        <ele>72.4</ele>
        <time>2015-11-11T09:38:17Z</time>
      </trkpt>
      <trkpt lat="47.28399" lon="-1.63629">
        <ele>72.3</ele>
        <time>2015-11-11T09:38:23Z</time>
      </trkpt>
      <trkpt lat="47.28401" lon="-1.63617">
        <ele>72</ele>
        <time>2015-11-11T09:38:29Z</time>
      </trkpt>
      <trkpt lat="47.28402" lon="-1.63607">
        <ele>71.7</ele>
        <time>2015-11-11T09:38:35Z</time>
      </trkpt>
      <trkpt lat="47.28402" lon="-1.63596">
        <ele>72.1</ele>
        <time>2015-11-11T09:38:41Z</time>
      </trkpt>
      <trkpt lat="47.28403" lon="-1.63585">
        <ele>71.7</ele>
        <time>2015-11-11T09:38:47Z</time>
      </trkpt>
      <trkpt lat="47.28404" lon="-1.63574">
        <ele>71.6</ele>
        <time>2015-11-11T09:38:53Z</time>
      </trkpt>
      <trkpt lat="47.28406" lon="-1.63563">
        <ele>70.7</ele>
        <time>2015-11-11T09:38:58Z</time>
      </trkpt>
      <trkpt lat="47.28407" lon="-1.6355">
        <ele>70.8</ele>
        <time>2015-11-11T09:39:04Z</time>
      </trkpt>
      <trkpt lat="47.2841" lon="-1.63527">
        <ele>71.3</ele>
        <time>2015-11-11T09:39:16Z</time>
      </trkpt>
      <trkpt lat="47.28412" lon="-1.63514">
        <ele>71.5</ele>
        <time>2015-11-11T09:39:22Z</time>
      </trkpt>
      <trkpt lat="47.28413" lon="-1.63503">
        <ele>71.3</ele>
        <time>2015-11-11T09:39:28Z</time>
      </trkpt>
      <trkpt lat="47.28415" lon="-1.63492">
        <ele>70.7</ele>
        <time>2015-11-11T09:39:33Z</time>
      </trkpt>
      <trkpt lat="47.28416" lon="-1.63481">
        <ele>70.1</ele>
        <time>2015-11-11T09:39:39Z</time>
      </trkpt>
      <trkpt lat="47.28417" lon="-1.6347">
        <ele>70.6</ele>
        <time>2015-11-11T09:39:44Z</time>
      </trkpt>
      <trkpt lat="47.28419" lon="-1.63459">
        <ele>70.1</ele>
        <time>2015-11-11T09:39:49Z</time>
      </trkpt>
      <trkpt lat="47.28421" lon="-1.63449">
        <ele>69.5</ele>
        <time>2015-11-11T09:39:54Z</time>
      </trkpt>
      <trkpt lat="47.28422" lon="-1.63437">
        <ele>68.9</ele>
        <time>2015-11-11T09:40:00Z</time>
      </trkpt>
      <trkpt lat="47.28423" lon="-1.63425">
        <ele>69</ele>
        <time>2015-11-11T09:40:06Z</time>
      </trkpt>
      <trkpt lat="47.28424" lon="-1.63402">
        <ele>68.7</ele>
        <time>2015-11-11T09:40:17Z</time>
      </trkpt>
      <trkpt lat="47.28423" lon="-1.63391">
        <ele>68.5</ele>
        <time>2015-11-11T09:40:23Z</time>
      </trkpt>
      <trkpt lat="47.28422" lon="-1.63379">
        <ele>68.9</ele>
        <time>2015-11-11T09:40:29Z</time>
      </trkpt>
      <trkpt lat="47.2842" lon="-1.63367">
        <ele>68.8</ele>
        <time>2015-11-11T09:40:35Z</time>
      </trkpt>
      <trkpt lat="47.28419" lon="-1.63356">
        <ele>69</ele>
        <time>2015-11-11T09:40:41Z</time>
      </trkpt>
      <trkpt lat="47.28421" lon="-1.63344">
        <ele>68.7</ele>
        <time>2015-11-11T09:40:47Z</time>
      </trkpt>
      <trkpt lat="47.2842" lon="-1.63333">
        <ele>69.3</ele>
        <time>2015-11-11T09:40:52Z</time>
      </trkpt>
      <trkpt lat="47.2842" lon="-1.63322">
        <ele>69.6</ele>
        <time>2015-11-11T09:40:57Z</time>
      </trkpt>
      <trkpt lat="47.28419" lon="-1.63311">
        <ele>70.1</ele>
        <time>2015-11-11T09:41:03Z</time>
      </trkpt>
      <trkpt lat="47.28419" lon="-1.63299">
        <ele>70.2</ele>
        <time>2015-11-11T09:41:10Z</time>
      </trkpt>
      <trkpt lat="47.28426" lon="-1.63279">
        <ele>70.8</ele>
        <time>2015-11-11T09:41:22Z</time>
      </trkpt>
      <trkpt lat="47.28432" lon="-1.63271">
        <ele>71.2</ele>
        <time>2015-11-11T09:41:28Z</time>
      </trkpt>
      <trkpt lat="47.28438" lon="-1.63264">
        <ele>70.5</ele>
        <time>2015-11-11T09:41:33Z</time>
      </trkpt>
      <trkpt lat="47.28445" lon="-1.63257">
        <ele>70.9</ele>
        <time>2015-11-11T09:41:39Z</time>
      </trkpt>
      <trkpt lat="47.28451" lon="-1.6325">
        <ele>71.1</ele>
        <time>2015-11-11T09:41:45Z</time>
      </trkpt>
      <trkpt lat="47.28457" lon="-1.63243">
        <ele>71.7</ele>
        <time>2015-11-11T09:41:51Z</time>
      </trkpt>
      <trkpt lat="47.28462" lon="-1.63235">
        <ele>71.2</ele>
        <time>2015-11-11T09:41:56Z</time>
      </trkpt>
      <trkpt lat="47.28464" lon="-1.63224">
        <ele>70.6</ele>
        <time>2015-11-11T09:42:02Z</time>
      </trkpt>
      <trkpt lat="47.28464" lon="-1.63213">
        <ele>71.7</ele>
        <time>2015-11-11T09:42:08Z</time>
      </trkpt>
      <trkpt lat="47.2846" lon="-1.63203">
        <ele>70.6</ele>
        <time>2015-11-11T09:42:14Z</time>
      </trkpt>
      <trkpt lat="47.28454" lon="-1.63182">
        <ele>71.2</ele>
        <time>2015-11-11T09:42:26Z</time>
      </trkpt>
      <trkpt lat="47.28451" lon="-1.63172">
        <ele>71</ele>
        <time>2015-11-11T09:42:32Z</time>
      </trkpt>
      <trkpt lat="47.28448" lon="-1.63162">
        <ele>71.1</ele>
        <time>2015-11-11T09:42:39Z</time>
      </trkpt>
      <trkpt lat="47.28445" lon="-1.63153">
        <ele>71.9</ele>
        <time>2015-11-11T09:42:45Z</time>
      </trkpt>
      <trkpt lat="47.28444" lon="-1.63142">
        <ele>71.2</ele>
        <time>2015-11-11T09:42:52Z</time>
      </trkpt>
      <trkpt lat="47.28448" lon="-1.63132">
        <ele>71.2</ele>
        <time>2015-11-11T09:42:59Z</time>
      </trkpt>
      <trkpt lat="47.28455" lon="-1.63128">
        <ele>71.3</ele>
        <time>2015-11-11T09:43:06Z</time>
      </trkpt>
      <trkpt lat="47.28462" lon="-1.63123">
        <ele>71.8</ele>
        <time>2015-11-11T09:43:12Z</time>
      </trkpt>
      <trkpt lat="47.28469" lon="-1.63117">
        <ele>72.5</ele>
        <time>2015-11-11T09:43:18Z</time>
      </trkpt>
      <trkpt lat="47.2848" lon="-1.63103">
        <ele>71.8</ele>
        <time>2015-11-11T09:43:28Z</time>
      </trkpt>
      <trkpt lat="47.28487" lon="-1.63097">
        <ele>71.5</ele>
        <time>2015-11-11T09:43:34Z</time>
      </trkpt>
      <trkpt lat="47.28493" lon="-1.63091">
        <ele>70.9</ele>
        <time>2015-11-11T09:43:40Z</time>
      </trkpt>
      <trkpt lat="47.28499" lon="-1.63083">
        <ele>72.1</ele>
        <time>2015-11-11T09:43:46Z</time>
      </trkpt>
      <trkpt lat="47.28506" lon="-1.63078">
        <ele>72.6</ele>
        <time>2015-11-11T09:43:52Z</time>
      </trkpt>
      <trkpt lat="47.28513" lon="-1.63071">
        <ele>72.5</ele>
        <time>2015-11-11T09:43:58Z</time>
      </trkpt>
      <trkpt lat="47.2852" lon="-1.63065">
        <ele>73.1</ele>
        <time>2015-11-11T09:44:04Z</time>
      </trkpt>
      <trkpt lat="47.28527" lon="-1.63058">
        <ele>72.7</ele>
        <time>2015-11-11T09:44:10Z</time>
      </trkpt>
      <trkpt lat="47.28534" lon="-1.63051">
        <ele>72.4</ele>
        <time>2015-11-11T09:44:16Z</time>
      </trkpt>
      <trkpt lat="47.28541" lon="-1.63045">
        <ele>72.6</ele>
        <time>2015-11-11T09:44:22Z</time>
      </trkpt>
      <trkpt lat="47.28553" lon="-1.63034">
        <ele>72.2</ele>
        <time>2015-11-11T09:44:32Z</time>
      </trkpt>
      <trkpt lat="47.2856" lon="-1.63027">
        <ele>72.1</ele>
        <time>2015-11-11T09:44:38Z</time>
      </trkpt>
      <trkpt lat="47.28567" lon="-1.63021">
        <ele>71.6</ele>
        <time>2015-11-11T09:44:44Z</time>
      </trkpt>
      <trkpt lat="47.28574" lon="-1.63015">
        <ele>72.7</ele>
        <time>2015-11-11T09:44:50Z</time>
      </trkpt>
      <trkpt lat="47.28581" lon="-1.6301">
        <ele>71.9</ele>
        <time>2015-11-11T09:44:56Z</time>
      </trkpt>
      <trkpt lat="47.28587" lon="-1.63004">
        <ele>72</ele>
        <time>2015-11-11T09:45:02Z</time>
      </trkpt>
      <trkpt lat="47.28594" lon="-1.62999">
        <ele>72</ele>
        <time>2015-11-11T09:45:08Z</time>
      </trkpt>
      <trkpt lat="47.28601" lon="-1.62994">
        <ele>71.9</ele>
        <time>2015-11-11T09:45:14Z</time>
      </trkpt>
      <trkpt lat="47.28608" lon="-1.62988">
        <ele>71.8</ele>
        <time>2015-11-11T09:45:20Z</time>
      </trkpt>
      <trkpt lat="47.28615" lon="-1.62983">
        <ele>71.9</ele>
        <time>2015-11-11T09:45:26Z</time>
      </trkpt>
      <trkpt lat="47.28629" lon="-1.62973">
        <ele>71.9</ele>
        <time>2015-11-11T09:45:38Z</time>
      </trkpt>
      <trkpt lat="47.28637" lon="-1.62967">
        <ele>72.1</ele>
        <time>2015-11-11T09:45:43Z</time>
      </trkpt>
      <trkpt lat="47.28643" lon="-1.62962">
        <ele>71.8</ele>
        <time>2015-11-11T09:45:48Z</time>
      </trkpt>
      <trkpt lat="47.2865" lon="-1.62957">
        <ele>71.5</ele>
        <time>2015-11-11T09:45:53Z</time>
      </trkpt>
      <trkpt lat="47.28657" lon="-1.62951">
        <ele>71.3</ele>
        <time>2015-11-11T09:45:59Z</time>
      </trkpt>
      <trkpt lat="47.28665" lon="-1.62946">
        <ele>70.8</ele>
        <time>2015-11-11T09:46:05Z</time>
      </trkpt>
      <trkpt lat="47.28671" lon="-1.62941">
        <ele>70.8</ele>
        <time>2015-11-11T09:46:11Z</time>
      </trkpt>
      <trkpt lat="47.28678" lon="-1.62935">
        <ele>70.2</ele>
        <time>2015-11-11T09:46:17Z</time>
      </trkpt>
      <trkpt lat="47.28685" lon="-1.62931">
        <ele>69.9</ele>
        <time>2015-11-11T09:46:23Z</time>
      </trkpt>
      <trkpt lat="47.28692" lon="-1.62926">
        <ele>70.1</ele>
        <time>2015-11-11T09:46:29Z</time>
      </trkpt>
      <trkpt lat="47.28707" lon="-1.62919">
        <ele>69.2</ele>
        <time>2015-11-11T09:46:40Z</time>
      </trkpt>
      <trkpt lat="47.28714" lon="-1.62916">
        <ele>68.9</ele>
        <time>2015-11-11T09:46:46Z</time>
      </trkpt>
      <trkpt lat="47.28722" lon="-1.62914">
        <ele>69.3</ele>
        <time>2015-11-11T09:46:51Z</time>
      </trkpt>
      <trkpt lat="47.28729" lon="-1.62913">
        <ele>68.8</ele>
        <time>2015-11-11T09:46:56Z</time>
      </trkpt>
      <trkpt lat="47.28737" lon="-1.62911">
        <ele>68.5</ele>
        <time>2015-11-11T09:47:02Z</time>
      </trkpt>
      <trkpt lat="47.28745" lon="-1.62909">
        <ele>68.6</ele>
        <time>2015-11-11T09:47:08Z</time>
      </trkpt>
      <trkpt lat="47.28752" lon="-1.62908">
        <ele>67.8</ele>
        <time>2015-11-11T09:47:13Z</time>
      </trkpt>
      <trkpt lat="47.28761" lon="-1.62906">
        <ele>67.5</ele>
        <time>2015-11-11T09:47:19Z</time>
      </trkpt>
      <trkpt lat="47.28769" lon="-1.62905">
        <ele>67.2</ele>
        <time>2015-11-11T09:47:25Z</time>
      </trkpt>
      <trkpt lat="47.28777" lon="-1.62904">
        <ele>67.1</ele>
        <time>2015-11-11T09:47:31Z</time>
      </trkpt>
      <trkpt lat="47.28792" lon="-1.62902">
        <ele>66.4</ele>
        <time>2015-11-11T09:47:43Z</time>
      </trkpt>
      <trkpt lat="47.288" lon="-1.629">
        <ele>66.5</ele>
        <time>2015-11-11T09:47:50Z</time>
      </trkpt>
      <trkpt lat="47.28807" lon="-1.62899">
        <ele>65.9</ele>
        <time>2015-11-11T09:47:57Z</time>
      </trkpt>
      <trkpt lat="47.28815" lon="-1.62897">
        <ele>65.8</ele>
        <time>2015-11-11T09:48:03Z</time>
      </trkpt>
      <trkpt lat="47.28823" lon="-1.62896">
        <ele>65.1</ele>
        <time>2015-11-11T09:48:09Z</time>
      </trkpt>
      <trkpt lat="47.28832" lon="-1.62895">
        <ele>65.5</ele>
        <time>2015-11-11T09:48:15Z</time>
      </trkpt>
      <trkpt lat="47.28838" lon="-1.62888">
        <ele>65.9</ele>
        <time>2015-11-11T09:48:23Z</time>
      </trkpt>
      <trkpt lat="47.28838" lon="-1.62877">
        <ele>66.7</ele>
        <time>2015-11-11T09:48:31Z</time>
      </trkpt>
      <trkpt lat="47.28837" lon="-1.62865">
        <ele>66.7</ele>
        <time>2015-11-11T09:48:40Z</time>
      </trkpt>
      <trkpt lat="47.28837" lon="-1.6284">
        <ele>67.2</ele>
        <time>2015-11-11T09:48:54Z</time>
      </trkpt>
      <trkpt lat="47.28838" lon="-1.6283">
        <ele>67.4</ele>
        <time>2015-11-11T09:49:00Z</time>
      </trkpt>
      <trkpt lat="47.28838" lon="-1.62818">
        <ele>68.2</ele>
        <time>2015-11-11T09:49:06Z</time>
      </trkpt>
      <trkpt lat="47.28837" lon="-1.62806">
        <ele>68.5</ele>
        <time>2015-11-11T09:49:13Z</time>
      </trkpt>
      <trkpt lat="47.28836" lon="-1.62794">
        <ele>68.1</ele>
        <time>2015-11-11T09:49:19Z</time>
      </trkpt>
      <trkpt lat="47.28836" lon="-1.62783">
        <ele>68.9</ele>
        <time>2015-11-11T09:49:25Z</time>
      </trkpt>
      <trkpt lat="47.28834" lon="-1.62772">
        <ele>69.5</ele>
        <time>2015-11-11T09:49:31Z</time>
      </trkpt>
      <trkpt lat="47.28835" lon="-1.6276">
        <ele>70.3</ele>
        <time>2015-11-11T09:49:38Z</time>
      </trkpt>
      <trkpt lat="47.28832" lon="-1.62748">
        <ele>71.2</ele>
        <time>2015-11-11T09:49:45Z</time>
      </trkpt>
      <trkpt lat="47.2883" lon="-1.62725">
        <ele>72</ele>
        <time>2015-11-11T09:49:57Z</time>
      </trkpt>
      <trkpt lat="47.28828" lon="-1.62714">
        <ele>72.7</ele>
        <time>2015-11-11T09:50:04Z</time>
      </trkpt>
      <trkpt lat="47.28827" lon="-1.62702">
        <ele>73.7</ele>
        <time>2015-11-11T09:50:11Z</time>
      </trkpt>
      <trkpt lat="47.28825" lon="-1.62691">
        <ele>74.4</ele>
        <time>2015-11-11T09:50:18Z</time>
      </trkpt>
      <trkpt lat="47.28825" lon="-1.6268">
        <ele>74.7</ele>
        <time>2015-11-11T09:50:25Z</time>
      </trkpt>
      <trkpt lat="47.28826" lon="-1.62668">
        <ele>75</ele>
        <time>2015-11-11T09:50:33Z</time>
      </trkpt>
      <trkpt lat="47.28827" lon="-1.62657">
        <ele>74.8</ele>
        <time>2015-11-11T09:50:38Z</time>
      </trkpt>
      <trkpt lat="47.28828" lon="-1.62645">
        <ele>73.9</ele>
        <time>2015-11-11T09:50:44Z</time>
      </trkpt>
      <trkpt lat="47.28829" lon="-1.62634">
        <ele>74.7</ele>
        <time>2015-11-11T09:50:50Z</time>
      </trkpt>
      <trkpt lat="47.28838" lon="-1.62616">
        <ele>74.2</ele>
        <time>2015-11-11T09:51:09Z</time>
      </trkpt>
      <trkpt lat="47.28845" lon="-1.6261">
        <ele>74.2</ele>
        <time>2015-11-11T09:51:18Z</time>
      </trkpt>
      <trkpt lat="47.28851" lon="-1.62603">
        <ele>73.9</ele>
        <time>2015-11-11T09:51:25Z</time>
      </trkpt>
      <trkpt lat="47.28858" lon="-1.62598">
        <ele>72.3</ele>
        <time>2015-11-11T09:51:31Z</time>
      </trkpt>
      <trkpt lat="47.28864" lon="-1.6259">
        <ele>71.3</ele>
        <time>2015-11-11T09:51:38Z</time>
      </trkpt>
      <trkpt lat="47.28871" lon="-1.62583">
        <ele>71.7</ele>
        <time>2015-11-11T09:51:45Z</time>
      </trkpt>
      <trkpt lat="47.28878" lon="-1.62578">
        <ele>69.7</ele>
        <time>2015-11-11T09:51:52Z</time>
      </trkpt>
      <trkpt lat="47.28893" lon="-1.62569">
        <ele>67.4</ele>
        <time>2015-11-11T09:52:06Z</time>
      </trkpt>
      <trkpt lat="47.289" lon="-1.62565">
        <ele>66.7</ele>
        <time>2015-11-11T09:52:12Z</time>
      </trkpt>
      <trkpt lat="47.28907" lon="-1.6256">
        <ele>66</ele>
        <time>2015-11-11T09:52:18Z</time>
      </trkpt>
      <trkpt lat="47.28914" lon="-1.62553">
        <ele>65.8</ele>
        <time>2015-11-11T09:52:24Z</time>
      </trkpt>
      <trkpt lat="47.2892" lon="-1.62548">
        <ele>64.9</ele>
        <time>2015-11-11T09:52:30Z</time>
      </trkpt>
      <trkpt lat="47.28927" lon="-1.62544">
        <ele>64.8</ele>
        <time>2015-11-11T09:52:36Z</time>
      </trkpt>
      <trkpt lat="47.28934" lon="-1.62542">
        <ele>64.7</ele>
        <time>2015-11-11T09:52:43Z</time>
      </trkpt>
      <trkpt lat="47.28942" lon="-1.62537">
        <ele>64.1</ele>
        <time>2015-11-11T09:52:50Z</time>
      </trkpt>
      <trkpt lat="47.28949" lon="-1.62533">
        <ele>63</ele>
        <time>2015-11-11T09:52:56Z</time>
      </trkpt>
      <trkpt lat="47.28965" lon="-1.62522">
        <ele>62.3</ele>
        <time>2015-11-11T09:53:07Z</time>
      </trkpt>
      <trkpt lat="47.28972" lon="-1.62516">
        <ele>62.2</ele>
        <time>2015-11-11T09:53:13Z</time>
      </trkpt>
      <trkpt lat="47.28979" lon="-1.62513">
        <ele>61.6</ele>
        <time>2015-11-11T09:53:20Z</time>
      </trkpt>
      <trkpt lat="47.28986" lon="-1.6251">
        <ele>61.6</ele>
        <time>2015-11-11T09:53:25Z</time>
      </trkpt>
      <trkpt lat="47.28994" lon="-1.62507">
        <ele>61.3</ele>
        <time>2015-11-11T09:53:31Z</time>
      </trkpt>
      <trkpt lat="47.29002" lon="-1.62505">
        <ele>60.2</ele>
        <time>2015-11-11T09:53:37Z</time>
      </trkpt>
      <trkpt lat="47.29009" lon="-1.62499">
        <ele>59.1</ele>
        <time>2015-11-11T09:53:44Z</time>
      </trkpt>
      <trkpt lat="47.29014" lon="-1.6249">
        <ele>59</ele>
        <time>2015-11-11T09:53:51Z</time>
      </trkpt>
      <trkpt lat="47.29017" lon="-1.62479">
        <ele>59</ele>
        <time>2015-11-11T09:53:59Z</time>
      </trkpt>
      <trkpt lat="47.29024" lon="-1.62458">
        <ele>59.5</ele>
        <time>2015-11-11T09:54:16Z</time>
      </trkpt>
      <trkpt lat="47.29027" lon="-1.62447">
        <ele>58.8</ele>
        <time>2015-11-11T09:54:22Z</time>
      </trkpt>
      <trkpt lat="47.29031" lon="-1.62436">
        <ele>59.5</ele>
        <time>2015-11-11T09:54:30Z</time>
      </trkpt>
      <trkpt lat="47.29033" lon="-1.62425">
        <ele>60.3</ele>
        <time>2015-11-11T09:54:38Z</time>
      </trkpt>
      <trkpt lat="47.29033" lon="-1.62413">
        <ele>60</ele>
        <time>2015-11-11T09:54:44Z</time>
      </trkpt>
      <trkpt lat="47.29034" lon="-1.62403">
        <ele>61.3</ele>
        <time>2015-11-11T09:54:50Z</time>
      </trkpt>
      <trkpt lat="47.29035" lon="-1.62392">
        <ele>60.5</ele>
        <time>2015-11-11T09:54:56Z</time>
      </trkpt>
      <trkpt lat="47.29036" lon="-1.6238">
        <ele>59.3</ele>
        <time>2015-11-11T09:55:02Z</time>
      </trkpt>
      <trkpt lat="47.29033" lon="-1.62358">
        <ele>60.4</ele>
        <time>2015-11-11T09:55:14Z</time>
      </trkpt>
      <trkpt lat="47.29031" lon="-1.62347">
        <ele>60.7</ele>
        <time>2015-11-11T09:55:21Z</time>
      </trkpt>
      <trkpt lat="47.29027" lon="-1.62338">
        <ele>61.3</ele>
        <time>2015-11-11T09:55:30Z</time>
      </trkpt>
      <trkpt lat="47.29021" lon="-1.62333">
        <ele>63.1</ele>
        <time>2015-11-11T09:55:44Z</time>
      </trkpt>
      <trkpt lat="47.29014" lon="-1.62328">
        <ele>63.8</ele>
        <time>2015-11-11T09:55:51Z</time>
      </trkpt>
      <trkpt lat="47.29007" lon="-1.62324">
        <ele>63.9</ele>
        <time>2015-11-11T09:55:58Z</time>
      </trkpt>
      <trkpt lat="47.28999" lon="-1.6232">
        <ele>63.9</ele>
        <time>2015-11-11T09:56:06Z</time>
      </trkpt>
      <trkpt lat="47.28984" lon="-1.62313">
        <ele>64.2</ele>
        <time>2015-11-11T09:56:18Z</time>
      </trkpt>
      <trkpt lat="47.28977" lon="-1.6231">
        <ele>64</ele>
        <time>2015-11-11T09:56:25Z</time>
      </trkpt>
      <trkpt lat="47.2897" lon="-1.62307">
        <ele>64</ele>
        <time>2015-11-11T09:56:31Z</time>
      </trkpt>
      <trkpt lat="47.28963" lon="-1.62304">
        <ele>63.5</ele>
        <time>2015-11-11T09:56:36Z</time>
      </trkpt>
      <trkpt lat="47.28955" lon="-1.62301">
        <ele>63.8</ele>
        <time>2015-11-11T09:56:42Z</time>
      </trkpt>
      <trkpt lat="47.28947" lon="-1.62298">
        <ele>62.8</ele>
        <time>2015-11-11T09:56:49Z</time>
      </trkpt>
      <trkpt lat="47.2894" lon="-1.62293">
        <ele>63.4</ele>
        <time>2015-11-11T09:56:55Z</time>
      </trkpt>
      <trkpt lat="47.28932" lon="-1.6229">
        <ele>63.2</ele>
        <time>2015-11-11T09:57:01Z</time>
      </trkpt>
      <trkpt lat="47.28925" lon="-1.62284">
        <ele>63.2</ele>
        <time>2015-11-11T09:57:08Z</time>
      </trkpt>
      <trkpt lat="47.28912" lon="-1.62276">
        <ele>62.8</ele>
        <time>2015-11-11T09:57:22Z</time>
      </trkpt>
      <trkpt lat="47.28904" lon="-1.62273">
        <ele>63.1</ele>
        <time>2015-11-11T09:57:28Z</time>
      </trkpt>
      <trkpt lat="47.28897" lon="-1.6227">
        <ele>62.5</ele>
        <time>2015-11-11T09:57:33Z</time>
      </trkpt>
      <trkpt lat="47.28889" lon="-1.62266">
        <ele>62.7</ele>
        <time>2015-11-11T09:57:39Z</time>
      </trkpt>
      <trkpt lat="47.28881" lon="-1.62262">
        <ele>63.3</ele>
        <time>2015-11-11T09:57:45Z</time>
      </trkpt>
      <trkpt lat="47.28873" lon="-1.62258">
        <ele>62.9</ele>
        <time>2015-11-11T09:57:51Z</time>
      </trkpt>
      <trkpt lat="47.28866" lon="-1.62255">
        <ele>63.2</ele>
        <time>2015-11-11T09:57:57Z</time>
      </trkpt>
      <trkpt lat="47.28859" lon="-1.6225">
        <ele>63</ele>
        <time>2015-11-11T09:58:04Z</time>
      </trkpt>
      <trkpt lat="47.28852" lon="-1.62245">
        <ele>62.3</ele>
        <time>2015-11-11T09:58:13Z</time>
      </trkpt>
      <trkpt lat="47.28838" lon="-1.62239">
        <ele>62.1</ele>
        <time>2015-11-11T09:58:24Z</time>
      </trkpt>
      <trkpt lat="47.2883" lon="-1.62235">
        <ele>61.5</ele>
        <time>2015-11-11T09:58:29Z</time>
      </trkpt>
      <trkpt lat="47.28823" lon="-1.62232">
        <ele>61.9</ele>
        <time>2015-11-11T09:58:34Z</time>
      </trkpt>
      <trkpt lat="47.28815" lon="-1.62228">
        <ele>61.7</ele>
        <time>2015-11-11T09:58:39Z</time>
      </trkpt>
      <trkpt lat="47.28807" lon="-1.62225">
        <ele>61.2</ele>
        <time>2015-11-11T09:58:43Z</time>
      </trkpt>
      <trkpt lat="47.28803" lon="-1.62217">
        <ele>60.4</ele>
        <time>2015-11-11T09:58:48Z</time>
      </trkpt>
      <trkpt lat="47.28802" lon="-1.62206">
        <ele>59.9</ele>
        <time>2015-11-11T09:58:55Z</time>
      </trkpt>
      <trkpt lat="47.28801" lon="-1.62195">
        <ele>59.2</ele>
        <time>2015-11-11T09:59:02Z</time>
      </trkpt>
      <trkpt lat="47.28801" lon="-1.62184">
        <ele>58.5</ele>
        <time>2015-11-11T09:59:10Z</time>
      </trkpt>
      <trkpt lat="47.28803" lon="-1.62172">
        <ele>58.6</ele>
        <time>2015-11-11T09:59:17Z</time>
      </trkpt>
      <trkpt lat="47.28807" lon="-1.6215">
        <ele>57.1</ele>
        <time>2015-11-11T09:59:31Z</time>
      </trkpt>
      <trkpt lat="47.28808" lon="-1.62139">
        <ele>57.6</ele>
        <time>2015-11-11T09:59:37Z</time>
      </trkpt>
      <trkpt lat="47.28809" lon="-1.62127">
        <ele>57.6</ele>
        <time>2015-11-11T09:59:44Z</time>
      </trkpt>
      <trkpt lat="47.28813" lon="-1.62115">
        <ele>57.4</ele>
        <time>2015-11-11T09:59:50Z</time>
      </trkpt>
      <trkpt lat="47.28817" lon="-1.62106">
        <ele>56.9</ele>
        <time>2015-11-11T09:59:55Z</time>
      </trkpt>
      <trkpt lat="47.28821" lon="-1.62095">
        <ele>57</ele>
        <time>2015-11-11T10:00:01Z</time>
      </trkpt>
      <trkpt lat="47.28824" lon="-1.62085">
        <ele>57.1</ele>
        <time>2015-11-11T10:00:08Z</time>
      </trkpt>
      <trkpt lat="47.28831" lon="-1.62078">
        <ele>56.9</ele>
        <time>2015-11-11T10:00:16Z</time>
      </trkpt>
      <trkpt lat="47.28838" lon="-1.62072">
        <ele>57.1</ele>
        <time>2015-11-11T10:00:22Z</time>
      </trkpt>
      <trkpt lat="47.28851" lon="-1.6206">
        <ele>57.8</ele>
        <time>2015-11-11T10:00:35Z</time>
      </trkpt>
      <trkpt lat="47.28855" lon="-1.6205">
        <ele>59.3</ele>
        <time>2015-11-11T10:00:43Z</time>
      </trkpt>
      <trkpt lat="47.28861" lon="-1.62042">
        <ele>59.2</ele>
        <time>2015-11-11T10:00:50Z</time>
      </trkpt>
      <trkpt lat="47.28869" lon="-1.62038">
        <ele>60.8</ele>
        <time>2015-11-11T10:00:57Z</time>
      </trkpt>
      <trkpt lat="47.28877" lon="-1.62035">
        <ele>60.3</ele>
        <time>2015-11-11T10:01:04Z</time>
      </trkpt>
      <trkpt lat="47.28884" lon="-1.62031">
        <ele>61.2</ele>
        <time>2015-11-11T10:01:11Z</time>
      </trkpt>
      <trkpt lat="47.28891" lon="-1.62027">
        <ele>62.6</ele>
        <time>2015-11-11T10:01:17Z</time>
      </trkpt>
      <trkpt lat="47.289" lon="-1.62025">
        <ele>63.4</ele>
        <time>2015-11-11T10:01:23Z</time>
      </trkpt>
      <trkpt lat="47.28915" lon="-1.62022">
        <ele>64.3</ele>
        <time>2015-11-11T10:01:37Z</time>
      </trkpt>
      <trkpt lat="47.28922" lon="-1.62021">
        <ele>65.2</ele>
        <time>2015-11-11T10:01:43Z</time>
      </trkpt>
      <trkpt lat="47.2893" lon="-1.62019">
        <ele>66.2</ele>
        <time>2015-11-11T10:01:50Z</time>
      </trkpt>
      <trkpt lat="47.28937" lon="-1.62016">
        <ele>66.5</ele>
        <time>2015-11-11T10:01:56Z</time>
      </trkpt>
      <trkpt lat="47.28946" lon="-1.62013">
        <ele>66.6</ele>
        <time>2015-11-11T10:02:03Z</time>
      </trkpt>
      <trkpt lat="47.28953" lon="-1.62011">
        <ele>67.8</ele>
        <time>2015-11-11T10:02:10Z</time>
      </trkpt>
      <trkpt lat="47.2896" lon="-1.62009">
        <ele>67.8</ele>
        <time>2015-11-11T10:02:16Z</time>
      </trkpt>
      <trkpt lat="47.28968" lon="-1.62007">
        <ele>68.3</ele>
        <time>2015-11-11T10:02:22Z</time>
      </trkpt>
      <trkpt lat="47.28975" lon="-1.62006">
        <ele>69.1</ele>
        <time>2015-11-11T10:02:28Z</time>
      </trkpt>
      <trkpt lat="47.2899" lon="-1.61999">
        <ele>70.2</ele>
        <time>2015-11-11T10:02:39Z</time>
      </trkpt>
      <trkpt lat="47.28997" lon="-1.61996">
        <ele>70.1</ele>
        <time>2015-11-11T10:02:46Z</time>
      </trkpt>
      <trkpt lat="47.29005" lon="-1.61991">
        <ele>70.3</ele>
        <time>2015-11-11T10:02:52Z</time>
      </trkpt>
      <trkpt lat="47.29012" lon="-1.61986">
        <ele>71.4</ele>
        <time>2015-11-11T10:02:59Z</time>
      </trkpt>
      <trkpt lat="47.2902" lon="-1.61981">
        <ele>71.5</ele>
        <time>2015-11-11T10:03:05Z</time>
      </trkpt>
      <trkpt lat="47.29028" lon="-1.61976">
        <ele>71.7</ele>
        <time>2015-11-11T10:03:13Z</time>
      </trkpt>
      <trkpt lat="47.29034" lon="-1.6197">
        <ele>72.5</ele>
        <time>2015-11-11T10:03:19Z</time>
      </trkpt>
      <trkpt lat="47.29041" lon="-1.61965">
        <ele>72.6</ele>
        <time>2015-11-11T10:03:25Z</time>
      </trkpt>
      <trkpt lat="47.29048" lon="-1.61959">
        <ele>73</ele>
        <time>2015-11-11T10:03:31Z</time>
      </trkpt>
      <trkpt lat="47.29061" lon="-1.61947">
        <ele>73.5</ele>
        <time>2015-11-11T10:03:47Z</time>
      </trkpt>
      <trkpt lat="47.29066" lon="-1.61939">
        <ele>74.1</ele>
        <time>2015-11-11T10:03:55Z</time>
      </trkpt>
      <trkpt lat="47.29069" lon="-1.61928">
        <ele>73.1</ele>
        <time>2015-11-11T10:04:03Z</time>
      </trkpt>
      <trkpt lat="47.29072" lon="-1.61917">
        <ele>74.1</ele>
        <time>2015-11-11T10:04:11Z</time>
      </trkpt>
      <trkpt lat="47.29072" lon="-1.61906">
        <ele>75.3</ele>
        <time>2015-11-11T10:04:20Z</time>
      </trkpt>
      <trkpt lat="47.29074" lon="-1.61894">
        <ele>76.2</ele>
        <time>2015-11-11T10:04:28Z</time>
      </trkpt>
      <trkpt lat="47.29077" lon="-1.61883">
        <ele>77.4</ele>
        <time>2015-11-11T10:04:35Z</time>
      </trkpt>
      <trkpt lat="47.29083" lon="-1.6186">
        <ele>78.5</ele>
        <time>2015-11-11T10:04:48Z</time>
      </trkpt>
      <trkpt lat="47.29085" lon="-1.6185">
        <ele>77.6</ele>
        <time>2015-11-11T10:04:54Z</time>
      </trkpt>
      <trkpt lat="47.29088" lon="-1.6184">
        <ele>78.9</ele>
        <time>2015-11-11T10:05:00Z</time>
      </trkpt>
      <trkpt lat="47.29091" lon="-1.61828">
        <ele>79.8</ele>
        <time>2015-11-11T10:05:07Z</time>
      </trkpt>
      <trkpt lat="47.29093" lon="-1.61817">
        <ele>80.1</ele>
        <time>2015-11-11T10:05:13Z</time>
      </trkpt>
      <trkpt lat="47.29096" lon="-1.61805">
        <ele>80.1</ele>
        <time>2015-11-11T10:05:19Z</time>
      </trkpt>
      <trkpt lat="47.29101" lon="-1.61796">
        <ele>80.8</ele>
        <time>2015-11-11T10:05:24Z</time>
      </trkpt>
      <trkpt lat="47.29106" lon="-1.61787">
        <ele>80.3</ele>
        <time>2015-11-11T10:05:29Z</time>
      </trkpt>
      <trkpt lat="47.2911" lon="-1.61778">
        <ele>80.2</ele>
        <time>2015-11-11T10:05:34Z</time>
      </trkpt>
      <trkpt lat="47.29115" lon="-1.6177">
        <ele>80.6</ele>
        <time>2015-11-11T10:05:42Z</time>
      </trkpt>
      <trkpt lat="47.29121" lon="-1.61749">
        <ele>80.5</ele>
        <time>2015-11-11T10:06:15Z</time>
      </trkpt>
      <trkpt lat="47.29125" lon="-1.6174">
        <ele>79.8</ele>
        <time>2015-11-11T10:06:21Z</time>
      </trkpt>
      <trkpt lat="47.29128" lon="-1.61728">
        <ele>79.9</ele>
        <time>2015-11-11T10:06:28Z</time>
      </trkpt>
      <trkpt lat="47.29131" lon="-1.61717">
        <ele>80.1</ele>
        <time>2015-11-11T10:06:34Z</time>
      </trkpt>
      <trkpt lat="47.29134" lon="-1.61706">
        <ele>80</ele>
        <time>2015-11-11T10:06:40Z</time>
      </trkpt>
      <trkpt lat="47.29137" lon="-1.61696">
        <ele>79.8</ele>
        <time>2015-11-11T10:06:46Z</time>
      </trkpt>
      <trkpt lat="47.29145" lon="-1.61674">
        <ele>78.6</ele>
        <time>2015-11-11T10:06:58Z</time>
      </trkpt>
      <trkpt lat="47.29149" lon="-1.61666">
        <ele>78.6</ele>
        <time>2015-11-11T10:07:03Z</time>
      </trkpt>
      <trkpt lat="47.29156" lon="-1.61657">
        <ele>78</ele>
        <time>2015-11-11T10:07:09Z</time>
      </trkpt>
      <trkpt lat="47.29162" lon="-1.6165">
        <ele>77.2</ele>
        <time>2015-11-11T10:07:14Z</time>
      </trkpt>
      <trkpt lat="47.29169" lon="-1.61644">
        <ele>75.9</ele>
        <time>2015-11-11T10:07:20Z</time>
      </trkpt>
      <trkpt lat="47.29176" lon="-1.61636">
        <ele>76.2</ele>
        <time>2015-11-11T10:07:26Z</time>
      </trkpt>
      <trkpt lat="47.29182" lon="-1.61629">
        <ele>76.3</ele>
        <time>2015-11-11T10:07:32Z</time>
      </trkpt>
      <trkpt lat="47.29188" lon="-1.61622">
        <ele>75.5</ele>
        <time>2015-11-11T10:07:38Z</time>
      </trkpt>
      <trkpt lat="47.29193" lon="-1.61615">
        <ele>75.2</ele>
        <time>2015-11-11T10:07:44Z</time>
      </trkpt>
      <trkpt lat="47.29199" lon="-1.61606">
        <ele>74.7</ele>
        <time>2015-11-11T10:07:50Z</time>
      </trkpt>
      <trkpt lat="47.29212" lon="-1.61589">
        <ele>74.5</ele>
        <time>2015-11-11T10:08:02Z</time>
      </trkpt>
      <trkpt lat="47.29217" lon="-1.6158">
        <ele>74.4</ele>
        <time>2015-11-11T10:08:08Z</time>
      </trkpt>
      <trkpt lat="47.29223" lon="-1.61572">
        <ele>74.7</ele>
        <time>2015-11-11T10:08:13Z</time>
      </trkpt>
      <trkpt lat="47.29228" lon="-1.61564">
        <ele>74.3</ele>
        <time>2015-11-11T10:08:18Z</time>
      </trkpt>
      <trkpt lat="47.29234" lon="-1.61557">
        <ele>74</ele>
        <time>2015-11-11T10:08:24Z</time>
      </trkpt>
      <trkpt lat="47.29239" lon="-1.61549">
        <ele>74.4</ele>
        <time>2015-11-11T10:08:29Z</time>
      </trkpt>
      <trkpt lat="47.29244" lon="-1.6154">
        <ele>75.2</ele>
        <time>2015-11-11T10:08:35Z</time>
      </trkpt>
      <trkpt lat="47.2925" lon="-1.61532">
        <ele>73.9</ele>
        <time>2015-11-11T10:08:40Z</time>
      </trkpt>
      <trkpt lat="47.29256" lon="-1.61525">
        <ele>74.4</ele>
        <time>2015-11-11T10:08:45Z</time>
      </trkpt>
      <trkpt lat="47.29261" lon="-1.61515">
        <ele>74.7</ele>
        <time>2015-11-11T10:08:51Z</time>
      </trkpt>
      <trkpt lat="47.29264" lon="-1.61504">
        <ele>74.7</ele>
        <time>2015-11-11T10:08:57Z</time>
      </trkpt>
      <trkpt lat="47.29258" lon="-1.61483">
        <ele>74.1</ele>
        <time>2015-11-11T10:09:11Z</time>
      </trkpt>
      <trkpt lat="47.29254" lon="-1.61473">
        <ele>74.4</ele>
        <time>2015-11-11T10:09:18Z</time>
      </trkpt>
      <trkpt lat="47.2925" lon="-1.61462">
        <ele>74.3</ele>
        <time>2015-11-11T10:09:25Z</time>
      </trkpt>
      <trkpt lat="47.29246" lon="-1.61452">
        <ele>74.5</ele>
        <time>2015-11-11T10:09:31Z</time>
      </trkpt>
      <trkpt lat="47.29241" lon="-1.61442">
        <ele>74</ele>
        <time>2015-11-11T10:09:38Z</time>
      </trkpt>
      <trkpt lat="47.29237" lon="-1.61433">
        <ele>74.1</ele>
        <time>2015-11-11T10:09:44Z</time>
      </trkpt>
      <trkpt lat="47.29232" lon="-1.61424">
        <ele>74.1</ele>
        <time>2015-11-11T10:09:51Z</time>
      </trkpt>
      <trkpt lat="47.29227" lon="-1.61414">
        <ele>73.8</ele>
        <time>2015-11-11T10:09:57Z</time>
      </trkpt>
      <trkpt lat="47.29222" lon="-1.61403">
        <ele>73</ele>
        <time>2015-11-11T10:10:03Z</time>
      </trkpt>
      <trkpt lat="47.29213" lon="-1.61386">
        <ele>73.8</ele>
        <time>2015-11-11T10:10:14Z</time>
      </trkpt>
      <trkpt lat="47.29208" lon="-1.61378">
        <ele>73</ele>
        <time>2015-11-11T10:10:20Z</time>
      </trkpt>
      <trkpt lat="47.29202" lon="-1.61369">
        <ele>73.5</ele>
        <time>2015-11-11T10:10:26Z</time>
      </trkpt>
      <trkpt lat="47.29197" lon="-1.6136">
        <ele>72.6</ele>
        <time>2015-11-11T10:10:32Z</time>
      </trkpt>
      <trkpt lat="47.29192" lon="-1.61349">
        <ele>72.4</ele>
        <time>2015-11-11T10:10:38Z</time>
      </trkpt>
      <trkpt lat="47.29188" lon="-1.61339">
        <ele>73</ele>
        <time>2015-11-11T10:10:43Z</time>
      </trkpt>
      <trkpt lat="47.29185" lon="-1.61328">
        <ele>72.9</ele>
        <time>2015-11-11T10:10:49Z</time>
      </trkpt>
      <trkpt lat="47.29181" lon="-1.61318">
        <ele>72.7</ele>
        <time>2015-11-11T10:10:55Z</time>
      </trkpt>
      <trkpt lat="47.29177" lon="-1.61308">
        <ele>73.1</ele>
        <time>2015-11-11T10:11:00Z</time>
      </trkpt>
      <trkpt lat="47.29172" lon="-1.61299">
        <ele>73.1</ele>
        <time>2015-11-11T10:11:05Z</time>
      </trkpt>
      <trkpt lat="47.29164" lon="-1.61282">
        <ele>74.1</ele>
        <time>2015-11-11T10:11:15Z</time>
      </trkpt>
      <trkpt lat="47.2916" lon="-1.61273">
        <ele>74.1</ele>
        <time>2015-11-11T10:11:20Z</time>
      </trkpt>
      <trkpt lat="47.29156" lon="-1.61264">
        <ele>73.7</ele>
        <time>2015-11-11T10:11:25Z</time>
      </trkpt>
      <trkpt lat="47.29151" lon="-1.61254">
        <ele>75.3</ele>
        <time>2015-11-11T10:11:31Z</time>
      </trkpt>
      <trkpt lat="47.29146" lon="-1.61244">
        <ele>74.7</ele>
        <time>2015-11-11T10:11:37Z</time>
      </trkpt>
      <trkpt lat="47.29142" lon="-1.61234">
        <ele>74.8</ele>
        <time>2015-11-11T10:11:43Z</time>
      </trkpt>
      <trkpt lat="47.29137" lon="-1.61225">
        <ele>74.5</ele>
        <time>2015-11-11T10:11:49Z</time>
      </trkpt>
      <trkpt lat="47.29132" lon="-1.61217">
        <ele>74.9</ele>
        <time>2015-11-11T10:11:54Z</time>
      </trkpt>
      <trkpt lat="47.29128" lon="-1.61207">
        <ele>75.3</ele>
        <time>2015-11-11T10:12:00Z</time>
      </trkpt>
      <trkpt lat="47.29123" lon="-1.61196">
        <ele>75</ele>
        <time>2015-11-11T10:12:06Z</time>
      </trkpt>
      <trkpt lat="47.29115" lon="-1.61176">
        <ele>75</ele>
        <time>2015-11-11T10:12:18Z</time>
      </trkpt>
      <trkpt lat="47.2911" lon="-1.61167">
        <ele>75</ele>
        <time>2015-11-11T10:12:24Z</time>
      </trkpt>
      <trkpt lat="47.29104" lon="-1.61159">
        <ele>75.6</ele>
        <time>2015-11-11T10:12:30Z</time>
      </trkpt>
      <trkpt lat="47.29099" lon="-1.6115">
        <ele>76.4</ele>
        <time>2015-11-11T10:12:37Z</time>
      </trkpt>
      <trkpt lat="47.29093" lon="-1.61144">
        <ele>76.3</ele>
        <time>2015-11-11T10:12:43Z</time>
      </trkpt>
      <trkpt lat="47.29087" lon="-1.61138">
        <ele>76.7</ele>
        <time>2015-11-11T10:12:49Z</time>
      </trkpt>
      <trkpt lat="47.2908" lon="-1.61132">
        <ele>76.5</ele>
        <time>2015-11-11T10:12:56Z</time>
      </trkpt>
      <trkpt lat="47.29073" lon="-1.61128">
        <ele>76.4</ele>
        <time>2015-11-11T10:13:03Z</time>
      </trkpt>
      <trkpt lat="47.29068" lon="-1.61137">
        <ele>76.1</ele>
        <time>2015-11-11T10:13:13Z</time>
      </trkpt>
      <trkpt lat="47.29061" lon="-1.61157">
        <ele>75.1</ele>
        <time>2015-11-11T10:13:28Z</time>
      </trkpt>
      <trkpt lat="47.29058" lon="-1.61167">
        <ele>75.2</ele>
        <time>2015-11-11T10:13:34Z</time>
      </trkpt>
      <trkpt lat="47.29054" lon="-1.61177">
        <ele>75.2</ele>
        <time>2015-11-11T10:13:40Z</time>
      </trkpt>
      <trkpt lat="47.2905" lon="-1.61187">
        <ele>74.2</ele>
        <time>2015-11-11T10:13:47Z</time>
      </trkpt>
      <trkpt lat="47.29044" lon="-1.61195">
        <ele>73.9</ele>
        <time>2015-11-11T10:13:53Z</time>
      </trkpt>
      <trkpt lat="47.29038" lon="-1.61203">
        <ele>73.9</ele>
        <time>2015-11-11T10:13:59Z</time>
      </trkpt>
      <trkpt lat="47.29032" lon="-1.6121">
        <ele>73.8</ele>
        <time>2015-11-11T10:14:05Z</time>
      </trkpt>
      <trkpt lat="47.29027" lon="-1.61218">
        <ele>73.5</ele>
        <time>2015-11-11T10:14:11Z</time>
      </trkpt>
      <trkpt lat="47.29022" lon="-1.61227">
        <ele>73.3</ele>
        <time>2015-11-11T10:14:17Z</time>
      </trkpt>
      <trkpt lat="47.29009" lon="-1.61242">
        <ele>73.9</ele>
        <time>2015-11-11T10:14:29Z</time>
      </trkpt>
      <trkpt lat="47.29004" lon="-1.61249">
        <ele>73.8</ele>
        <time>2015-11-11T10:14:35Z</time>
      </trkpt>
      <trkpt lat="47.28998" lon="-1.61257">
        <ele>73.8</ele>
        <time>2015-11-11T10:14:41Z</time>
      </trkpt>
      <trkpt lat="47.28992" lon="-1.61264">
        <ele>74.6</ele>
        <time>2015-11-11T10:14:47Z</time>
      </trkpt>
      <trkpt lat="47.28986" lon="-1.61272">
        <ele>74.5</ele>
        <time>2015-11-11T10:14:53Z</time>
      </trkpt>
      <trkpt lat="47.2898" lon="-1.61279">
        <ele>75</ele>
        <time>2015-11-11T10:14:59Z</time>
      </trkpt>
      <trkpt lat="47.28974" lon="-1.61285">
        <ele>74.7</ele>
        <time>2015-11-11T10:15:04Z</time>
      </trkpt>
      <trkpt lat="47.28967" lon="-1.6129">
        <ele>76</ele>
        <time>2015-11-11T10:15:10Z</time>
      </trkpt>
      <trkpt lat="47.28961" lon="-1.61295">
        <ele>76</ele>
        <time>2015-11-11T10:15:16Z</time>
      </trkpt>
      <trkpt lat="47.28953" lon="-1.61298">
        <ele>75.3</ele>
        <time>2015-11-11T10:15:22Z</time>
      </trkpt>
      <trkpt lat="47.28939" lon="-1.61306">
        <ele>75.7</ele>
        <time>2015-11-11T10:15:33Z</time>
      </trkpt>
      <trkpt lat="47.28932" lon="-1.61311">
        <ele>76.4</ele>
        <time>2015-11-11T10:15:38Z</time>
      </trkpt>
      <trkpt lat="47.28925" lon="-1.61316">
        <ele>77.3</ele>
        <time>2015-11-11T10:15:44Z</time>
      </trkpt>
      <trkpt lat="47.28918" lon="-1.61321">
        <ele>77.1</ele>
        <time>2015-11-11T10:15:50Z</time>
      </trkpt>
      <trkpt lat="47.28911" lon="-1.61327">
        <ele>77.2</ele>
        <time>2015-11-11T10:15:56Z</time>
      </trkpt>
      <trkpt lat="47.28904" lon="-1.61331">
        <ele>77.9</ele>
        <time>2015-11-11T10:16:02Z</time>
      </trkpt>
      <trkpt lat="47.28897" lon="-1.61336">
        <ele>77.5</ele>
        <time>2015-11-11T10:16:08Z</time>
      </trkpt>
      <trkpt lat="47.2889" lon="-1.6134">
        <ele>78.2</ele>
        <time>2015-11-11T10:16:14Z</time>
      </trkpt>
      <trkpt lat="47.28882" lon="-1.61344">
        <ele>77.2</ele>
        <time>2015-11-11T10:16:20Z</time>
      </trkpt>
      <trkpt lat="47.28874" lon="-1.61347">
        <ele>77.1</ele>
        <time>2015-11-11T10:16:26Z</time>
      </trkpt>
      <trkpt lat="47.28858" lon="-1.61352">
        <ele>77.6</ele>
        <time>2015-11-11T10:16:38Z</time>
      </trkpt>
      <trkpt lat="47.2885" lon="-1.61354">
        <ele>77</ele>
        <time>2015-11-11T10:16:44Z</time>
      </trkpt>
      <trkpt lat="47.28842" lon="-1.61355">
        <ele>78.1</ele>
        <time>2015-11-11T10:16:50Z</time>
      </trkpt>
      <trkpt lat="47.28833" lon="-1.61355">
        <ele>77.7</ele>
        <time>2015-11-11T10:16:56Z</time>
      </trkpt>
      <trkpt lat="47.28826" lon="-1.61357">
        <ele>77.9</ele>
        <time>2015-11-11T10:17:01Z</time>
      </trkpt>
      <trkpt lat="47.28818" lon="-1.61357">
        <ele>78.1</ele>
        <time>2015-11-11T10:17:07Z</time>
      </trkpt>
      <trkpt lat="47.28811" lon="-1.61358">
        <ele>78.4</ele>
        <time>2015-11-11T10:17:12Z</time>
      </trkpt>
      <trkpt lat="47.28804" lon="-1.61359">
        <ele>77.7</ele>
        <time>2015-11-11T10:17:17Z</time>
      </trkpt>
      <trkpt lat="47.28796" lon="-1.61361">
        <ele>77.7</ele>
        <time>2015-11-11T10:17:23Z</time>
      </trkpt>
      <trkpt lat="47.28789" lon="-1.61362">
        <ele>77.9</ele>
        <time>2015-11-11T10:17:29Z</time>
      </trkpt>
      <trkpt lat="47.28774" lon="-1.61362">
        <ele>77.1</ele>
        <time>2015-11-11T10:17:40Z</time>
      </trkpt>
      <trkpt lat="47.28766" lon="-1.6136">
        <ele>77</ele>
        <time>2015-11-11T10:17:46Z</time>
      </trkpt>
      <trkpt lat="47.28758" lon="-1.6136">
        <ele>77.7</ele>
        <time>2015-11-11T10:17:52Z</time>
      </trkpt>
      <trkpt lat="47.2875" lon="-1.61365">
        <ele>77.5</ele>
        <time>2015-11-11T10:17:58Z</time>
      </trkpt>
      <trkpt lat="47.28744" lon="-1.61373">
        <ele>77.3</ele>
        <time>2015-11-11T10:18:04Z</time>
      </trkpt>
      <trkpt lat="47.28738" lon="-1.6138">
        <ele>77.5</ele>
        <time>2015-11-11T10:18:10Z</time>
      </trkpt>
      <trkpt lat="47.28732" lon="-1.61387">
        <ele>77.5</ele>
        <time>2015-11-11T10:18:15Z</time>
      </trkpt>
      <trkpt lat="47.28726" lon="-1.61393">
        <ele>77.4</ele>
        <time>2015-11-11T10:18:20Z</time>
      </trkpt>
      <trkpt lat="47.2872" lon="-1.61401">
        <ele>76.8</ele>
        <time>2015-11-11T10:18:26Z</time>
      </trkpt>
      <trkpt lat="47.28714" lon="-1.61407">
        <ele>76.9</ele>
        <time>2015-11-11T10:18:32Z</time>
      </trkpt>
      <trkpt lat="47.28721" lon="-1.61427">
        <ele>75.9</ele>
        <time>2015-11-11T10:18:49Z</time>
      </trkpt>
      <trkpt lat="47.28726" lon="-1.61436">
        <ele>75.2</ele>
        <time>2015-11-11T10:18:56Z</time>
      </trkpt>
      <trkpt lat="47.28732" lon="-1.61444">
        <ele>75.5</ele>
        <time>2015-11-11T10:19:03Z</time>
      </trkpt>
      <trkpt lat="47.28738" lon="-1.61452">
        <ele>74.7</ele>
        <time>2015-11-11T10:19:10Z</time>
      </trkpt>
      <trkpt lat="47.28743" lon="-1.61461">
        <ele>73.7</ele>
        <time>2015-11-11T10:19:16Z</time>
      </trkpt>
      <trkpt lat="47.28749" lon="-1.61469">
        <ele>72</ele>
        <time>2015-11-11T10:19:23Z</time>
      </trkpt>
      <trkpt lat="47.28755" lon="-1.61476">
        <ele>71.8</ele>
        <time>2015-11-11T10:19:29Z</time>
      </trkpt>
      <trkpt lat="47.28761" lon="-1.61484">
        <ele>70.8</ele>
        <time>2015-11-11T10:19:35Z</time>
      </trkpt>
      <trkpt lat="47.28772" lon="-1.615">
        <ele>70.1</ele>
        <time>2015-11-11T10:19:48Z</time>
      </trkpt>
      <trkpt lat="47.28779" lon="-1.61506">
        <ele>69.2</ele>
        <time>2015-11-11T10:19:54Z</time>
      </trkpt>
      <trkpt lat="47.28786" lon="-1.61514">
        <ele>69.1</ele>
        <time>2015-11-11T10:20:00Z</time>
      </trkpt>
      <trkpt lat="47.28792" lon="-1.61522">
        <ele>68.9</ele>
        <time>2015-11-11T10:20:06Z</time>
      </trkpt>
      <trkpt lat="47.28797" lon="-1.6153">
        <ele>68.4</ele>
        <time>2015-11-11T10:20:12Z</time>
      </trkpt>
      <trkpt lat="47.28802" lon="-1.61537">
        <ele>68.7</ele>
        <time>2015-11-11T10:20:18Z</time>
      </trkpt>
      <trkpt lat="47.28809" lon="-1.61543">
        <ele>67.6</ele>
        <time>2015-11-11T10:20:24Z</time>
      </trkpt>
      <trkpt lat="47.28815" lon="-1.6155">
        <ele>67.7</ele>
        <time>2015-11-11T10:20:30Z</time>
      </trkpt>
      <trkpt lat="47.2882" lon="-1.61558">
        <ele>67.1</ele>
        <time>2015-11-11T10:20:36Z</time>
      </trkpt>
      <trkpt lat="47.28835" lon="-1.61571">
        <ele>65</ele>
        <time>2015-11-11T10:20:48Z</time>
      </trkpt>
      <trkpt lat="47.28842" lon="-1.61575">
        <ele>66.4</ele>
        <time>2015-11-11T10:20:53Z</time>
      </trkpt>
      <trkpt lat="47.28848" lon="-1.61583">
        <ele>65.7</ele>
        <time>2015-11-11T10:20:59Z</time>
      </trkpt>
      <trkpt lat="47.28853" lon="-1.6159">
        <ele>64.5</ele>
        <time>2015-11-11T10:21:05Z</time>
      </trkpt>
      <trkpt lat="47.28859" lon="-1.61599">
        <ele>64.6</ele>
        <time>2015-11-11T10:21:11Z</time>
      </trkpt>
      <trkpt lat="47.28864" lon="-1.61608">
        <ele>64.2</ele>
        <time>2015-11-11T10:21:16Z</time>
      </trkpt>
      <trkpt lat="47.28868" lon="-1.61617">
        <ele>64.1</ele>
        <time>2015-11-11T10:21:21Z</time>
      </trkpt>
      <trkpt lat="47.28874" lon="-1.61625">
        <ele>65.1</ele>
        <time>2015-11-11T10:21:27Z</time>
      </trkpt>
      <trkpt lat="47.2888" lon="-1.61633">
        <ele>65.5</ele>
        <time>2015-11-11T10:21:33Z</time>
      </trkpt>
      <trkpt lat="47.28886" lon="-1.61641">
        <ele>65.8</ele>
        <time>2015-11-11T10:21:39Z</time>
      </trkpt>
      <trkpt lat="47.28896" lon="-1.61657">
        <ele>67.2</ele>
        <time>2015-11-11T10:21:51Z</time>
      </trkpt>
      <trkpt lat="47.28902" lon="-1.61666">
        <ele>67.5</ele>
        <time>2015-11-11T10:21:58Z</time>
      </trkpt>
      <trkpt lat="47.28907" lon="-1.61675">
        <ele>68</ele>
        <time>2015-11-11T10:22:04Z</time>
      </trkpt>
      <trkpt lat="47.28912" lon="-1.61683">
        <ele>69.1</ele>
        <time>2015-11-11T10:22:10Z</time>
      </trkpt>
      <trkpt lat="47.28917" lon="-1.61692">
        <ele>69.6</ele>
        <time>2015-11-11T10:22:16Z</time>
      </trkpt>
      <trkpt lat="47.28922" lon="-1.617">
        <ele>70</ele>
        <time>2015-11-11T10:22:22Z</time>
      </trkpt>
      <trkpt lat="47.28928" lon="-1.61709">
        <ele>70.5</ele>
        <time>2015-11-11T10:22:29Z</time>
      </trkpt>
      <trkpt lat="47.28933" lon="-1.61717">
        <ele>70.9</ele>
        <time>2015-11-11T10:22:35Z</time>
      </trkpt>
      <trkpt lat="47.28939" lon="-1.61725">
        <ele>71.8</ele>
        <time>2015-11-11T10:22:42Z</time>
      </trkpt>
      <trkpt lat="47.28951" lon="-1.61741">
        <ele>71.6</ele>
        <time>2015-11-11T10:22:55Z</time>
      </trkpt>
      <trkpt lat="47.28957" lon="-1.61749">
        <ele>72.8</ele>
        <time>2015-11-11T10:23:02Z</time>
      </trkpt>
      <trkpt lat="47.28962" lon="-1.61757">
        <ele>73.6</ele>
        <time>2015-11-11T10:23:08Z</time>
      </trkpt>
      <trkpt lat="47.28967" lon="-1.61764">
        <ele>73.4</ele>
        <time>2015-11-11T10:23:13Z</time>
      </trkpt>
      <trkpt lat="47.28972" lon="-1.61774">
        <ele>74.6</ele>
        <time>2015-11-11T10:23:20Z</time>
      </trkpt>
      <trkpt lat="47.28977" lon="-1.61783">
        <ele>74.1</ele>
        <time>2015-11-11T10:23:26Z</time>
      </trkpt>
      <trkpt lat="47.28981" lon="-1.61793">
        <ele>74.7</ele>
        <time>2015-11-11T10:23:33Z</time>
      </trkpt>
      <trkpt lat="47.28986" lon="-1.61804">
        <ele>74.7</ele>
        <time>2015-11-11T10:23:40Z</time>
      </trkpt>
      <trkpt lat="47.2899" lon="-1.61814">
        <ele>75.4</ele>
        <time>2015-11-11T10:23:46Z</time>
      </trkpt>
      <trkpt lat="47.29001" lon="-1.6183">
        <ele>74.8</ele>
        <time>2015-11-11T10:23:58Z</time>
      </trkpt>
      <trkpt lat="47.29006" lon="-1.61839">
        <ele>75.5</ele>
        <time>2015-11-11T10:24:04Z</time>
      </trkpt>
      <trkpt lat="47.2901" lon="-1.61848">
        <ele>75.4</ele>
        <time>2015-11-11T10:24:10Z</time>
      </trkpt>
      <trkpt lat="47.29015" lon="-1.61856">
        <ele>75.1</ele>
        <time>2015-11-11T10:24:16Z</time>
      </trkpt>
      <trkpt lat="47.29021" lon="-1.61865">
        <ele>75.2</ele>
        <time>2015-11-11T10:24:22Z</time>
      </trkpt>
      <trkpt lat="47.29026" lon="-1.61873">
        <ele>75.2</ele>
        <time>2015-11-11T10:24:27Z</time>
      </trkpt>
      <trkpt lat="47.29032" lon="-1.61882">
        <ele>75.1</ele>
        <time>2015-11-11T10:24:32Z</time>
      </trkpt>
      <trkpt lat="47.29038" lon="-1.6189">
        <ele>74.8</ele>
        <time>2015-11-11T10:24:37Z</time>
      </trkpt>
      <trkpt lat="47.29043" lon="-1.61899">
        <ele>74.3</ele>
        <time>2015-11-11T10:24:43Z</time>
      </trkpt>
      <trkpt lat="47.29048" lon="-1.61909">
        <ele>73.9</ele>
        <time>2015-11-11T10:24:49Z</time>
      </trkpt>
      <trkpt lat="47.29059" lon="-1.61927">
        <ele>73.3</ele>
        <time>2015-11-11T10:25:01Z</time>
      </trkpt>
      <trkpt lat="47.29061" lon="-1.61938">
        <ele>73.1</ele>
        <time>2015-11-11T10:25:08Z</time>
      </trkpt>
      <trkpt lat="47.29057" lon="-1.61947">
        <ele>72.6</ele>
        <time>2015-11-11T10:25:15Z</time>
      </trkpt>
      <trkpt lat="47.29052" lon="-1.61955">
        <ele>71.8</ele>
        <time>2015-11-11T10:25:22Z</time>
      </trkpt>
      <trkpt lat="47.29047" lon="-1.61963">
        <ele>71.5</ele>
        <time>2015-11-11T10:25:29Z</time>
      </trkpt>
      <trkpt lat="47.29041" lon="-1.61971">
        <ele>71</ele>
        <time>2015-11-11T10:25:37Z</time>
      </trkpt>
      <trkpt lat="47.29034" lon="-1.61979">
        <ele>71.2</ele>
        <time>2015-11-11T10:25:43Z</time>
      </trkpt>
      <trkpt lat="47.29027" lon="-1.61984">
        <ele>70.4</ele>
        <time>2015-11-11T10:25:49Z</time>
      </trkpt>
      <trkpt lat="47.29021" lon="-1.6199">
        <ele>70.4</ele>
        <time>2015-11-11T10:25:55Z</time>
      </trkpt>
      <trkpt lat="47.29006" lon="-1.61999">
        <ele>69.2</ele>
        <time>2015-11-11T10:26:06Z</time>
      </trkpt>
      <trkpt lat="47.28999" lon="-1.62001">
        <ele>69.5</ele>
        <time>2015-11-11T10:26:13Z</time>
      </trkpt>
      <trkpt lat="47.28992" lon="-1.62005">
        <ele>68</ele>
        <time>2015-11-11T10:26:21Z</time>
      </trkpt>
      <trkpt lat="47.28984" lon="-1.62008">
        <ele>67.7</ele>
        <time>2015-11-11T10:26:27Z</time>
      </trkpt>
      <trkpt lat="47.28977" lon="-1.6201">
        <ele>66.8</ele>
        <time>2015-11-11T10:26:33Z</time>
      </trkpt>
      <trkpt lat="47.28969" lon="-1.62013">
        <ele>66.5</ele>
        <time>2015-11-11T10:26:40Z</time>
      </trkpt>
      <trkpt lat="47.28962" lon="-1.62017">
        <ele>65.9</ele>
        <time>2015-11-11T10:26:46Z</time>
      </trkpt>
      <trkpt lat="47.28954" lon="-1.62018">
        <ele>64.7</ele>
        <time>2015-11-11T10:26:53Z</time>
      </trkpt>
      <trkpt lat="47.28946" lon="-1.62019">
        <ele>64.5</ele>
        <time>2015-11-11T10:27:00Z</time>
      </trkpt>
      <trkpt lat="47.2893" lon="-1.62022">
        <ele>63.5</ele>
        <time>2015-11-11T10:27:12Z</time>
      </trkpt>
      <trkpt lat="47.28923" lon="-1.62025">
        <ele>62.4</ele>
        <time>2015-11-11T10:27:17Z</time>
      </trkpt>
      <trkpt lat="47.28915" lon="-1.62028">
        <ele>61.5</ele>
        <time>2015-11-11T10:27:22Z</time>
      </trkpt>
      <trkpt lat="47.28908" lon="-1.6203">
        <ele>60.7</ele>
        <time>2015-11-11T10:27:28Z</time>
      </trkpt>
      <trkpt lat="47.28901" lon="-1.62033">
        <ele>60.3</ele>
        <time>2015-11-11T10:27:34Z</time>
      </trkpt>
      <trkpt lat="47.28894" lon="-1.62037">
        <ele>59.2</ele>
        <time>2015-11-11T10:27:41Z</time>
      </trkpt>
      <trkpt lat="47.28886" lon="-1.6204">
        <ele>59.5</ele>
        <time>2015-11-11T10:27:46Z</time>
      </trkpt>
      <trkpt lat="47.28879" lon="-1.62044">
        <ele>58.4</ele>
        <time>2015-11-11T10:27:52Z</time>
      </trkpt>
      <trkpt lat="47.28871" lon="-1.62048">
        <ele>58.3</ele>
        <time>2015-11-11T10:27:58Z</time>
      </trkpt>
      <trkpt lat="47.28864" lon="-1.62051">
        <ele>57.8</ele>
        <time>2015-11-11T10:28:04Z</time>
      </trkpt>
      <trkpt lat="47.2885" lon="-1.62058">
        <ele>57.3</ele>
        <time>2015-11-11T10:28:16Z</time>
      </trkpt>
      <trkpt lat="47.28842" lon="-1.62065">
        <ele>57.1</ele>
        <time>2015-11-11T10:28:22Z</time>
      </trkpt>
      <trkpt lat="47.28837" lon="-1.62075">
        <ele>57.3</ele>
        <time>2015-11-11T10:28:28Z</time>
      </trkpt>
      <trkpt lat="47.28832" lon="-1.62083">
        <ele>56.2</ele>
        <time>2015-11-11T10:28:35Z</time>
      </trkpt>
      <trkpt lat="47.28827" lon="-1.62092">
        <ele>56</ele>
        <time>2015-11-11T10:28:42Z</time>
      </trkpt>
      <trkpt lat="47.28823" lon="-1.62101">
        <ele>56.2</ele>
        <time>2015-11-11T10:28:49Z</time>
      </trkpt>
      <trkpt lat="47.28819" lon="-1.62111">
        <ele>56.9</ele>
        <time>2015-11-11T10:28:56Z</time>
      </trkpt>
      <trkpt lat="47.28814" lon="-1.62121">
        <ele>56.7</ele>
        <time>2015-11-11T10:29:03Z</time>
      </trkpt>
      <trkpt lat="47.28809" lon="-1.6213">
        <ele>56.8</ele>
        <time>2015-11-11T10:29:08Z</time>
      </trkpt>
      <trkpt lat="47.28802" lon="-1.6215">
        <ele>57.4</ele>
        <time>2015-11-11T10:29:21Z</time>
      </trkpt>
      <trkpt lat="47.28798" lon="-1.62159">
        <ele>57.8</ele>
        <time>2015-11-11T10:29:26Z</time>
      </trkpt>
      <trkpt lat="47.28794" lon="-1.62169">
        <ele>58.3</ele>
        <time>2015-11-11T10:29:31Z</time>
      </trkpt>
      <trkpt lat="47.28792" lon="-1.62181">
        <ele>59.7</ele>
        <time>2015-11-11T10:29:37Z</time>
      </trkpt>
      <trkpt lat="47.2879" lon="-1.62193">
        <ele>60</ele>
        <time>2015-11-11T10:29:43Z</time>
      </trkpt>
      <trkpt lat="47.28788" lon="-1.62204">
        <ele>60.3</ele>
        <time>2015-11-11T10:29:49Z</time>
      </trkpt>
      <trkpt lat="47.28788" lon="-1.62215">
        <ele>60.9</ele>
        <time>2015-11-11T10:29:55Z</time>
      </trkpt>
      <trkpt lat="47.2879" lon="-1.62226">
        <ele>62.3</ele>
        <time>2015-11-11T10:30:02Z</time>
      </trkpt>
      <trkpt lat="47.28791" lon="-1.62238">
        <ele>62.5</ele>
        <time>2015-11-11T10:30:09Z</time>
      </trkpt>
      <trkpt lat="47.2879" lon="-1.62262">
        <ele>64.3</ele>
        <time>2015-11-11T10:30:24Z</time>
      </trkpt>
      <trkpt lat="47.28791" lon="-1.62274">
        <ele>65</ele>
        <time>2015-11-11T10:30:32Z</time>
      </trkpt>
      <trkpt lat="47.28792" lon="-1.62286">
        <ele>65.4</ele>
        <time>2015-11-11T10:30:39Z</time>
      </trkpt>
      <trkpt lat="47.28791" lon="-1.62298">
        <ele>65.6</ele>
        <time>2015-11-11T10:30:46Z</time>
      </trkpt>
      <trkpt lat="47.28788" lon="-1.62308">
        <ele>66.5</ele>
        <time>2015-11-11T10:30:52Z</time>
      </trkpt>
      <trkpt lat="47.28783" lon="-1.62318">
        <ele>67.4</ele>
        <time>2015-11-11T10:30:58Z</time>
      </trkpt>
      <trkpt lat="47.28778" lon="-1.62327">
        <ele>67.2</ele>
        <time>2015-11-11T10:31:04Z</time>
      </trkpt>
      <trkpt lat="47.28772" lon="-1.62335">
        <ele>67.4</ele>
        <time>2015-11-11T10:31:09Z</time>
      </trkpt>
      <trkpt lat="47.28766" lon="-1.62343">
        <ele>67.5</ele>
        <time>2015-11-11T10:31:14Z</time>
      </trkpt>
      <trkpt lat="47.28753" lon="-1.6236">
        <ele>67.8</ele>
        <time>2015-11-11T10:31:26Z</time>
      </trkpt>
      <trkpt lat="47.28747" lon="-1.62367">
        <ele>67.2</ele>
        <time>2015-11-11T10:31:32Z</time>
      </trkpt>
      <trkpt lat="47.2874" lon="-1.62376">
        <ele>67.5</ele>
        <time>2015-11-11T10:31:38Z</time>
      </trkpt>
      <trkpt lat="47.28735" lon="-1.62385">
        <ele>68</ele>
        <time>2015-11-11T10:31:44Z</time>
      </trkpt>
      <trkpt lat="47.28729" lon="-1.62392">
        <ele>68.3</ele>
        <time>2015-11-11T10:31:49Z</time>
      </trkpt>
      <trkpt lat="47.28724" lon="-1.624">
        <ele>67.6</ele>
        <time>2015-11-11T10:31:54Z</time>
      </trkpt>
      <trkpt lat="47.2872" lon="-1.62408">
        <ele>67.5</ele>
        <time>2015-11-11T10:31:59Z</time>
      </trkpt>
      <trkpt lat="47.28714" lon="-1.62416">
        <ele>68</ele>
        <time>2015-11-11T10:32:05Z</time>
      </trkpt>
      <trkpt lat="47.28707" lon="-1.62422">
        <ele>67.8</ele>
        <time>2015-11-11T10:32:12Z</time>
      </trkpt>
      <trkpt lat="47.28702" lon="-1.6243">
        <ele>68.2</ele>
        <time>2015-11-11T10:32:18Z</time>
      </trkpt>
      <trkpt lat="47.28691" lon="-1.62446">
        <ele>68.6</ele>
        <time>2015-11-11T10:32:30Z</time>
      </trkpt>
      <trkpt lat="47.28685" lon="-1.62455">
        <ele>69</ele>
        <time>2015-11-11T10:32:37Z</time>
      </trkpt>
      <trkpt lat="47.28679" lon="-1.62463">
        <ele>68.5</ele>
        <time>2015-11-11T10:32:42Z</time>
      </trkpt>
      <trkpt lat="47.28674" lon="-1.62473">
        <ele>68.8</ele>
        <time>2015-11-11T10:32:48Z</time>
      </trkpt>
      <trkpt lat="47.28669" lon="-1.62481">
        <ele>69.5</ele>
        <time>2015-11-11T10:32:53Z</time>
      </trkpt>
      <trkpt lat="47.28665" lon="-1.6249">
        <ele>68.9</ele>
        <time>2015-11-11T10:32:58Z</time>
      </trkpt>
      <trkpt lat="47.2866" lon="-1.625">
        <ele>69.2</ele>
        <time>2015-11-11T10:33:04Z</time>
      </trkpt>
      <trkpt lat="47.28655" lon="-1.62509">
        <ele>69</ele>
        <time>2015-11-11T10:33:09Z</time>
      </trkpt>
      <trkpt lat="47.28652" lon="-1.62519">
        <ele>68.8</ele>
        <time>2015-11-11T10:33:15Z</time>
      </trkpt>
      <trkpt lat="47.28648" lon="-1.62529">
        <ele>68.2</ele>
        <time>2015-11-11T10:33:22Z</time>
      </trkpt>
      <trkpt lat="47.28641" lon="-1.62549">
        <ele>67.7</ele>
        <time>2015-11-11T10:33:38Z</time>
      </trkpt>
      <trkpt lat="47.28636" lon="-1.62558">
        <ele>68.1</ele>
        <time>2015-11-11T10:33:44Z</time>
      </trkpt>
      <trkpt lat="47.28631" lon="-1.62566">
        <ele>67.8</ele>
        <time>2015-11-11T10:33:49Z</time>
      </trkpt>
      <trkpt lat="47.28624" lon="-1.62574">
        <ele>68.1</ele>
        <time>2015-11-11T10:33:55Z</time>
      </trkpt>
      <trkpt lat="47.28617" lon="-1.62582">
        <ele>67.7</ele>
        <time>2015-11-11T10:34:00Z</time>
      </trkpt>
      <trkpt lat="47.2861" lon="-1.62589">
        <ele>67.2</ele>
        <time>2015-11-11T10:34:05Z</time>
      </trkpt>
      <trkpt lat="47.28604" lon="-1.62595">
        <ele>67.7</ele>
        <time>2015-11-11T10:34:10Z</time>
      </trkpt>
      <trkpt lat="47.28597" lon="-1.62601">
        <ele>66.7</ele>
        <time>2015-11-11T10:34:16Z</time>
      </trkpt>
      <trkpt lat="47.28591" lon="-1.62606">
        <ele>66.2</ele>
        <time>2015-11-11T10:34:22Z</time>
      </trkpt>
      <trkpt lat="47.28584" lon="-1.62611">
        <ele>65.6</ele>
        <time>2015-11-11T10:34:27Z</time>
      </trkpt>
      <trkpt lat="47.28574" lon="-1.62627">
        <ele>65.5</ele>
        <time>2015-11-11T10:34:38Z</time>
      </trkpt>
      <trkpt lat="47.28571" lon="-1.62637">
        <ele>65.2</ele>
        <time>2015-11-11T10:34:46Z</time>
      </trkpt>
      <trkpt lat="47.28566" lon="-1.62645">
        <ele>66.1</ele>
        <time>2015-11-11T10:34:55Z</time>
      </trkpt>
      <trkpt lat="47.2856" lon="-1.62653">
        <ele>65.7</ele>
        <time>2015-11-11T10:35:01Z</time>
      </trkpt>
      <trkpt lat="47.28553" lon="-1.6266">
        <ele>65.6</ele>
        <time>2015-11-11T10:35:06Z</time>
      </trkpt>
      <trkpt lat="47.28546" lon="-1.62666">
        <ele>66.1</ele>
        <time>2015-11-11T10:35:12Z</time>
      </trkpt>
      <trkpt lat="47.2854" lon="-1.62673">
        <ele>65.6</ele>
        <time>2015-11-11T10:35:17Z</time>
      </trkpt>
      <trkpt lat="47.28535" lon="-1.62682">
        <ele>66.3</ele>
        <time>2015-11-11T10:35:22Z</time>
      </trkpt>
      <trkpt lat="47.2853" lon="-1.6269">
        <ele>66.2</ele>
        <time>2015-11-11T10:35:27Z</time>
      </trkpt>
      <trkpt lat="47.28526" lon="-1.62701">
        <ele>65.6</ele>
        <time>2015-11-11T10:35:34Z</time>
      </trkpt>
      <trkpt lat="47.2852" lon="-1.62722">
        <ele>66.4</ele>
        <time>2015-11-11T10:35:47Z</time>
      </trkpt>
      <trkpt lat="47.28517" lon="-1.62733">
        <ele>66.8</ele>
        <time>2015-11-11T10:35:54Z</time>
      </trkpt>
      <trkpt lat="47.28513" lon="-1.62743">
        <ele>66.8</ele>
        <time>2015-11-11T10:36:00Z</time>
      </trkpt>
      <trkpt lat="47.2851" lon="-1.62754">
        <ele>68.1</ele>
        <time>2015-11-11T10:36:06Z</time>
      </trkpt>
      <trkpt lat="47.28508" lon="-1.62764">
        <ele>68.1</ele>
        <time>2015-11-11T10:36:12Z</time>
      </trkpt>
      <trkpt lat="47.28508" lon="-1.62775">
        <ele>68.6</ele>
        <time>2015-11-11T10:36:19Z</time>
      </trkpt>
      <trkpt lat="47.28507" lon="-1.62786">
        <ele>68.4</ele>
        <time>2015-11-11T10:36:26Z</time>
      </trkpt>
      <trkpt lat="47.28505" lon="-1.62799">
        <ele>69.6</ele>
        <time>2015-11-11T10:36:32Z</time>
      </trkpt>
      <trkpt lat="47.28501" lon="-1.62809">
        <ele>70.3</ele>
        <time>2015-11-11T10:36:38Z</time>
      </trkpt>
      <trkpt lat="47.2849" lon="-1.62826">
        <ele>70.7</ele>
        <time>2015-11-11T10:36:51Z</time>
      </trkpt>
      <trkpt lat="47.28484" lon="-1.62833">
        <ele>70.3</ele>
        <time>2015-11-11T10:36:58Z</time>
      </trkpt>
      <trkpt lat="47.28477" lon="-1.62837">
        <ele>70.9</ele>
        <time>2015-11-11T10:37:04Z</time>
      </trkpt>
      <trkpt lat="47.28471" lon="-1.62843">
        <ele>71.1</ele>
        <time>2015-11-11T10:37:10Z</time>
      </trkpt>
      <trkpt lat="47.28464" lon="-1.62848">
        <ele>71.2</ele>
        <time>2015-11-11T10:37:16Z</time>
      </trkpt>
      <trkpt lat="47.28456" lon="-1.62854">
        <ele>70.9</ele>
        <time>2015-11-11T10:37:22Z</time>
      </trkpt>
      <trkpt lat="47.2845" lon="-1.62859">
        <ele>70.9</ele>
        <time>2015-11-11T10:37:27Z</time>
      </trkpt>
      <trkpt lat="47.28443" lon="-1.62864">
        <ele>71.8</ele>
        <time>2015-11-11T10:37:33Z</time>
      </trkpt>
      <trkpt lat="47.28436" lon="-1.62869">
        <ele>72.1</ele>
        <time>2015-11-11T10:37:39Z</time>
      </trkpt>
      <trkpt lat="47.28422" lon="-1.6288">
        <ele>73</ele>
        <time>2015-11-11T10:37:52Z</time>
      </trkpt>
      <trkpt lat="47.28415" lon="-1.62888">
        <ele>72.8</ele>
        <time>2015-11-11T10:37:57Z</time>
      </trkpt>
      <trkpt lat="47.28408" lon="-1.62894">
        <ele>72.6</ele>
        <time>2015-11-11T10:38:03Z</time>
      </trkpt>
      <trkpt lat="47.28401" lon="-1.62901">
        <ele>73</ele>
        <time>2015-11-11T10:38:09Z</time>
      </trkpt>
      <trkpt lat="47.28394" lon="-1.62907">
        <ele>73.3</ele>
        <time>2015-11-11T10:38:15Z</time>
      </trkpt>
      <trkpt lat="47.28387" lon="-1.62912">
        <ele>73</ele>
        <time>2015-11-11T10:38:20Z</time>
      </trkpt>
      <trkpt lat="47.28381" lon="-1.62919">
        <ele>73.1</ele>
        <time>2015-11-11T10:38:25Z</time>
      </trkpt>
      <trkpt lat="47.28376" lon="-1.62928">
        <ele>73.3</ele>
        <time>2015-11-11T10:38:31Z</time>
      </trkpt>
      <trkpt lat="47.28371" lon="-1.62937">
        <ele>73.7</ele>
        <time>2015-11-11T10:38:37Z</time>
      </trkpt>
      <trkpt lat="47.28368" lon="-1.62947">
        <ele>73.4</ele>
        <time>2015-11-11T10:38:43Z</time>
      </trkpt>
      <trkpt lat="47.2836" lon="-1.62968">
        <ele>73.9</ele>
        <time>2015-11-11T10:38:55Z</time>
      </trkpt>
      <trkpt lat="47.28355" lon="-1.62975">
        <ele>73.2</ele>
        <time>2015-11-11T10:39:01Z</time>
      </trkpt>
      <trkpt lat="47.28348" lon="-1.62981">
        <ele>73.2</ele>
        <time>2015-11-11T10:39:07Z</time>
      </trkpt>
      <trkpt lat="47.28341" lon="-1.62988">
        <ele>73.5</ele>
        <time>2015-11-11T10:39:13Z</time>
      </trkpt>
      <trkpt lat="47.28335" lon="-1.62996">
        <ele>73.4</ele>
        <time>2015-11-11T10:39:19Z</time>
      </trkpt>
      <trkpt lat="47.28327" lon="-1.63002">
        <ele>72.7</ele>
        <time>2015-11-11T10:39:25Z</time>
      </trkpt>
      <trkpt lat="47.2832" lon="-1.63008">
        <ele>72.4</ele>
        <time>2015-11-11T10:39:31Z</time>
      </trkpt>
      <trkpt lat="47.28313" lon="-1.63014">
        <ele>72.7</ele>
        <time>2015-11-11T10:39:37Z</time>
      </trkpt>
      <trkpt lat="47.28307" lon="-1.6302">
        <ele>72.6</ele>
        <time>2015-11-11T10:39:42Z</time>
      </trkpt>
      <trkpt lat="47.28299" lon="-1.63026">
        <ele>73.4</ele>
        <time>2015-11-11T10:39:48Z</time>
      </trkpt>
      <trkpt lat="47.28285" lon="-1.63035">
        <ele>73.2</ele>
        <time>2015-11-11T10:39:59Z</time>
      </trkpt>
      <trkpt lat="47.28279" lon="-1.63041">
        <ele>73</ele>
        <time>2015-11-11T10:40:04Z</time>
      </trkpt>
      <trkpt lat="47.28273" lon="-1.63047">
        <ele>72.8</ele>
        <time>2015-11-11T10:40:09Z</time>
      </trkpt>
      <trkpt lat="47.28266" lon="-1.6305">
        <ele>72.1</ele>
        <time>2015-11-11T10:40:15Z</time>
      </trkpt>
      <trkpt lat="47.28259" lon="-1.63055">
        <ele>71.8</ele>
        <time>2015-11-11T10:40:24Z</time>
      </trkpt>
      <trkpt lat="47.28252" lon="-1.63057">
        <ele>71.4</ele>
        <time>2015-11-11T10:40:30Z</time>
      </trkpt>
      <trkpt lat="47.28243" lon="-1.63056">
        <ele>71.4</ele>
        <time>2015-11-11T10:40:36Z</time>
      </trkpt>
      <trkpt lat="47.28236" lon="-1.63051">
        <ele>70.8</ele>
        <time>2015-11-11T10:40:42Z</time>
      </trkpt>
      <trkpt lat="47.2823" lon="-1.63044">
        <ele>71</ele>
        <time>2015-11-11T10:40:48Z</time>
      </trkpt>
      <trkpt lat="47.28223" lon="-1.63037">
        <ele>71.2</ele>
        <time>2015-11-11T10:40:54Z</time>
      </trkpt>
      <trkpt lat="47.2821" lon="-1.63024">
        <ele>70.8</ele>
        <time>2015-11-11T10:41:06Z</time>
      </trkpt>
      <trkpt lat="47.28203" lon="-1.63017">
        <ele>69.8</ele>
        <time>2015-11-11T10:41:13Z</time>
      </trkpt>
      <trkpt lat="47.28196" lon="-1.6301">
        <ele>68.5</ele>
        <time>2015-11-11T10:41:19Z</time>
      </trkpt>
      <trkpt lat="47.2819" lon="-1.63005">
        <ele>68.2</ele>
        <time>2015-11-11T10:41:25Z</time>
      </trkpt>
      <trkpt lat="47.28184" lon="-1.62997">
        <ele>67</ele>
        <time>2015-11-11T10:41:31Z</time>
      </trkpt>
      <trkpt lat="47.28177" lon="-1.62991">
        <ele>65.6</ele>
        <time>2015-11-11T10:41:38Z</time>
      </trkpt>
      <trkpt lat="47.2817" lon="-1.62985">
        <ele>66</ele>
        <time>2015-11-11T10:41:45Z</time>
      </trkpt>
      <trkpt lat="47.28165" lon="-1.62977">
        <ele>64.6</ele>
        <time>2015-11-11T10:41:51Z</time>
      </trkpt>
      <trkpt lat="47.28158" lon="-1.62969">
        <ele>63.3</ele>
        <time>2015-11-11T10:41:58Z</time>
      </trkpt>
      <trkpt lat="47.28147" lon="-1.62952">
        <ele>63.2</ele>
        <time>2015-11-11T10:42:12Z</time>
      </trkpt>
      <trkpt lat="47.28141" lon="-1.62944">
        <ele>63</ele>
        <time>2015-11-11T10:42:19Z</time>
      </trkpt>
      <trkpt lat="47.28137" lon="-1.62934">
        <ele>62.2</ele>
        <time>2015-11-11T10:42:26Z</time>
      </trkpt>
      <trkpt lat="47.28135" lon="-1.62923">
        <ele>61.8</ele>
        <time>2015-11-11T10:42:31Z</time>
      </trkpt>
      <trkpt lat="47.28132" lon="-1.62912">
        <ele>60.8</ele>
        <time>2015-11-11T10:42:39Z</time>
      </trkpt>
      <trkpt lat="47.28129" lon="-1.629">
        <ele>61.3</ele>
        <time>2015-11-11T10:42:45Z</time>
      </trkpt>
      <trkpt lat="47.28129" lon="-1.62889">
        <ele>61.3</ele>
        <time>2015-11-11T10:42:51Z</time>
      </trkpt>
      <trkpt lat="47.28131" lon="-1.62876">
        <ele>60.7</ele>
        <time>2015-11-11T10:42:57Z</time>
      </trkpt>
      <trkpt lat="47.28133" lon="-1.62864">
        <ele>60.7</ele>
        <time>2015-11-11T10:43:02Z</time>
      </trkpt>
      <trkpt lat="47.28137" lon="-1.6284">
        <ele>61</ele>
        <time>2015-11-11T10:43:14Z</time>
      </trkpt>
      <trkpt lat="47.28138" lon="-1.62828">
        <ele>60.1</ele>
        <time>2015-11-11T10:43:20Z</time>
      </trkpt>
      <trkpt lat="47.28141" lon="-1.62817">
        <ele>60.8</ele>
        <time>2015-11-11T10:43:26Z</time>
      </trkpt>
      <trkpt lat="47.28144" lon="-1.62806">
        <ele>61</ele>
        <time>2015-11-11T10:43:32Z</time>
      </trkpt>
      <trkpt lat="47.28147" lon="-1.62795">
        <ele>60.7</ele>
        <time>2015-11-11T10:43:38Z</time>
      </trkpt>
      <trkpt lat="47.28149" lon="-1.62783">
        <ele>60.3</ele>
        <time>2015-11-11T10:43:44Z</time>
      </trkpt>
      <trkpt lat="47.2815" lon="-1.6277">
        <ele>59.9</ele>
        <time>2015-11-11T10:43:51Z</time>
      </trkpt>
      <trkpt lat="47.28152" lon="-1.62759">
        <ele>59.8</ele>
        <time>2015-11-11T10:43:57Z</time>
      </trkpt>
      <trkpt lat="47.28154" lon="-1.62748">
        <ele>59.7</ele>
        <time>2015-11-11T10:44:02Z</time>
      </trkpt>
      <trkpt lat="47.28159" lon="-1.62728">
        <ele>59.5</ele>
        <time>2015-11-11T10:44:11Z</time>
      </trkpt>
      <trkpt lat="47.28163" lon="-1.62717">
        <ele>58.4</ele>
        <time>2015-11-11T10:44:16Z</time>
      </trkpt>
      <trkpt lat="47.28167" lon="-1.62707">
        <ele>58.1</ele>
        <time>2015-11-11T10:44:21Z</time>
      </trkpt>
      <trkpt lat="47.2817" lon="-1.62697">
        <ele>58.3</ele>
        <time>2015-11-11T10:44:26Z</time>
      </trkpt>
      <trkpt lat="47.28173" lon="-1.62686">
        <ele>58.8</ele>
        <time>2015-11-11T10:44:32Z</time>
      </trkpt>
      <trkpt lat="47.28179" lon="-1.62677">
        <ele>58.3</ele>
        <time>2015-11-11T10:44:38Z</time>
      </trkpt>
      <trkpt lat="47.28183" lon="-1.62667">
        <ele>57.5</ele>
        <time>2015-11-11T10:44:44Z</time>
      </trkpt>
      <trkpt lat="47.28187" lon="-1.62656">
        <ele>57.4</ele>
        <time>2015-11-11T10:44:49Z</time>
      </trkpt>
      <trkpt lat="47.28191" lon="-1.62645">
        <ele>56.9</ele>
        <time>2015-11-11T10:44:54Z</time>
      </trkpt>
      <trkpt lat="47.28195" lon="-1.62634">
        <ele>56.6</ele>
        <time>2015-11-11T10:45:00Z</time>
      </trkpt>
      <trkpt lat="47.282" lon="-1.62624">
        <ele>57.1</ele>
        <time>2015-11-11T10:45:05Z</time>
      </trkpt>
      <trkpt lat="47.28209" lon="-1.62604">
        <ele>56.3</ele>
        <time>2015-11-11T10:45:17Z</time>
      </trkpt>
      <trkpt lat="47.28216" lon="-1.62596">
        <ele>55.9</ele>
        <time>2015-11-11T10:45:23Z</time>
      </trkpt>
      <trkpt lat="47.28222" lon="-1.62589">
        <ele>55.1</ele>
        <time>2015-11-11T10:45:29Z</time>
      </trkpt>
      <trkpt lat="47.28228" lon="-1.62583">
        <ele>55.7</ele>
        <time>2015-11-11T10:45:35Z</time>
      </trkpt>
      <trkpt lat="47.28234" lon="-1.62576">
        <ele>55.1</ele>
        <time>2015-11-11T10:45:41Z</time>
      </trkpt>
      <trkpt lat="47.28241" lon="-1.62569">
        <ele>55.9</ele>
        <time>2015-11-11T10:45:47Z</time>
      </trkpt>
      <trkpt lat="47.28247" lon="-1.62563">
        <ele>55.6</ele>
        <time>2015-11-11T10:45:52Z</time>
      </trkpt>
      <trkpt lat="47.28254" lon="-1.62556">
        <ele>55.9</ele>
        <time>2015-11-11T10:45:58Z</time>
      </trkpt>
      <trkpt lat="47.28246" lon="-1.62552">
        <ele>55</ele>
        <time>2015-11-11T10:46:21Z</time>
      </trkpt>
      <trkpt lat="47.28232" lon="-1.62563">
        <ele>54.1</ele>
        <time>2015-11-11T10:46:37Z</time>
      </trkpt>
      <trkpt lat="47.28225" lon="-1.62566">
        <ele>53.9</ele>
        <time>2015-11-11T10:46:44Z</time>
      </trkpt>
      <trkpt lat="47.28217" lon="-1.62568">
        <ele>54</ele>
        <time>2015-11-11T10:46:52Z</time>
      </trkpt>
      <trkpt lat="47.2821" lon="-1.62569">
        <ele>53.8</ele>
        <time>2015-11-11T10:46:59Z</time>
      </trkpt>
      <trkpt lat="47.28203" lon="-1.6257">
        <ele>54</ele>
        <time>2015-11-11T10:47:08Z</time>
      </trkpt>
      <trkpt lat="47.28195" lon="-1.62569">
        <ele>54.1</ele>
        <time>2015-11-11T10:47:17Z</time>
      </trkpt>
      <trkpt lat="47.28188" lon="-1.62567">
        <ele>54.4</ele>
        <time>2015-11-11T10:47:26Z</time>
      </trkpt>
      <trkpt lat="47.28171" lon="-1.62563">
        <ele>54.6</ele>
        <time>2015-11-11T10:47:37Z</time>
      </trkpt>
      <trkpt lat="47.28163" lon="-1.62561">
        <ele>55.9</ele>
        <time>2015-11-11T10:47:43Z</time>
      </trkpt>
      <trkpt lat="47.28156" lon="-1.62558">
        <ele>56.3</ele>
        <time>2015-11-11T10:47:48Z</time>
      </trkpt>
      <trkpt lat="47.28148" lon="-1.62555">
        <ele>57</ele>
        <time>2015-11-11T10:47:54Z</time>
      </trkpt>
      <trkpt lat="47.2814" lon="-1.62552">
        <ele>57.3</ele>
        <time>2015-11-11T10:48:00Z</time>
      </trkpt>
      <trkpt lat="47.28133" lon="-1.6255">
        <ele>57.4</ele>
        <time>2015-11-11T10:48:08Z</time>
      </trkpt>
      <trkpt lat="47.28126" lon="-1.62547">
        <ele>58.3</ele>
        <time>2015-11-11T10:48:14Z</time>
      </trkpt>
      <trkpt lat="47.28119" lon="-1.62545">
        <ele>59.1</ele>
        <time>2015-11-11T10:48:20Z</time>
      </trkpt>
      <trkpt lat="47.28112" lon="-1.62544">
        <ele>59.3</ele>
        <time>2015-11-11T10:48:26Z</time>
      </trkpt>
      <trkpt lat="47.28104" lon="-1.62542">
        <ele>59.8</ele>
        <time>2015-11-11T10:48:33Z</time>
      </trkpt>
      <trkpt lat="47.28088" lon="-1.62537">
        <ele>60.9</ele>
        <time>2015-11-11T10:48:48Z</time>
      </trkpt>
      <trkpt lat="47.2808" lon="-1.62535">
        <ele>62</ele>
        <time>2015-11-11T10:48:55Z</time>
      </trkpt>
      <trkpt lat="47.28072" lon="-1.62532">
        <ele>62.8</ele>
        <time>2015-11-11T10:49:02Z</time>
      </trkpt>
      <trkpt lat="47.28064" lon="-1.62529">
        <ele>62.6</ele>
        <time>2015-11-11T10:49:08Z</time>
      </trkpt>
      <trkpt lat="47.28056" lon="-1.62528">
        <ele>63.3</ele>
        <time>2015-11-11T10:49:14Z</time>
      </trkpt>
      <trkpt lat="47.28048" lon="-1.62527">
        <ele>63.3</ele>
        <time>2015-11-11T10:49:20Z</time>
      </trkpt>
      <trkpt lat="47.28041" lon="-1.62525">
        <ele>63.4</ele>
        <time>2015-11-11T10:49:25Z</time>
      </trkpt>
      <trkpt lat="47.28034" lon="-1.62524">
        <ele>63.9</ele>
        <time>2015-11-11T10:49:30Z</time>
      </trkpt>
      <trkpt lat="47.28025" lon="-1.62524">
        <ele>63.7</ele>
        <time>2015-11-11T10:49:36Z</time>
      </trkpt>
      <trkpt lat="47.2801" lon="-1.62523">
        <ele>63.4</ele>
        <time>2015-11-11T10:49:47Z</time>
      </trkpt>
      <trkpt lat="47.28002" lon="-1.62521">
        <ele>64.5</ele>
        <time>2015-11-11T10:49:53Z</time>
      </trkpt>
      <trkpt lat="47.27995" lon="-1.62517">
        <ele>64.9</ele>
        <time>2015-11-11T10:49:59Z</time>
      </trkpt>
      <trkpt lat="47.27988" lon="-1.62513">
        <ele>64.7</ele>
        <time>2015-11-11T10:50:05Z</time>
      </trkpt>
      <trkpt lat="47.27981" lon="-1.62509">
        <ele>63.6</ele>
        <time>2015-11-11T10:50:10Z</time>
      </trkpt>
      <trkpt lat="47.27973" lon="-1.62503">
        <ele>63.7</ele>
        <time>2015-11-11T10:50:16Z</time>
      </trkpt>
      <trkpt lat="47.27967" lon="-1.62495">
        <ele>62.8</ele>
        <time>2015-11-11T10:50:21Z</time>
      </trkpt>
      <trkpt lat="47.27962" lon="-1.62489">
        <ele>63.1</ele>
        <time>2015-11-11T10:50:26Z</time>
      </trkpt>
      <trkpt lat="47.27956" lon="-1.62479">
        <ele>62.2</ele>
        <time>2015-11-11T10:50:32Z</time>
      </trkpt>
      <trkpt lat="47.27951" lon="-1.62469">
        <ele>61.9</ele>
        <time>2015-11-11T10:50:38Z</time>
      </trkpt>
      <trkpt lat="47.27939" lon="-1.62456">
        <ele>60.3</ele>
        <time>2015-11-11T10:50:49Z</time>
      </trkpt>
      <trkpt lat="47.27932" lon="-1.62454">
        <ele>58.7</ele>
        <time>2015-11-11T10:50:57Z</time>
      </trkpt>
      <trkpt lat="47.27924" lon="-1.62449">
        <ele>57.7</ele>
        <time>2015-11-11T10:51:07Z</time>
      </trkpt>
      <trkpt lat="47.27917" lon="-1.62446">
        <ele>55.7</ele>
        <time>2015-11-11T10:51:15Z</time>
      </trkpt>
      <trkpt lat="47.27908" lon="-1.62445">
        <ele>55.1</ele>
        <time>2015-11-11T10:51:21Z</time>
      </trkpt>
      <trkpt lat="47.279" lon="-1.62443">
        <ele>54.9</ele>
        <time>2015-11-11T10:51:27Z</time>
      </trkpt>
      <trkpt lat="47.27892" lon="-1.62441">
        <ele>55.3</ele>
        <time>2015-11-11T10:51:32Z</time>
      </trkpt>
      <trkpt lat="47.27884" lon="-1.62438">
        <ele>54.3</ele>
        <time>2015-11-11T10:51:37Z</time>
      </trkpt>
      <trkpt lat="47.27878" lon="-1.62434">
        <ele>54</ele>
        <time>2015-11-11T10:51:42Z</time>
      </trkpt>
      <trkpt lat="47.27863" lon="-1.62428">
        <ele>55.3</ele>
        <time>2015-11-11T10:51:54Z</time>
      </trkpt>
      <trkpt lat="47.27855" lon="-1.62425">
        <ele>55.5</ele>
        <time>2015-11-11T10:52:02Z</time>
      </trkpt>
      <trkpt lat="47.27847" lon="-1.6242">
        <ele>55.4</ele>
        <time>2015-11-11T10:52:10Z</time>
      </trkpt>
      <trkpt lat="47.2784" lon="-1.62417">
        <ele>56</ele>
        <time>2015-11-11T10:52:17Z</time>
      </trkpt>
      <trkpt lat="47.27831" lon="-1.62415">
        <ele>56.1</ele>
        <time>2015-11-11T10:52:23Z</time>
      </trkpt>
      <trkpt lat="47.27824" lon="-1.62413">
        <ele>55.8</ele>
        <time>2015-11-11T10:52:28Z</time>
      </trkpt>
      <trkpt lat="47.27816" lon="-1.62413">
        <ele>56.3</ele>
        <time>2015-11-11T10:52:33Z</time>
      </trkpt>
      <trkpt lat="47.27809" lon="-1.62409">
        <ele>56.8</ele>
        <time>2015-11-11T10:52:40Z</time>
      </trkpt>
      <trkpt lat="47.278" lon="-1.62406">
        <ele>57.1</ele>
        <time>2015-11-11T10:52:47Z</time>
      </trkpt>
      <trkpt lat="47.27784" lon="-1.62404">
        <ele>57.4</ele>
        <time>2015-11-11T10:53:00Z</time>
      </trkpt>
      <trkpt lat="47.27776" lon="-1.62406">
        <ele>58.7</ele>
        <time>2015-11-11T10:53:07Z</time>
      </trkpt>
      <trkpt lat="47.27768" lon="-1.62407">
        <ele>58.9</ele>
        <time>2015-11-11T10:53:14Z</time>
      </trkpt>
      <trkpt lat="47.27761" lon="-1.6241">
        <ele>59.1</ele>
        <time>2015-11-11T10:53:19Z</time>
      </trkpt>
      <trkpt lat="47.27754" lon="-1.62412">
        <ele>59.7</ele>
        <time>2015-11-11T10:53:24Z</time>
      </trkpt>
      <trkpt lat="47.27746" lon="-1.62418">
        <ele>59.4</ele>
        <time>2015-11-11T10:53:30Z</time>
      </trkpt>
      <trkpt lat="47.27739" lon="-1.62423">
        <ele>59.9</ele>
        <time>2015-11-11T10:53:37Z</time>
      </trkpt>
      <trkpt lat="47.27732" lon="-1.62427">
        <ele>59.6</ele>
        <time>2015-11-11T10:53:43Z</time>
      </trkpt>
      <trkpt lat="47.27724" lon="-1.62431">
        <ele>59.3</ele>
        <time>2015-11-11T10:53:50Z</time>
      </trkpt>
      <trkpt lat="47.27709" lon="-1.6244">
        <ele>58.7</ele>
        <time>2015-11-11T10:54:03Z</time>
      </trkpt>
      <trkpt lat="47.27702" lon="-1.62443">
        <ele>58.9</ele>
        <time>2015-11-11T10:54:08Z</time>
      </trkpt>
      <trkpt lat="47.27695" lon="-1.62447">
        <ele>57.8</ele>
        <time>2015-11-11T10:54:13Z</time>
      </trkpt>
      <trkpt lat="47.27687" lon="-1.62452">
        <ele>57.5</ele>
        <time>2015-11-11T10:54:20Z</time>
      </trkpt>
      <trkpt lat="47.27679" lon="-1.62455">
        <ele>57.6</ele>
        <time>2015-11-11T10:54:27Z</time>
      </trkpt>
      <trkpt lat="47.27671" lon="-1.62457">
        <ele>56.7</ele>
        <time>2015-11-11T10:54:32Z</time>
      </trkpt>
      <trkpt lat="47.27663" lon="-1.62461">
        <ele>57.2</ele>
        <time>2015-11-11T10:54:37Z</time>
      </trkpt>
      <trkpt lat="47.27656" lon="-1.62464">
        <ele>56.2</ele>
        <time>2015-11-11T10:54:43Z</time>
      </trkpt>
      <trkpt lat="47.27649" lon="-1.62467">
        <ele>55.8</ele>
        <time>2015-11-11T10:54:48Z</time>
      </trkpt>
      <trkpt lat="47.27641" lon="-1.62472">
        <ele>55.1</ele>
        <time>2015-11-11T10:54:54Z</time>
      </trkpt>
      <trkpt lat="47.27626" lon="-1.62479">
        <ele>54.1</ele>
        <time>2015-11-11T10:55:05Z</time>
      </trkpt>
      <trkpt lat="47.27619" lon="-1.62483">
        <ele>53.5</ele>
        <time>2015-11-11T10:55:11Z</time>
      </trkpt>
      <trkpt lat="47.27612" lon="-1.62486">
        <ele>52.8</ele>
        <time>2015-11-11T10:55:16Z</time>
      </trkpt>
      <trkpt lat="47.27604" lon="-1.6249">
        <ele>51.9</ele>
        <time>2015-11-11T10:55:22Z</time>
      </trkpt>
      <trkpt lat="47.27596" lon="-1.62493">
        <ele>51.5</ele>
        <time>2015-11-11T10:55:28Z</time>
      </trkpt>
      <trkpt lat="47.27589" lon="-1.62496">
        <ele>50.7</ele>
        <time>2015-11-11T10:55:34Z</time>
      </trkpt>
      <trkpt lat="47.27583" lon="-1.62502">
        <ele>50.9</ele>
        <time>2015-11-11T10:55:40Z</time>
      </trkpt>
      <trkpt lat="47.27575" lon="-1.62508">
        <ele>50.6</ele>
        <time>2015-11-11T10:55:46Z</time>
      </trkpt>
      <trkpt lat="47.27568" lon="-1.62513">
        <ele>50.5</ele>
        <time>2015-11-11T10:55:52Z</time>
      </trkpt>
      <trkpt lat="47.2756" lon="-1.62515">
        <ele>50</ele>
        <time>2015-11-11T10:55:59Z</time>
      </trkpt>
      <trkpt lat="47.27545" lon="-1.62516">
        <ele>48.7</ele>
        <time>2015-11-11T10:56:12Z</time>
      </trkpt>
      <trkpt lat="47.27538" lon="-1.62513">
        <ele>49.3</ele>
        <time>2015-11-11T10:56:18Z</time>
      </trkpt>
      <trkpt lat="47.2753" lon="-1.6251">
        <ele>48.9</ele>
        <time>2015-11-11T10:56:23Z</time>
      </trkpt>
      <trkpt lat="47.27523" lon="-1.62509">
        <ele>48.6</ele>
        <time>2015-11-11T10:56:28Z</time>
      </trkpt>
      <trkpt lat="47.27515" lon="-1.62506">
        <ele>48.8</ele>
        <time>2015-11-11T10:56:34Z</time>
      </trkpt>
      <trkpt lat="47.27508" lon="-1.62502">
        <ele>49.1</ele>
        <time>2015-11-11T10:56:39Z</time>
      </trkpt>
      <trkpt lat="47.275" lon="-1.62497">
        <ele>48.5</ele>
        <time>2015-11-11T10:56:45Z</time>
      </trkpt>
      <trkpt lat="47.27492" lon="-1.62493">
        <ele>48.1</ele>
        <time>2015-11-11T10:56:51Z</time>
      </trkpt>
      <trkpt lat="47.27485" lon="-1.62493">
        <ele>48.3</ele>
        <time>2015-11-11T10:56:57Z</time>
      </trkpt>
      <trkpt lat="47.27478" lon="-1.62489">
        <ele>47.9</ele>
        <time>2015-11-11T10:57:05Z</time>
      </trkpt>
      <trkpt lat="47.27463" lon="-1.62481">
        <ele>47.9</ele>
        <time>2015-11-11T10:57:18Z</time>
      </trkpt>
      <trkpt lat="47.27455" lon="-1.62478">
        <ele>49</ele>
        <time>2015-11-11T10:57:24Z</time>
      </trkpt>
      <trkpt lat="47.27447" lon="-1.62476">
        <ele>48.1</ele>
        <time>2015-11-11T10:57:29Z</time>
      </trkpt>
      <trkpt lat="47.2744" lon="-1.62474">
        <ele>47.3</ele>
        <time>2015-11-11T10:57:34Z</time>
      </trkpt>
      <trkpt lat="47.27432" lon="-1.6247">
        <ele>47.4</ele>
        <time>2015-11-11T10:57:40Z</time>
      </trkpt>
      <trkpt lat="47.27426" lon="-1.62466">
        <ele>48</ele>
        <time>2015-11-11T10:57:46Z</time>
      </trkpt>
      <trkpt lat="47.27418" lon="-1.62466">
        <ele>48.5</ele>
        <time>2015-11-11T10:57:52Z</time>
      </trkpt>
      <trkpt lat="47.27411" lon="-1.6247">
        <ele>48.9</ele>
        <time>2015-11-11T10:57:59Z</time>
      </trkpt>
      <trkpt lat="47.27407" lon="-1.6248">
        <ele>48.7</ele>
        <time>2015-11-11T10:58:06Z</time>
      </trkpt>
      <trkpt lat="47.27402" lon="-1.62501">
        <ele>49.2</ele>
        <time>2015-11-11T10:58:20Z</time>
      </trkpt>
      <trkpt lat="47.27397" lon="-1.62509">
        <ele>50</ele>
        <time>2015-11-11T10:58:26Z</time>
      </trkpt>
      <trkpt lat="47.2739" lon="-1.62515">
        <ele>50.5</ele>
        <time>2015-11-11T10:58:34Z</time>
      </trkpt>
      <trkpt lat="47.27382" lon="-1.62516">
        <ele>50.7</ele>
        <time>2015-11-11T10:58:42Z</time>
      </trkpt>
      <trkpt lat="47.27375" lon="-1.62517">
        <ele>51.9</ele>
        <time>2015-11-11T10:58:49Z</time>
      </trkpt>
      <trkpt lat="47.27366" lon="-1.62518">
        <ele>51.3</ele>
        <time>2015-11-11T10:58:55Z</time>
      </trkpt>
      <trkpt lat="47.27358" lon="-1.62518">
        <ele>51.7</ele>
        <time>2015-11-11T10:59:02Z</time>
      </trkpt>
      <trkpt lat="47.2735" lon="-1.62518">
        <ele>52.4</ele>
        <time>2015-11-11T10:59:09Z</time>
      </trkpt>
      <trkpt lat="47.27335" lon="-1.62519">
        <ele>53.5</ele>
        <time>2015-11-11T10:59:25Z</time>
      </trkpt>
      <trkpt lat="47.27328" lon="-1.62519">
        <ele>54.2</ele>
        <time>2015-11-11T10:59:36Z</time>
      </trkpt>
      <trkpt lat="47.27321" lon="-1.62514">
        <ele>53.8</ele>
        <time>2015-11-11T10:59:45Z</time>
      </trkpt>
      <trkpt lat="47.27315" lon="-1.62507">
        <ele>54.6</ele>
        <time>2015-11-11T10:59:53Z</time>
      </trkpt>
      <trkpt lat="47.27307" lon="-1.62504">
        <ele>53.6</ele>
        <time>2015-11-11T11:00:10Z</time>
      </trkpt>
      <trkpt lat="47.273" lon="-1.62546">
        <ele>54</ele>
        <time>2015-11-11T11:00:42Z</time>
      </trkpt>
      <trkpt lat="47.27308" lon="-1.62548">
        <ele>54.9</ele>
        <time>2015-11-11T11:00:48Z</time>
      </trkpt>
      <trkpt lat="47.27285" lon="-1.62556">
        <ele>54</ele>
        <time>2015-11-11T11:01:19Z</time>
      </trkpt>
      <trkpt lat="47.27298" lon="-1.62551">
        <ele>54.2</ele>
        <time>2015-11-11T11:01:40Z</time>
      </trkpt>
      <trkpt lat="47.27317" lon="-1.62541">
        <ele>54</ele>
        <time>2015-11-11T11:02:02Z</time>
      </trkpt>
      <trkpt lat="47.27319" lon="-1.62552">
        <ele>55</ele>
        <time>2015-11-11T11:02:37Z</time>
      </trkpt>
      <trkpt lat="47.27322" lon="-1.62561">
        <ele>52</ele>
        <time>2015-11-11T11:03:04Z</time>
      </trkpt>
      <trkpt lat="47.27333" lon="-1.62555">
        <ele>53</ele>
        <time>2015-11-11T11:03:16Z</time>
      </trkpt>
      <trkpt lat="47.27338" lon="-1.62563">
        <ele>53.9</ele>
        <time>2015-11-11T11:03:28Z</time>
      </trkpt>
      <trkpt lat="47.27336" lon="-1.62544">
        <ele>53</ele>
        <time>2015-11-11T11:03:43Z</time>
      </trkpt>
      <trkpt lat="47.27323" lon="-1.62555">
        <ele>54</ele>
        <time>2015-11-11T11:04:38Z</time>
      </trkpt>
      <trkpt lat="47.27294" lon="-1.62553">
        <ele>54</ele>
        <time>2015-11-11T11:05:01Z</time>
      </trkpt>
      <trkpt lat="47.27312" lon="-1.62554">
        <ele>54</ele>
        <time>2015-11-11T11:05:56Z</time>
      </trkpt>
      <trkpt lat="47.27315" lon="-1.62581">
        <ele>53</ele>
        <time>2015-11-11T11:06:21Z</time>
      </trkpt>
      <trkpt lat="47.27323" lon="-1.62575">
        <ele>55</ele>
        <time>2015-11-11T11:06:27Z</time>
      </trkpt>
      <trkpt lat="47.27331" lon="-1.62569">
        <ele>54</ele>
        <time>2015-11-11T11:06:40Z</time>
      </trkpt>
      <trkpt lat="47.27337" lon="-1.62564">
        <ele>54</ele>
        <time>2015-11-11T11:06:48Z</time>
      </trkpt>
      <trkpt lat="47.27345" lon="-1.62559">
        <ele>53.7</ele>
        <time>2015-11-11T11:07:00Z</time>
      </trkpt>
      <trkpt lat="47.27353" lon="-1.62557">
        <ele>53.8</ele>
        <time>2015-11-11T11:07:03Z</time>
      </trkpt>
      <trkpt lat="47.27361" lon="-1.62555">
        <ele>54.4</ele>
        <time>2015-11-11T11:07:07Z</time>
      </trkpt>
      <trkpt lat="47.27368" lon="-1.62549">
        <ele>53</ele>
        <time>2015-11-11T11:07:19Z</time>
      </trkpt>
      <trkpt lat="47.27392" lon="-1.62547">
        <ele>54</ele>
        <time>2015-11-11T11:07:31Z</time>
      </trkpt>
      <trkpt lat="47.273" lon="-1.62517">
        <ele>54</ele>
        <time>2015-11-11T11:09:11Z</time>
      </trkpt>
      <trkpt lat="47.27299" lon="-1.62538">
        <ele>54.1</ele>
        <time>2015-11-11T11:09:26Z</time>
      </trkpt>
      <trkpt lat="47.27293" lon="-1.62545">
        <ele>54</ele>
        <time>2015-11-11T11:09:34Z</time>
      </trkpt>
      <trkpt lat="47.273" lon="-1.62545">
        <ele>54.9</ele>
        <time>2015-11-11T11:09:53Z</time>
      </trkpt>
      <trkpt lat="47.27306" lon="-1.62553">
        <ele>54</ele>
        <time>2015-11-11T11:10:16Z</time>
      </trkpt>
      <trkpt lat="47.27303" lon="-1.6255">
        <ele>54.5</ele>
        <time>2015-11-11T11:10:35Z</time>
      </trkpt>
      <trkpt lat="47.27291" lon="-1.62533">
        <ele>54</ele>
        <time>2015-11-11T11:10:41Z</time>
      </trkpt>
      <trkpt lat="47.27284" lon="-1.62534">
        <ele>54</ele>
        <time>2015-11-11T11:10:48Z</time>
      </trkpt>
      <trkpt lat="47.27328" lon="-1.62586">
        <ele>54</ele>
        <time>2015-11-11T11:11:14Z</time>
      </trkpt>
      <trkpt lat="47.27303" lon="-1.62588">
        <ele>54</ele>
        <time>2015-11-11T11:11:20Z</time>
      </trkpt>
      <trkpt lat="47.27308" lon="-1.62549">
        <ele>54</ele>
        <time>2015-11-11T11:11:28Z</time>
      </trkpt>
      <trkpt lat="47.27303" lon="-1.62559">
        <ele>53</ele>
        <time>2015-11-11T11:11:38Z</time>
      </trkpt>
      <trkpt lat="47.27318" lon="-1.62555">
        <ele>53</ele>
        <time>2015-11-11T11:11:52Z</time>
      </trkpt>
      <trkpt lat="47.27387" lon="-1.62554">
        <ele>54</ele>
        <time>2015-11-11T11:12:16Z</time>
      </trkpt>
      <trkpt lat="47.27326" lon="-1.62538">
        <ele>54</ele>
        <time>2015-11-11T11:12:39Z</time>
      </trkpt>
      <trkpt lat="47.27307" lon="-1.62537">
        <ele>54</ele>
        <time>2015-11-11T11:12:58Z</time>
      </trkpt>
      <trkpt lat="47.27282" lon="-1.62492">
        <ele>54</ele>
        <time>2015-11-11T11:14:47Z</time>
      </trkpt>
      <trkpt lat="47.27293" lon="-1.62529">
        <ele>54</ele>
        <time>2015-11-11T11:14:58Z</time>
      </trkpt>
      <trkpt lat="47.27291" lon="-1.62513">
        <ele>54</ele>
        <time>2015-11-11T11:15:14Z</time>
      </trkpt>
      <trkpt lat="47.27291" lon="-1.62498">
        <ele>55</ele>
        <time>2015-11-11T11:15:22Z</time>
      </trkpt>
      <trkpt lat="47.27294" lon="-1.62509">
        <ele>54</ele>
        <time>2015-11-11T11:15:29Z</time>
      </trkpt>
      <trkpt lat="47.27296" lon="-1.62519">
        <ele>54</ele>
        <time>2015-11-11T11:15:37Z</time>
      </trkpt>
      <trkpt lat="47.27299" lon="-1.6253">
        <ele>55.1</ele>
        <time>2015-11-11T11:15:44Z</time>
      </trkpt>
      <trkpt lat="47.27296" lon="-1.62546">
        <ele>54</ele>
        <time>2015-11-11T11:15:55Z</time>
      </trkpt>
      <trkpt lat="47.27309" lon="-1.62558">
        <ele>54</ele>
        <time>2015-11-11T11:16:09Z</time>
      </trkpt>
      <trkpt lat="47.27303" lon="-1.62549">
        <ele>54.6</ele>
        <time>2015-11-11T11:16:30Z</time>
      </trkpt>
      <trkpt lat="47.27303" lon="-1.62539">
        <ele>55.3</ele>
        <time>2015-11-11T11:16:33Z</time>
      </trkpt>
      <trkpt lat="47.27302" lon="-1.62527">
        <ele>54.9</ele>
        <time>2015-11-11T11:16:37Z</time>
      </trkpt>
      <trkpt lat="47.27303" lon="-1.62515">
        <ele>55.2</ele>
        <time>2015-11-11T11:16:42Z</time>
      </trkpt>
      <trkpt lat="47.27304" lon="-1.62504">
        <ele>54.7</ele>
        <time>2015-11-11T11:16:48Z</time>
      </trkpt>
      <trkpt lat="47.27307" lon="-1.62494">
        <ele>55</ele>
        <time>2015-11-11T11:16:57Z</time>
      </trkpt>
      <trkpt lat="47.27315" lon="-1.6249">
        <ele>55.2</ele>
        <time>2015-11-11T11:17:10Z</time>
      </trkpt>
      <trkpt lat="47.27329" lon="-1.62491">
        <ele>53.7</ele>
        <time>2015-11-11T11:17:52Z</time>
      </trkpt>
      <trkpt lat="47.27335" lon="-1.62483">
        <ele>53.6</ele>
        <time>2015-11-11T11:18:14Z</time>
      </trkpt>
      <trkpt lat="47.27345" lon="-1.62478">
        <ele>52.2</ele>
        <time>2015-11-11T11:18:22Z</time>
      </trkpt>
    </trkseg>
  </trk>
</gpx>